Provisional Data: Conodoguinet Creek near Schlusser, PA


Please select a monitoring station.
Please select start date.
Please select start date.

Toggle Unit: C/F Toggle Unit: C/F
Sample Time Temperature (C) Temperature (F) Specific Conductivity (mS/cm) pH   Turbidity (NTU+) DO (mg/L)
6/22/2021 12:00:00 AM 24.54 76.172 7.85 506.9 5.97 1711
6/22/2021 12:15:00 AM 24.54 76.172 7.85 506.8 5.99 1729
6/22/2021 12:30:00 AM 24.52 76.136 7.84 470.2 5.98 1736
6/22/2021 12:45:00 AM 24.5 76.1 7.84 472.4 6 1743
6/22/2021 1:00:00 AM 24.47 76.046 7.84 506.8 5.97 1798
6/22/2021 1:15:00 AM 24.45 76.01 7.84 506.8 5.98 1805
6/22/2021 1:30:00 AM 24.42 75.956 7.84 507 6 1851
6/22/2021 1:45:00 AM 24.39 75.902 7.84 507.3 6 2000
6/22/2021 2:00:00 AM 24.36 75.848 7.84 507.6 6.04 2308
6/22/2021 2:15:00 AM 24.32 75.776 7.84 507.4 6.06 2338
6/22/2021 2:30:00 AM 24.28 75.704 7.85 507.6 6.06 2401
6/22/2021 2:45:00 AM 24.23 75.614 7.84 507.5 6.07 2411
6/22/2021 3:00:00 AM 24.19 75.542 7.85 507.5 6.11 2606
6/22/2021 3:15:00 AM 24.17 75.506 7.85 507.3 6.1 2633
6/22/2021 3:30:00 AM 24.16 75.488 7.85 505 6.09 2640
6/22/2021 3:45:00 AM 24.12 75.416 7.85 507 6.12 2653
6/22/2021 4:00:00 AM 24.1 75.38 7.85 506.9 6.13 2660
6/22/2021 4:15:00 AM 24.1 75.38 7.85 507 6.13 2647
6/22/2021 4:30:00 AM 24.09 75.362 7.84 507.2 6.13 2653
6/22/2021 4:45:00 AM 24.08 75.344 7.85 507.2 6.13 2662
6/22/2021 5:00:00 AM 24.05 75.29 7.84 507.3 6.14 2838
6/22/2021 5:15:00 AM 24.03 75.254 7.84 507.4 6.14 2956
6/22/2021 5:30:00 AM 24.02 75.236 7.84 507.3 6.18 3108
6/22/2021 5:45:00 AM 24.01 75.218 7.84 507.1 6.14 2843
6/22/2021 6:00:00 AM 24 75.2 7.84 506.8 6.15 3195
6/22/2021 6:15:00 AM 23.99 75.182 7.84 506.3 6.18 3179
6/22/2021 6:30:00 AM 23.99 75.182 7.85 505.9 6.21 3292
6/22/2021 6:45:00 AM 23.95 75.11 7.85 505.4 6.24 3831
6/22/2021 7:00:00 AM 23.94 75.092 7.85 504.8 6.26 3875
6/22/2021 7:15:00 AM 23.93 75.074 7.86 504.3 6.26 3896
6/22/2021 7:30:00 AM 23.91 75.038 7.86 503.5 6.33 3982
6/22/2021 7:45:00 AM 23.91 75.038 7.85 502.5 6.32 3991
6/22/2021 8:00:00 AM 23.9 75.02 7.86 501.4 6.39 4059
6/22/2021 8:15:00 AM 23.88 74.984 7.87 498.8 6.48 3826
6/22/2021 8:30:00 AM 23.88 74.984 7.89 497.1 6.58 3397
6/22/2021 8:45:00 AM 23.85 74.93 7.88 495.5 6.57 3752
6/22/2021 9:00:00 AM 23.8 74.84 7.89 491.7 6.68 4465
6/22/2021 9:15:00 AM 23.81 74.858 7.9 490.7 6.71 4486
6/22/2021 9:30:00 AM 23.82 74.876 7.9 489.1 6.75 4486
6/22/2021 9:45:00 AM 23.85 74.93 7.91 488.2 6.8 4486
6/22/2021 10:00:00 AM 23.84 74.912 7.9 487.1 6.87 4486
6/22/2021 10:15:00 AM 23.82 74.876 7.91 486.4 6.96 4486
6/22/2021 10:30:00 AM 23.8 74.84 7.91 484.7 7.08 4486
6/22/2021 10:45:00 AM 23.83 74.894 7.92 484.6 7.19 4486
6/22/2021 11:00:00 AM 23.87 74.966 7.92 484.9 7.32 4486
6/22/2021 11:15:00 AM 23.86 74.948 7.92 484 7.39 4486
6/22/2021 11:30:00 AM 23.87 74.966 7.93 484.8 7.48 4486
6/22/2021 11:45:00 AM 23.9 75.02 7.93 485.5 7.55 4486
6/22/2021 12:00:00 PM 23.93 75.074 7.94 486.4 7.63 4486
6/22/2021 12:15:00 PM 23.97 75.146 7.95 487.2 7.81 4486
6/22/2021 12:30:00 PM 23.97 75.146 7.96 487.6 7.9 4486
6/22/2021 12:45:00 PM 24.02 75.236 7.97 488.7 7.96 4486
6/22/2021 1:00:00 PM 24.04 75.272 7.98 490 8.04 4486
6/22/2021 1:15:00 PM 24.12 75.416 7.97 491.5 8.17 4486
6/22/2021 1:30:00 PM 24.12 75.416 7.99 492 8.22 4486
6/22/2021 1:45:00 PM 24.12 75.416 7.99 492.8 8.26 4486
6/22/2021 2:00:00 PM 24.12 75.416 7.99 493.6 8.28 4486
6/22/2021 2:15:00 PM 24.11 75.398 8 493.8 8.32 4486
6/22/2021 2:30:00 PM 24.14 75.452 8.01 494.3 8.42 4486
6/22/2021 2:45:00 PM 24.12 75.416 8.02 494.9 8.51 4486
6/22/2021 3:00:00 PM 24.08 75.344 8.02 495.2 8.58 4486
6/22/2021 3:15:00 PM 24.07 75.326 8.02 495.6 8.59 4486
6/22/2021 3:30:00 PM 24.05 75.29 8.03 496.3 8.61 4486
6/22/2021 3:45:00 PM 24.07 75.326 8.03 496.5 8.7 4486
6/22/2021 4:00:00 PM 24.1 75.38 8.01 497.1 8.75 4486
6/22/2021 4:15:00 PM 24.07 75.326 8.02 497.3 8.83 4486
6/22/2021 4:30:00 PM 24.05 75.29 8.03 497.9 8.86 4486
6/22/2021 4:45:00 PM 24.02 75.236 8.03 498 8.86 4486
6/22/2021 5:00:00 PM 24.17 75.506 8.04 498.3 8.94 4486
6/22/2021 5:15:00 PM 24.32 75.776 8.01 499.3 9 4486
6/22/2021 5:30:00 PM 24.31 75.758 8.03 499.9 8.96 4486
6/22/2021 5:45:00 PM 24.32 75.776 8.03 500.6 8.89 4486
6/22/2021 6:00:00 PM 24.24 75.632 8.03 501.1 8.87 4486
6/22/2021 6:15:00 PM 24.26 75.668 8.03 501.6 8.84 4486
6/22/2021 6:30:00 PM 24.3 75.74 8.02 501.9 8.8 4486
6/22/2021 6:45:00 PM 24.19 75.542 8.03 502 8.75 4486
6/22/2021 7:00:00 PM 24.06 75.308 8.02 502.7 8.62 4486
6/22/2021 7:15:00 PM 23.88 74.984 7.99 503.2 8.43 4486
6/22/2021 7:30:00 PM 23.71 74.67799 8 504 8.26 4486
6/22/2021 7:45:00 PM 23.51 74.318 7.98 504.5 8.02 4486
6/22/2021 8:00:00 PM 23.36 74.048 7.96 504.9 7.86 4486
6/22/2021 8:15:00 PM 23.22 73.796 7.93 505.3 7.65 4486
6/22/2021 8:30:00 PM 23.06 73.508 7.9 505.8 7.5 4361
6/22/2021 8:45:00 PM 22.92 73.256 7.87 505.6 7.31 4478
6/22/2021 9:00:00 PM 22.79 73.022 7.87 506 7.16 4487
6/22/2021 9:15:00 PM 22.68 72.824 7.85 506 7.05 4486
6/22/2021 9:30:00 PM 22.56 72.608 7.84 505.9 6.97 4486
6/22/2021 9:45:00 PM 22.46 72.42799 7.83 505.8 6.89 4486
6/22/2021 10:00:00 PM 22.37 72.266 7.82 505.6 6.83 4486
6/22/2021 10:15:00 PM 22.28 72.104 7.81 505.4 6.79 4486
6/22/2021 10:30:00 PM 22.18 71.924 7.79 505.5 6.7 4486
6/22/2021 10:45:00 PM 22.12 71.816 7.79 505.2 6.68 4487
6/22/2021 11:00:00 PM 22.02 71.636 7.79 505 6.67 4487
6/22/2021 11:15:00 PM 21.97 71.546 7.78 504.9 6.66 4486
6/22/2021 11:30:00 PM 21.91 71.438 7.77 504.7 6.7 4487
6/22/2021 11:45:00 PM 21.84 71.312 7.77 504.6 6.72 4486
6/23/2021 12:00:00 AM 21.78 71.204 7.75 504.6 6.69 4487
6/23/2021 12:15:00 AM 21.73 71.114 7.73 504.6 6.72 4487
6/23/2021 12:30:00 AM 21.65 70.97 7.72 504.4 6.72 4487
6/23/2021 12:45:00 AM 21.59 70.862 7.73 504.3 6.7 4487
6/23/2021 1:00:00 AM 21.54 70.772 7.74 504 6.74 4487
6/23/2021 1:15:00 AM 21.47 70.646 7.73 503.8 6.76 4487
6/23/2021 1:30:00 AM 21.4 70.52 7.72 503.8 6.78 4486
6/23/2021 1:45:00 AM 21.35 70.43 7.72 503.5 6.79 4486
6/23/2021 2:00:00 AM 21.3 70.34 7.72 503 6.81 4487
6/23/2021 2:15:00 AM 21.24 70.232 7.72 502.7 6.83 4487
6/23/2021 2:30:00 AM 21.18 70.124 7.73 502.6 6.84 4487
6/23/2021 2:45:00 AM 21.14 70.052 7.74 502.3 6.87 4487
6/23/2021 3:00:00 AM 21.06 69.908 7.73 502.3 6.86 4487
6/23/2021 3:15:00 AM 21.01 69.818 7.73 501.9 6.88 4487
6/23/2021 3:30:00 AM 20.96 69.728 7.73 501.8 6.89 4487
6/23/2021 3:45:00 AM 20.88 69.584 7.67 501.5 6.87 4487
6/23/2021 4:00:00 AM 20.83 69.494 7.72 501.2 6.89 4487
6/23/2021 4:15:00 AM 20.78 69.404 7.73 500.7 6.94 4487
6/23/2021 4:30:00 AM 20.72 69.296 7.74 500.2 6.98 4487
6/23/2021 4:45:00 AM 20.66 69.188 7.74 499.7 6.97 4487
6/23/2021 5:00:00 AM 20.6 69.08 7.74 499 7.04 4487
6/23/2021 5:15:00 AM 20.55 68.99 7.73 498.8 7.04 4486
6/23/2021 5:30:00 AM 20.49 68.882 7.72 498.6 7.03 4487
6/23/2021 5:45:00 AM 20.41 68.738 7.73 498 7.03 4487
6/23/2021 6:00:00 AM 20.36 68.648 7.73 497.4 7.04 4487
6/23/2021 6:15:00 AM 20.32 68.576 7.73 497 7.06 4487
6/23/2021 6:30:00 AM 20.3 68.54 7.75 496.5 7.14 4487
6/23/2021 6:45:00 AM 20.26 68.468 7.73 496 7.2 4487
6/23/2021 7:00:00 AM 20.24 68.432 7.75 495.5 7.23 4487
6/23/2021 7:15:00 AM 20.26 68.468 7.76 494.9 7.31 4487
6/23/2021 7:30:00 AM 20.27 68.486 7.77 494.6 7.4 4487
6/23/2021 7:45:00 AM 20.29 68.522 7.79 493.9 7.45 4487
6/23/2021 8:00:00 AM 20.31 68.558 7.81 493.6 7.51 4487
6/23/2021 8:15:00 AM 20.34 68.612 7.82 493.3 7.6 4487
6/23/2021 8:30:00 AM 20.36 68.648 7.81 493 7.64 4487
6/23/2021 8:45:00 AM 20.39 68.702 7.84 492.5 7.69 4487
6/23/2021 9:00:00 AM 20.45 68.81 7.83 492.3 7.78 4487
6/23/2021 9:15:00 AM 20.46 68.828 7.85 492 7.84 4487
6/23/2021 9:30:00 AM 20.51 68.918 7.86 491.8 7.89 4487
6/23/2021 9:45:00 AM 20.54 68.972 7.87 491.4 7.99 4487
6/23/2021 10:00:00 AM 20.59 69.062 7.88 491.2 8.06 4487
6/23/2021 10:15:00 AM 20.65 69.17 7.89 490.9 8.13 4487
6/23/2021 10:30:00 AM 19.02 66.236 7.97 2 9.38 2.17
6/23/2021 10:45:00 AM 20.78 69.404 0.486 7.63 6.79 8.7
6/23/2021 11:00:00 AM 20.95 69.71 0.486 7.69 5.55 8.7
6/23/2021 11:15:00 AM 21.04 69.872 0.486 7.8 5.28 8.83
6/23/2021 11:30:00 AM 21.18 70.124 0.486 7.86 6.73 8.99
6/23/2021 11:45:00 AM 21.38 70.484 0.485 7.9 6.21 9.11
6/23/2021 12:00:00 PM 21.62 70.916 0.485 7.93 6.84 9.26
6/23/2021 12:15:00 PM 21.85 71.33 0.485 7.97 6.68 9.39
6/23/2021 12:30:00 PM 22.09 71.762 0.485 8 6.36 9.52
6/23/2021 12:45:00 PM 22.31 72.158 0.485 8.03 7.89 9.67
6/23/2021 1:00:00 PM 22.33 72.194 0.485 8.07 6.91 9.7
6/23/2021 1:15:00 PM 22.56 72.608 0.486 8.08 9.48 9.76
6/23/2021 1:30:00 PM 22.86 73.148 0.486 8.09 9.71 9.88
6/23/2021 1:45:00 PM 23.13 73.634 0.486 8.11 11.45 9.99
6/23/2021 2:00:00 PM 23.1 73.58 0.486 8.13 12.25 10.01
6/23/2021 2:15:00 PM 23.42 74.156 0.487 8.12 12.77 10.03
6/23/2021 2:30:00 PM 23.77 74.786 0.487 8.15 13.53 10.15
6/23/2021 2:45:00 PM 23.92 75.056 0.487 8.15 15.95 10.2
6/23/2021 3:00:00 PM 23.67 74.606 0.487 8.17 13.18 10.04
6/23/2021 3:15:00 PM 23.95 75.11 0.487 8.17 14.56 10.04
6/23/2021 3:30:00 PM 23.74 74.732 0.487 8.18 12.84 10
6/23/2021 3:45:00 PM 23.98 75.164 0.488 8.19 12.4 9.99
6/23/2021 4:00:00 PM 24.19 75.542 0.488 8.18 14.26 10.04
6/23/2021 4:15:00 PM 24.27 75.686 0.488 8.19 13.14 10.03
6/23/2021 4:30:00 PM 24.26 75.668 0.488 8.19 8.97 10.06
6/23/2021 4:45:00 PM 24.1 75.38 0.488 8.2 10.17 9.94
6/23/2021 5:00:00 PM 24.02 75.236 0.488 8.2 16.58 9.9
6/23/2021 5:15:00 PM 24.08 75.344 0.489 8.18 12.41 9.91
6/23/2021 5:30:00 PM 23.95 75.11 0.489 8.19 13.58 9.88
6/23/2021 5:45:00 PM 23.8 74.84 0.489 8.19 16.28 9.83
6/23/2021 6:00:00 PM 23.74 74.732 0.489 8.19 15.64 9.76
6/23/2021 6:15:00 PM 23.59 74.462 0.489 8.19 28.85 9.69
6/23/2021 6:30:00 PM 23.36 74.048 0.49 8.19 19.86 9.53
6/23/2021 6:45:00 PM 23.01 73.418 0.49 8.18 22.19 9.31
6/23/2021 7:00:00 PM 22.69 72.842 0.49 8.16 27.7 9.05
6/23/2021 7:15:00 PM 22.39 72.302 0.491 8.15 30.06 8.81
6/23/2021 7:30:00 PM 22.14 71.852 0.491 8.14 37.97 8.67
6/23/2021 7:45:00 PM 21.94 71.492 0.492 8.13 19.75 8.49
6/23/2021 8:00:00 PM 21.77 71.186 0.492 8.12 18.16 8.35
6/23/2021 8:15:00 PM 21.6 70.88 0.493 8.11 20.2 8.22
6/23/2021 8:30:00 PM 21.42 70.556 0.494 8.09 22.47 8.1
6/23/2021 8:45:00 PM 21.28 70.304 0.494 8.08 20.33 8
6/23/2021 9:00:00 PM 21.14 70.052 0.495 8.07 23.29 7.9
6/23/2021 9:15:00 PM 21.01 69.818 0.496 8.06 19.8 7.8
6/23/2021 9:30:00 PM 20.89 69.602 0.496 8.05 17.85 7.74
6/23/2021 9:45:00 PM 20.78 69.404 0.497 8.04 25.77 7.68
6/23/2021 10:00:00 PM 20.69 69.242 0.497 8.04 17.77 7.62
6/23/2021 10:15:00 PM 20.6 69.08 0.496 8.01 18.61 7.59
6/23/2021 10:30:00 PM 20.51 68.918 0.498 8.01 11.36 7.53
6/23/2021 10:45:00 PM 20.44 68.792 0.498 8.01 5.64 7.55
6/23/2021 11:00:00 PM 20.36 68.648 0.498 8 4.38 7.52
6/23/2021 11:15:00 PM 20.29 68.522 0.498 8 7.24 7.54
6/23/2021 11:30:00 PM 20.23 68.414 0.498 7.99 4.63 7.53
6/23/2021 11:45:00 PM 20.16 68.288 0.498 7.98 7.55 7.53
6/24/2021 12:00:00 AM 20.11 68.198 0.498 7.99 5.84 7.53
6/24/2021 12:15:00 AM 20.07 68.126 0.498 7.98 5.7 7.54
6/24/2021 12:30:00 AM 20.02 68.036 0.499 7.98 3.68 7.53
6/24/2021 12:45:00 AM 19.98 67.964 0.499 7.98 4.74 7.54
6/24/2021 1:00:00 AM 19.94 67.892 0.499 7.98 4.8 7.56
6/24/2021 1:15:00 AM 19.92 67.856 0.499 7.98 4.05 7.55
6/24/2021 1:30:00 AM 19.89 67.802 0.499 7.97 13.86 7.52
6/24/2021 1:45:00 AM 19.84 67.712 0.499 7.97 5.89 7.57
6/24/2021 2:00:00 AM 19.82 67.676 0.499 7.98 3.55 7.58
6/24/2021 2:15:00 AM 19.78 67.604 0.499 7.97 5.34 7.59
6/24/2021 2:30:00 AM 19.76 67.568 0.499 7.97 4.12 7.59
6/24/2021 2:45:00 AM 19.74 67.532 0.499 7.96 5.79 7.59
6/24/2021 3:00:00 AM 19.73 67.514 0.499 7.97 7.03 7.63
6/24/2021 3:15:00 AM 19.7 67.46 0.5 7.97 5.24 7.63
6/24/2021 3:30:00 AM 19.68 67.424 0.5 7.97 5.94 7.66
6/24/2021 3:45:00 AM 19.67 67.406 0.5 7.97 4.61 7.65
6/24/2021 4:00:00 AM 19.64 67.352 0.499 7.98 5.21 7.66
6/24/2021 4:15:00 AM 19.62 67.316 0.499 7.98 6.58 7.65
6/24/2021 4:30:00 AM 19.62 67.316 0.499 7.98 5.74 7.67
6/24/2021 4:45:00 AM 19.6 67.28 0.499 7.98 15.08 7.65
6/24/2021 5:00:00 AM 19.59 67.262 0.498 7.98 13.39 7.66
6/24/2021 5:15:00 AM 19.61 67.298 0.498 7.98 10.22 7.68
6/24/2021 5:30:00 AM 19.61 67.298 0.497 7.99 10.06 7.68
6/24/2021 5:45:00 AM 19.63 67.334 0.497 7.99 5.22 7.71
6/24/2021 6:00:00 AM 19.66 67.388 0.497 8 6.62 7.72
6/24/2021 6:15:00 AM 19.65 67.37 0.497 7.99 6.05 7.74
6/24/2021 6:30:00 AM 19.67 67.406 0.497 8 4.96 7.72
6/24/2021 6:45:00 AM 19.69 67.442 0.496 8 5.68 7.76
6/24/2021 7:00:00 AM 19.72 67.496 0.496 8 4.16 7.76
6/24/2021 7:15:00 AM 19.75 67.55 0.496 8 3.9 7.83
6/24/2021 7:30:00 AM 19.83 67.694 0.496 8.01 4.23 7.88
6/24/2021 7:45:00 AM 19.92 67.856 0.496 8.01 4.47 7.98
6/24/2021 8:00:00 AM 20 68 0.496 8.02 4.47 8.04
6/24/2021 8:15:00 AM 20.08 68.144 0.495 8.03 5.13 8.13
6/24/2021 8:30:00 AM 20.16 68.288 0.495 8.04 5.18 8.23
6/24/2021 8:45:00 AM 20.27 68.486 0.495 8.05 4.03 8.29
6/24/2021 9:00:00 AM 20.36 68.648 0.495 8.06 3.8 8.37
6/24/2021 9:15:00 AM 20.46 68.828 0.495 8.06 3.12 8.43
6/24/2021 9:30:00 AM 20.56 69.008 0.495 8.07 4.73 8.52
6/24/2021 9:45:00 AM 20.65 69.17 0.495 8.07 3.42 8.56
6/24/2021 10:00:00 AM 20.76 69.368 0.496 8.08 2.72 8.58
6/24/2021 10:15:00 AM 20.89 69.602 0.496 8.1 3.36 8.71
6/24/2021 10:30:00 AM 21.03 69.854 0.496 8.1 2.13 8.79
6/24/2021 10:45:00 AM 21.13 70.034 0.496 8.11 2.59 8.9
6/24/2021 11:00:00 AM 21.29 70.32201 0.496 8.13 4.14 9
6/24/2021 11:15:00 AM 21.44 70.592 0.496 8.13 3.26 9.16
6/24/2021 11:30:00 AM 21.63 70.934 0.496 8.15 4.07 9.31
6/24/2021 11:45:00 AM 21.84 71.312 0.496 8.16 3.54 9.46
6/24/2021 12:00:00 PM 22.11 71.798 0.496 8.17 2.75 9.59
6/24/2021 12:15:00 PM 22.35 72.23 0.496 8.18 3.35 9.72
6/24/2021 12:30:00 PM 22.6 72.68 0.496 8.2 3.02 9.89
6/24/2021 12:45:00 PM 22.87 73.166 0.495 8.22 3.12 10.04
6/24/2021 1:00:00 PM 23.21 73.778 0.495 8.22 3.02 10.2
6/24/2021 1:15:00 PM 23.53 74.354 0.495 8.22 3.56 10.35
6/24/2021 1:30:00 PM 23.69 74.642 0.495 8.24 2.95 10.42
6/24/2021 1:45:00 PM 23.79 74.82201 0.495 8.25 3.06 10.41
6/24/2021 2:00:00 PM 24.05 75.29 0.495 8.25 4.46 10.43
6/24/2021 2:15:00 PM 24.32 75.776 0.495 8.26 5.03 10.6
6/24/2021 2:30:00 PM 24.48 76.064 0.495 8.26 6.41 10.57
6/24/2021 2:45:00 PM 24.64 76.352 0.495 8.26 7.64 10.58
6/24/2021 3:00:00 PM 24.83 76.694 0.496 8.27 7.26 10.62
6/24/2021 3:15:00 PM 24.94 76.892 0.495 8.27 11.21 10.61
6/24/2021 3:30:00 PM 25.12 77.216 0.495 8.28 9.41 10.72
6/24/2021 3:45:00 PM 25.23 77.414 0.495 8.28 8.35 10.78
6/24/2021 4:00:00 PM 25.26 77.468 0.496 8.28 8.93 10.75
6/24/2021 4:15:00 PM 24.94 76.892 0.496 8.29 7.87 10.5
6/24/2021 4:30:00 PM 25.15 77.27 0.496 8.29 10.03 10.51
6/24/2021 4:45:00 PM 24.96 76.92799 0.496 8.28 15.5 10.47
6/24/2021 5:00:00 PM 25.06 77.108 0.496 8.27 11.71 10.43
6/24/2021 5:15:00 PM 24.96 76.92799 0.496 8.28 14.88 10.43
6/24/2021 5:30:00 PM 24.73 76.514 0.496 8.28 17.63 10.22
6/24/2021 5:45:00 PM 24.61 76.298 0.496 8.27 19.21 10.13
6/24/2021 6:00:00 PM 24.46 76.028 0.496 8.27 21.05 9.98
6/24/2021 6:15:00 PM 24.36 75.848 0.496 8.26 24.51 9.9
6/24/2021 6:30:00 PM 24.14 75.452 0.496 8.26 31.82 9.69
6/24/2021 6:45:00 PM 23.95 75.11 0.496 8.25 33.61 9.57
6/24/2021 7:00:00 PM 23.66 74.588 0.497 8.24 37.83 9.35
6/24/2021 7:15:00 PM 23.38 74.084 0.497 8.23 38.96 9.08
6/24/2021 7:30:00 PM 23.13 73.634 0.497 8.22 44.68 8.79
6/24/2021 7:45:00 PM 22.87 73.166 0.498 8.2 43.92 8.59
6/24/2021 8:00:00 PM 22.66 72.788 0.498 8.19 49.91 8.34
6/24/2021 8:15:00 PM 22.49 72.482 0.498 8.17 52.65 8.22
6/24/2021 8:30:00 PM 22.31 72.158 0.498 8.15 52.13 8.05
6/24/2021 8:45:00 PM 22.16 71.888 0.498 8.15 83.05 7.93
6/24/2021 9:00:00 PM 22.04 71.672 0.499 8.13 44.12 7.79
6/24/2021 9:15:00 PM 21.89 71.402 0.499 8.11 53.12 7.71
6/24/2021 9:30:00 PM 21.77 71.186 0.499 8.1 41.5 7.6
6/24/2021 9:45:00 PM 21.67 71.006 0.499 8.09 40.04 7.53
6/24/2021 10:00:00 PM 21.57 70.826 0.5 8.07 35.27 7.49
6/24/2021 10:15:00 PM 21.49 70.682 0.5 8.07 32.16 7.42
6/24/2021 10:30:00 PM 21.4 70.52 0.501 8.05 29.12 7.43
6/24/2021 10:45:00 PM 21.33 70.394 0.501 8.05 27.37 7.39
6/24/2021 11:00:00 PM 21.24 70.232 0.501 8.04 22.84 7.36
6/24/2021 11:15:00 PM 21.17 70.106 0.501 8.03 22.3 7.35
6/24/2021 11:30:00 PM 21.1 69.98 0.501 8.03 19.83 7.31
6/24/2021 11:45:00 PM 21.03 69.854 0.501 8.02 17.28 7.32
6/25/2021 12:00:00 AM 20.96 69.728 0.501 8.02 14.37 7.35
6/25/2021 12:15:00 AM 20.9 69.62 0.501 8.02 15.45 7.34
6/25/2021 12:30:00 AM 20.83 69.494 0.501 8.01 14.56 7.34
6/25/2021 12:45:00 AM 20.78 69.404 0.501 8.01 16.17 7.36
6/25/2021 1:00:00 AM 20.71 69.278 0.501 8 14.9 7.37
6/25/2021 1:15:00 AM 20.65 69.17 0.501 8 13.39 7.38
6/25/2021 1:30:00 AM 20.6 69.08 0.502 8.01 13.05 7.4
6/25/2021 1:45:00 AM 20.54 68.972 0.502 7.99 11.89 7.37
6/25/2021 2:00:00 AM 20.5 68.9 0.502 8 11.96 7.39
6/25/2021 2:15:00 AM 20.46 68.828 0.501 7.99 11.37 7.41
6/25/2021 2:30:00 AM 20.42 68.756 0.494 8 12.24 7.41
6/25/2021 2:45:00 AM 20.36 68.648 0.501 7.99 12.92 7.42
6/25/2021 3:00:00 AM 20.33 68.594 0.501 7.99 9.9 7.42
6/25/2021 3:15:00 AM 20.29 68.522 0.501 7.99 9.84 7.46
6/25/2021 3:30:00 AM 20.25 68.45 0.497 7.99 9.86 7.46
6/25/2021 3:45:00 AM 20.22 68.396 0.5 8 10.25 7.47
6/25/2021 4:00:00 AM 20.18 68.324 0.5 7.99 8.43 7.48
6/25/2021 4:15:00 AM 20.14 68.252 0.5 7.99 8.75 7.47
6/25/2021 4:30:00 AM 20.11 68.198 0.5 7.99 13.15 7.46
6/25/2021 4:45:00 AM 20.08 68.144 0.5 7.99 10.19 7.48
6/25/2021 5:00:00 AM 20.05 68.09 0.499 7.99 9.32 7.47
6/25/2021 5:15:00 AM 20.03 68.054 0.499 7.98 9.8 7.43
6/25/2021 5:30:00 AM 20.01 68.018 0.499 7.99 7.35 7.5
6/25/2021 5:45:00 AM 19.99 67.982 0.498 7.99 6.2 7.53
6/25/2021 6:00:00 AM 19.98 67.964 0.497 7.98 5.78 7.55
6/25/2021 6:15:00 AM 19.96 67.92799 0.496 7.99 5.88 7.57
6/25/2021 6:30:00 AM 19.97 67.946 0.495 8 5.17 7.59
6/25/2021 6:45:00 AM 19.99 67.982 0.494 7.99 6.93 7.64
6/25/2021 7:00:00 AM 20.03 68.054 0.493 8 6.05 7.67
6/25/2021 7:15:00 AM 20.09 68.162 0.492 8.01 6.55 7.75
6/25/2021 7:30:00 AM 20.16 68.288 0.491 8.01 5.54 7.82
6/25/2021 7:45:00 AM 20.24 68.432 0.491 8.01 6.61 7.91
6/25/2021 8:00:00 AM 20.3 68.54 0.49 8.03 6.88 7.99
6/25/2021 8:15:00 AM 20.41 68.738 0.489 8.02 5.99 8.12
6/25/2021 8:30:00 AM 20.51 68.918 0.488 8.05 4.99 8.25
6/25/2021 8:45:00 AM 20.6 69.08 0.488 8.04 5.33 8.34
6/25/2021 9:00:00 AM 20.72 69.296 0.487 8.05 5.27 8.43
6/25/2021 9:15:00 AM 20.79 69.422 0.486 8.07 5.35 8.54
6/25/2021 9:30:00 AM 20.9 69.62 0.486 8.07 5.36 8.63
6/25/2021 9:45:00 AM 21 69.8 0.485 8.09 4.77 8.73
6/25/2021 10:00:00 AM 21.09 69.962 0.485 8.09 5.33 8.82
6/25/2021 10:15:00 AM 21.2 70.16 0.484 8.11 4.23 8.96
6/25/2021 10:30:00 AM 21.36 70.448 0.483 8.13 5.31 9.11
6/25/2021 10:45:00 AM 21.51 70.718 0.483 8.13 4.57 9.24
6/25/2021 11:00:00 AM 21.66 70.988 0.482 8.15 4.75 9.37
6/25/2021 11:15:00 AM 21.83 71.294 0.481 8.16 5.09 9.54
6/25/2021 11:30:00 AM 22.05 71.69 0.481 8.18 4.56 9.67
6/25/2021 11:45:00 AM 22.32 72.176 0.48 8.19 4.84 9.84
6/25/2021 12:00:00 PM 22.55 72.59 0.479 8.21 4.41 9.97
6/25/2021 12:15:00 PM 22.83 73.094 0.479 8.22 4.28 10.1
6/25/2021 12:30:00 PM 23.16 73.688 0.478 8.23 6.09 10.25
6/25/2021 12:45:00 PM 23.51 74.318 0.477 8.25 5.08 10.4
6/25/2021 1:00:00 PM 23.82 74.876 0.476 8.26 5.09 10.5
6/25/2021 1:15:00 PM 24.09 75.362 0.476 8.26 6.03 10.6
6/25/2021 1:30:00 PM 24.36 75.848 0.475 8.28 4.74 10.72
6/25/2021 1:45:00 PM 24.61 76.298 0.475 8.28 5.33 10.87
6/25/2021 2:00:00 PM 24.96 76.92799 0.474 8.29 4.3 10.97
6/25/2021 2:15:00 PM 25.24 77.432 0.473 8.3 4.96 11.04
6/25/2021 2:30:00 PM 25.48 77.864 0.473 8.3 5.71 11.07
6/25/2021 2:45:00 PM 25.66 78.188 0.473 8.32 4.94 11.16
6/25/2021 3:00:00 PM 25.72 78.296 0.472 8.32 5.86 11.14
6/25/2021 3:15:00 PM 25.84 78.512 0.472 8.32 6.18 11.12
6/25/2021 3:30:00 PM 26 78.8 0.472 8.33 5.99 11.12
6/25/2021 3:45:00 PM 26.14 79.052 0.471 8.33 5.84 11.13
6/25/2021 4:00:00 PM 26.25 79.25 0.471 8.32 5.41 11.06
6/25/2021 4:15:00 PM 26.34 79.412 0.471 8.33 5.96 11.08
6/25/2021 4:30:00 PM 26.41 79.538 0.47 8.33 6.74 11.01
6/25/2021 4:45:00 PM 26.38 79.484 0.47 8.33 6.16 10.91
6/25/2021 5:00:00 PM 26.36 79.448 0.471 8.33 5.87 10.87
6/25/2021 5:15:00 PM 26.13 79.034 0.47 8.33 5.36 10.74
6/25/2021 5:30:00 PM 25.96 78.728 0.47 8.33 5.68 10.61
6/25/2021 5:45:00 PM 25.63 78.134 0.471 8.32 5.79 10.32
6/25/2021 6:00:00 PM 25.48 77.864 0.47 8.31 6.28 10.18
6/25/2021 6:15:00 PM 25.35 77.63 0.47 8.31 5.9 10.08
6/25/2021 6:30:00 PM 25.12 77.216 0.47 8.3 5.48 9.9
6/25/2021 6:45:00 PM 24.83 76.694 0.47 8.3 6.89 9.64
6/25/2021 7:00:00 PM 24.48 76.064 0.47 8.28 7.33 9.36
6/25/2021 7:15:00 PM 24.22 75.596 0.471 8.27 6.21 9.12
6/25/2021 7:30:00 PM 24 75.2 0.471 8.26 5.97 8.87
6/25/2021 7:45:00 PM 23.78 74.804 0.471 8.24 6.67 8.64
6/25/2021 8:00:00 PM 23.57 74.426 0.471 8.22 7.03 8.41
6/25/2021 8:15:00 PM 23.39 74.102 0.471 8.21 7.91 8.21
6/25/2021 8:30:00 PM 23.23 73.814 0.471 8.19 7.9 8.03
6/25/2021 8:45:00 PM 23.08 73.544 0.471 8.17 7.87 7.85
6/25/2021 9:00:00 PM 22.95 73.31 0.471 8.16 7.78 7.68
6/25/2021 9:15:00 PM 22.83 73.094 0.472 8.14 8.31 7.55
6/25/2021 9:30:00 PM 22.72 72.896 0.472 8.11 7.7 7.39
6/25/2021 9:45:00 PM 22.61 72.698 0.472 8.09 11.38 7.3
6/25/2021 10:00:00 PM 22.52 72.536 0.472 8.07 20.38 7.23
6/25/2021 10:15:00 PM 22.43 72.374 0.472 8.07 7.01 7.16
6/25/2021 10:30:00 PM 22.34 72.212 0.473 8.04 7.3 7.11
6/25/2021 10:45:00 PM 22.27 72.086 0.473 8.04 8.22 7.06
6/25/2021 11:00:00 PM 22.19 71.942 0.474 8.03 8.64 7.02
6/25/2021 11:15:00 PM 22.12 71.816 0.474 8.01 7.39 6.98
6/25/2021 11:30:00 PM 22.05 71.69 0.474 8 7.98 6.97
6/25/2021 11:45:00 PM 21.98 71.564 0.474 8 9.15 6.98
6/26/2021 12:00:00 AM 21.92 71.456 0.474 7.99 7.18 6.97
6/26/2021 12:15:00 AM 21.86 71.348 0.474 7.99 9.48 6.94
6/26/2021 12:30:00 AM 21.81 71.258 0.474 7.98 7.32 6.97
6/26/2021 12:45:00 AM 21.77 71.186 0.474 7.97 12.77 6.97
6/26/2021 1:00:00 AM 21.72 71.096 0.474 7.96 7.19 6.99
6/26/2021 1:15:00 AM 21.69 71.042 0.474 7.97 10.35 7.01
6/26/2021 1:30:00 AM 21.66 70.988 0.474 7.96 7.58 7.01
6/26/2021 1:45:00 AM 21.62 70.916 0.473 7.96 6.95 6.98
6/26/2021 2:00:00 AM 21.62 70.916 0.472 7.96 8.31 6.97
6/26/2021 2:15:00 AM 21.63 70.934 0.473 7.95 6.38 6.96
6/26/2021 2:30:00 AM 21.63 70.934 0.473 7.95 6.65 6.93
6/26/2021 2:45:00 AM 21.65 70.97 0.473 7.95 6.93 7
6/26/2021 3:00:00 AM 21.67 71.006 0.473 7.95 9.53 7.03
6/26/2021 3:15:00 AM 21.68 71.024 0.473 7.94 7.09 7.02
6/26/2021 3:30:00 AM 21.7 71.06 0.473 7.94 8.16 7.04
6/26/2021 3:45:00 AM 21.69 71.042 0.474 7.94 20.5 6.96
6/26/2021 4:00:00 AM 21.71 71.078 0.474 7.93 8.24 6.92
6/26/2021 4:15:00 AM 21.73 71.114 0.474 7.94 19.41 6.95
6/26/2021 4:30:00 AM 21.75 71.15 0.471 7.93 17.64 7.01
6/26/2021 4:45:00 AM 21.77 71.186 0.474 7.93 11.86 7
6/26/2021 5:00:00 AM 21.78 71.204 0.473 7.93 11.67 7
6/26/2021 5:15:00 AM 21.77 71.186 0.474 7.92 8.11 6.97
6/26/2021 5:30:00 AM 21.78 71.204 0.475 7.92 12.6 6.93
6/26/2021 5:45:00 AM 21.8 71.24 0.474 7.92 33.32 6.95
6/26/2021 6:00:00 AM 21.82 71.276 0.474 7.92 23.6 6.99
6/26/2021 6:15:00 AM 21.83 71.294 0.474 7.93 9.77 6.92
6/26/2021 6:30:00 AM 21.87 71.366 0.474 7.92 8.01 7.01
6/26/2021 6:45:00 AM 21.89 71.402 0.474 7.92 7.41 7.04
6/26/2021 7:00:00 AM 21.94 71.492 0.473 7.93 14.55 7.13
6/26/2021 7:15:00 AM 21.99 71.582 0.473 7.92 8.69 7.18
6/26/2021 7:30:00 AM 22.04 71.672 0.473 7.93 12.86 7.26
6/26/2021 7:45:00 AM 22.09 71.762 0.472 7.94 7.24 7.34
6/26/2021 8:00:00 AM 22.17 71.906 0.472 7.96 20.73 7.49
6/26/2021 8:15:00 AM 22.25 72.05 0.472 7.97 5.65 7.59
6/26/2021 8:30:00 AM 22.34 72.212 0.472 7.98 6 7.7
6/26/2021 8:45:00 AM 22.47 72.446 0.471 7.99 5.77 7.89
6/26/2021 9:00:00 AM 22.61 72.698 0.471 8 4.75 8.11
6/26/2021 9:15:00 AM 22.65 72.77 0.471 8.02 4.94 8.23
6/26/2021 9:30:00 AM 22.75 72.95 0.47 8.04 4.25 8.35
6/26/2021 9:45:00 AM 22.84 73.112 0.47 8.06 4.91 8.5
6/26/2021 10:00:00 AM 22.9 73.22 0.47 8.06 3.83 8.65
6/26/2021 10:15:00 AM 23.03 73.454 0.469 8.08 3.58 8.82
6/26/2021 10:30:00 AM 23.16 73.688 0.469 8.1 4.08 8.97
6/26/2021 10:45:00 AM 23.38 74.084 0.468 8.12 4.55 9.19
6/26/2021 11:00:00 AM 23.6 74.48 0.468 8.14 3.7 9.38
6/26/2021 11:15:00 AM 23.63 74.534 0.468 8.16 3.58 9.44
6/26/2021 11:30:00 AM 23.76 74.768 0.468 8.17 4.49 9.53
6/26/2021 11:45:00 AM 23.82 74.876 0.468 8.18 3.68 9.61
6/26/2021 12:00:00 PM 23.88 74.984 0.468 8.19 4.72 9.55
6/26/2021 12:15:00 PM 23.93 75.074 0.468 8.2 4.5 9.57
6/26/2021 12:30:00 PM 23.97 75.146 0.468 8.21 4.38 9.49
6/26/2021 12:45:00 PM 24.09 75.362 0.468 8.22 3.71 9.6
6/26/2021 1:00:00 PM 24.27 75.686 0.467 8.22 4.17 9.79
6/26/2021 1:15:00 PM 24.51 76.118 0.467 8.24 5.8 10.01
6/26/2021 1:30:00 PM 24.64 76.352 0.467 8.24 3.79 10.1
6/26/2021 1:45:00 PM 24.8 76.64 0.466 8.27 4.85 10.3
6/26/2021 2:00:00 PM 25.15 77.27 0.466 8.26 2.82 10.44
6/26/2021 2:15:00 PM 25.45 77.81 0.466 8.28 4.75 10.62
6/26/2021 2:30:00 PM 25.46 77.828 0.466 8.29 4.42 10.66
6/26/2021 2:45:00 PM 25.51 77.918 0.466 8.29 4.43 10.74
6/26/2021 3:00:00 PM 25.61 78.098 0.466 8.31 5.38 10.75
6/26/2021 3:15:00 PM 25.59 78.062 0.466 8.31 12.26 10.61
6/26/2021 3:30:00 PM 25.81 78.458 0.466 8.31 5.71 10.64
6/26/2021 3:45:00 PM 25.95 78.71 0.467 8.31 2.81 10.64
6/26/2021 4:00:00 PM 26.27 79.286 0.467 8.31 4.88 10.74
6/26/2021 4:15:00 PM 26.52 79.736 0.467 8.31 6.12 10.82
6/26/2021 4:30:00 PM 26.62 79.916 0.467 8.32 4.52 10.77
6/26/2021 4:45:00 PM 26.75 80.15 0.467 8.32 8.49 10.68
6/26/2021 5:00:00 PM 26.73 80.114 0.468 8.33 4.57 10.68
6/26/2021 5:15:00 PM 26.8 80.24 0.469 8.31 3.87 10.56
6/26/2021 5:30:00 PM 26.73 80.114 0.469 8.32 6.17 10.46
6/26/2021 5:45:00 PM 26.7 80.06 0.47 8.3 7.81 10.43
6/26/2021 6:00:00 PM 26.67 80.006 0.47 8.31 6 10.3
6/26/2021 6:15:00 PM 26.53 79.754 0.471 8.3 4.48 10.12
6/26/2021 6:30:00 PM 26.39 79.502 0.471 8.29 4.09 9.96
6/26/2021 6:45:00 PM 26.14 79.052 0.472 8.28 4.22 9.73
6/26/2021 7:00:00 PM 25.86 78.548 0.473 8.27 3.8 9.44
6/26/2021 7:15:00 PM 25.6 78.08 0.474 8.26 4.69 9.16
6/26/2021 7:30:00 PM 25.36 77.648 0.474 8.25 3.55 8.78
6/26/2021 7:45:00 PM 25.1 77.18 0.475 8.22 4.81 8.49
6/26/2021 8:00:00 PM 24.88 76.784 0.477 8.2 3.58 8.21
6/26/2021 8:15:00 PM 24.75 76.55 0.477 8.19 4.43 7.99
6/26/2021 8:30:00 PM 24.57 76.226 0.478 8.17 3.32 7.75
6/26/2021 8:45:00 PM 24.4 75.92 0.478 8.15 4.55 7.57
6/26/2021 9:00:00 PM 24.27 75.686 0.479 8.13 5.98 7.41
6/26/2021 9:15:00 PM 24.15 75.47 0.479 8.1 4.67 7.26
6/26/2021 9:30:00 PM 24.04 75.272 0.48 8.1 5.77 7.14
6/26/2021 9:45:00 PM 23.96 75.128 0.48 8.08 5.61 7.02
6/26/2021 10:00:00 PM 23.85 74.93 0.48 8.06 8.2 6.92
6/26/2021 10:15:00 PM 23.77 74.786 0.48 8.04 5.45 6.83
6/26/2021 10:30:00 PM 23.69 74.642 0.481 8.02 5.74 6.74
6/26/2021 10:45:00 PM 23.6 74.48 0.481 8.01 5.01 6.68
6/26/2021 11:00:00 PM 23.52 74.336 0.481 8 9.29 6.62
6/26/2021 11:15:00 PM 23.45 74.21 0.481 7.98 4.58 6.61
6/26/2021 11:30:00 PM 23.39 74.102 0.481 7.97 8.08 6.58
6/26/2021 11:45:00 PM 23.33 73.994 0.481 7.96 7.39 6.58
6/27/2021 12:00:00 AM 23.27 73.886 0.48 7.96 4.63 6.58
6/27/2021 12:15:00 AM 23.21 73.778 0.481 7.95 7.36 6.57
6/27/2021 12:30:00 AM 23.16 73.688 0.481 7.95 7.65 6.54
6/27/2021 12:45:00 AM 23.1 73.58 0.481 7.94 7 6.55
6/27/2021 1:00:00 AM 23.05 73.49 0.481 7.93 8.17 6.51
6/27/2021 1:15:00 AM 23.01 73.418 0.481 7.93 5.61 6.54
6/27/2021 1:30:00 AM 22.96 73.328 0.481 7.92 7.36 6.54
6/27/2021 1:45:00 AM 22.93 73.274 0.481 7.92 4.79 6.53
6/27/2021 2:00:00 AM 22.89 73.202 0.481 7.91 6.96 6.54
6/27/2021 2:15:00 AM 22.85 73.13 0.481 7.91 4.82 6.56
6/27/2021 2:30:00 AM 22.81 73.058 0.481 7.91 6.49 6.55
6/27/2021 2:45:00 AM 22.78 73.004 0.481 7.91 10.24 6.55
6/27/2021 3:00:00 AM 22.75 72.95 0.481 7.9 4.43 6.57
6/27/2021 3:15:00 AM 22.7 72.86 0.482 7.9 9.2 6.57
6/27/2021 3:30:00 AM 22.67 72.806 0.482 7.89 7.53 6.56
6/27/2021 3:45:00 AM 22.66 72.788 0.482 7.9 7.78 6.59
6/27/2021 4:00:00 AM 22.63 72.734 0.482 7.9 7.17 6.61
6/27/2021 4:15:00 AM 22.59 72.662 0.483 7.9 8.38 6.58
6/27/2021 4:30:00 AM 22.57 72.626 0.483 7.9 4.4 6.59
6/27/2021 4:45:00 AM 22.55 72.59 0.483 7.89 4.62 6.6
6/27/2021 5:00:00 AM 22.53 72.554 0.483 7.89 4.94 6.63
6/27/2021 5:15:00 AM 22.5 72.5 0.484 7.89 9.76 6.58
6/27/2021 5:30:00 AM 22.46 72.42799 0.484 7.89 9.34 6.6
6/27/2021 5:45:00 AM 22.45 72.41 0.484 7.89 8.65 6.62
6/27/2021 6:00:00 AM 22.43 72.374 0.484 7.88 7.53 6.61
6/27/2021 6:15:00 AM 22.42 72.356 0.484 7.89 6.89 6.65
6/27/2021 6:30:00 AM 22.4 72.32 0.484 7.89 6.3 6.66
6/27/2021 6:45:00 AM 22.41 72.338 0.484 7.89 9.74 6.73
6/27/2021 7:00:00 AM 22.44 72.392 0.484 7.89 7.49 6.71
6/27/2021 7:15:00 AM 22.46 72.42799 0.484 7.89 7.96 6.78
6/27/2021 7:30:00 AM 22.51 72.518 0.484 7.89 6.58 6.89
6/27/2021 7:45:00 AM 22.58 72.644 0.483 7.89 5.44 6.99
6/27/2021 8:00:00 AM 22.67 72.806 0.483 7.89 10.9 7.1
6/27/2021 8:15:00 AM 22.77 72.986 0.483 7.91 5.41 7.22
6/27/2021 8:30:00 AM 22.83 73.094 0.482 7.92 4.58 7.3
6/27/2021 8:45:00 AM 22.92 73.256 0.482 7.91 4.31 7.43
6/27/2021 9:00:00 AM 23.02 73.436 0.481 7.92 5.53 7.54
6/27/2021 9:15:00 AM 23.11 73.598 0.481 7.94 4.01 7.66
6/27/2021 9:30:00 AM 23.2 73.76 0.48 7.96 4.83 7.79
6/27/2021 9:45:00 AM 23.29 73.922 0.48 7.96 10.09 7.89
6/27/2021 10:00:00 AM 23.42 74.156 0.479 7.97 5.2 8.01
6/27/2021 10:15:00 AM 23.53 74.354 0.479 7.99 3.72 8.14
6/27/2021 10:30:00 AM 23.65 74.57 0.479 8 5.54 8.26
6/27/2021 10:45:00 AM 23.82 74.876 0.478 8.01 4.06 8.4
6/27/2021 11:00:00 AM 23.99 75.182 0.477 8.03 4.51 8.56
6/27/2021 11:15:00 AM 24.2 75.56 0.477 8.04 4.46 8.72
6/27/2021 11:30:00 AM 24.48 76.064 0.477 8.06 4.73 8.98
6/27/2021 11:45:00 AM 24.77 76.586 0.476 8.08 3.78 9.18
6/27/2021 12:00:00 PM 25.07 77.126 0.476 8.1 4.09 9.35
6/27/2021 12:15:00 PM 25.42 77.756 0.475 8.11 4.78 9.59
6/27/2021 12:30:00 PM 25.79 78.422 0.475 8.13 4.08 9.82
6/27/2021 12:45:00 PM 25.95 78.71 0.475 8.15 4.23 9.97
6/27/2021 1:00:00 PM 25.91 78.638 0.475 8.17 6.14 9.83
6/27/2021 1:15:00 PM 26.09 78.962 0.474 8.18 5.53 9.98
6/27/2021 1:30:00 PM 26.52 79.736 0.474 8.19 4.97 10.25
6/27/2021 1:45:00 PM 26.9 80.42 0.473 8.2 4.74 10.34
6/27/2021 2:00:00 PM 27.33 81.194 0.473 8.21 6.78 10.43
6/27/2021 2:15:00 PM 27.69 81.842 0.472 8.22 5.75 10.61
6/27/2021 2:30:00 PM 28.03 82.454 0.472 8.24 6.91 10.68
6/27/2021 2:45:00 PM 28.25 82.85 0.472 8.25 6.15 10.76
6/27/2021 3:00:00 PM 28.52 83.336 0.471 8.26 6.23 10.81
6/27/2021 3:15:00 PM 28.78 83.804 0.471 8.26 6.04 10.9
6/27/2021 3:30:00 PM 29.02 84.236 0.471 8.27 5.88 10.98
6/27/2021 3:45:00 PM 29.25 84.65 0.471 8.28 8.54 11
6/27/2021 4:00:00 PM 29.18 84.524 0.471 8.28 5.72 10.97
6/27/2021 4:15:00 PM 29.07 84.326 0.471 8.28 7.35 10.79
6/27/2021 4:30:00 PM 29.08 84.344 0.471 8.3 5.09 10.76
6/27/2021 4:45:00 PM 28.73 83.714 0.472 8.29 6.96 10.44
6/27/2021 5:00:00 PM 28.44 83.192 0.472 8.29 5.55 9.95
6/27/2021 5:15:00 PM 28.55 83.39 0.472 8.28 6.45 9.91
6/27/2021 5:30:00 PM 28.33 82.994 0.472 8.27 6.03 9.76
6/27/2021 5:45:00 PM 28.15 82.67 0.473 8.26 7.18 9.57
6/27/2021 6:00:00 PM 27.93 82.274 0.474 8.26 6.79 9.42
6/27/2021 6:15:00 PM 27.65 81.77 0.474 8.25 6.26 9.15
6/27/2021 6:30:00 PM 27.37 81.266 0.475 8.23 6.86 8.96
6/27/2021 6:45:00 PM 27.07 80.726 0.476 8.23 7.77 8.71
6/27/2021 7:00:00 PM 26.92 80.456 0.477 8.21 12.26 8.54
6/27/2021 7:15:00 PM 26.78 80.204 0.478 8.2 11.98 8.45
6/27/2021 7:30:00 PM 26.61 79.898 0.478 8.18 8.9 8.29
6/27/2021 7:45:00 PM 26.44 79.592 0.479 8.17 7.69 8.1
6/27/2021 8:00:00 PM 26.28 79.304 0.479 8.17 7.51 7.88
6/27/2021 8:15:00 PM 26.11 78.998 0.48 8.15 7.07 7.67
6/27/2021 8:30:00 PM 25.96 78.728 0.481 8.14 9.17 7.49
6/27/2021 8:45:00 PM 25.84 78.512 0.481 8.12 7.24 7.3
6/27/2021 9:00:00 PM 25.73 78.314 0.482 8.11 8.5 7.09
6/27/2021 9:15:00 PM 25.65 78.17 0.482 8.09 9.17 6.97
6/27/2021 9:30:00 PM 25.56 78.008 0.483 8.06 13.14 6.86
6/27/2021 9:45:00 PM 25.49 77.882 0.483 8.06 8.21 6.71
6/27/2021 10:00:00 PM 25.42 77.756 0.484 8.04 11.02 6.61
6/27/2021 10:15:00 PM 25.35 77.63 0.484 8.02 11.61 6.52
6/27/2021 10:30:00 PM 25.29 77.522 0.485 8.01 9.68 6.43
6/27/2021 10:45:00 PM 25.23 77.414 0.485 7.99 9.19 6.37
6/27/2021 11:00:00 PM 25.17 77.306 0.486 7.98 13.96 6.33
6/27/2021 11:15:00 PM 25.11 77.198 0.486 7.97 12.17 6.25
6/27/2021 11:30:00 PM 25.06 77.108 0.487 7.96 12.38 6.25
6/27/2021 11:45:00 PM 25.02 77.036 0.487 7.95 14.93 6.18
6/28/2021 12:00:00 AM 24.97 76.946 0.487 7.94 12.42 6.17
6/28/2021 12:15:00 AM 24.92 76.856 0.488 7.93 11.82 6.14
6/28/2021 12:30:00 AM 24.88 76.784 0.488 7.91 11.51 6.17
6/28/2021 12:45:00 AM 24.84 76.712 0.488 7.91 10.13 6.16
6/28/2021 1:00:00 AM 24.8 76.64 0.488 7.91 12.71 6.17
6/28/2021 1:15:00 AM 24.76 76.568 0.487 7.91 9.26 6.19
6/28/2021 1:30:00 AM 24.72 76.496 0.487 7.9 12.06 6.17
6/28/2021 1:45:00 AM 24.69 76.442 0.487 7.9 13.16 6.2
6/28/2021 2:00:00 AM 24.64 76.352 0.486 7.9 11.57 6.23
6/28/2021 2:15:00 AM 24.61 76.298 0.486 7.9 13.75 6.21
6/28/2021 2:30:00 AM 24.56 76.208 0.486 7.9 10.57 6.2
6/28/2021 2:45:00 AM 24.52 76.136 0.486 7.88 10.67 6.22
6/28/2021 3:00:00 AM 24.49 76.082 0.485 7.89 13.22 6.24
6/28/2021 3:15:00 AM 24.46 76.028 0.485 7.89 13.81 6.29
6/28/2021 3:30:00 AM 24.42 75.956 0.485 7.89 12.2 6.3
6/28/2021 3:45:00 AM 24.38 75.884 0.485 7.89 12.35 6.29
6/28/2021 4:00:00 AM 24.34 75.812 0.484 7.89 14.07 6.29
6/28/2021 4:15:00 AM 24.31 75.758 0.484 7.88 9.65 6.32
6/28/2021 4:30:00 AM 24.27 75.686 0.484 7.88 11.79 6.28
6/28/2021 4:45:00 AM 24.25 75.65 0.484 7.88 13.94 6.28
6/28/2021 5:00:00 AM 24.24 75.632 0.484 7.87 16.18 6.3
6/28/2021 5:15:00 AM 24.24 75.632 0.484 7.88 14.18 6.37
6/28/2021 5:30:00 AM 24.22 75.596 0.484 7.88 15.6 6.33
6/28/2021 5:45:00 AM 24.21 75.578 0.484 7.88 14.86 6.37
6/28/2021 6:00:00 AM 24.21 75.578 0.484 7.88 32.3 6.38
6/28/2021 6:15:00 AM 24.21 75.578 0.484 7.88 12.16 6.36
6/28/2021 6:30:00 AM 24.22 75.596 0.484 7.86 9.99 6.38
6/28/2021 6:45:00 AM 24.26 75.668 0.484 7.87 12.64 6.41
6/28/2021 7:00:00 AM 24.28 75.704 0.484 7.87 10.3 6.45
6/28/2021 7:15:00 AM 24.32 75.776 0.484 7.87 13.33 6.54
6/28/2021 7:30:00 AM 24.36 75.848 0.484 7.86 10 6.59
6/28/2021 7:45:00 AM 24.42 75.956 0.484 7.88 12.39 6.69
6/28/2021 8:00:00 AM 24.49 76.082 0.483 7.89 12.9 6.8
6/28/2021 8:15:00 AM 24.58 76.244 0.483 7.89 11.15 6.95
6/28/2021 8:30:00 AM 24.61 76.298 0.483 7.9 10.85 7.02
6/28/2021 8:45:00 AM 24.66 76.388 0.482 7.91 10.85 7.1
6/28/2021 9:00:00 AM 24.83 76.694 0.482 7.92 9.34 7.28
6/28/2021 9:15:00 AM 24.93 76.874 0.482 7.93 11.2 7.4
6/28/2021 9:30:00 AM 25.03 77.054 0.481 7.94 13.44 7.54
6/28/2021 9:45:00 AM 25.14 77.252 0.481 7.96 12.02 7.67
6/28/2021 10:00:00 AM 25.25 77.45 0.48 7.97 11.02 7.77
6/28/2021 10:15:00 AM 25.35 77.63 0.48 7.98 12.34 7.87
6/28/2021 10:30:00 AM 25.47 77.846 0.48 7.99 10.16 8.01
6/28/2021 10:45:00 AM 25.62 78.116 0.48 8.01 11.02 8.12
6/28/2021 11:00:00 AM 25.8 78.44 0.48 8.01 11.49 8.27
6/28/2021 11:15:00 AM 26 78.8 0.479 8.04 11.38 8.47
6/28/2021 11:30:00 AM 26.29 79.32201 0.478 8.06 12.29 8.71
6/28/2021 11:45:00 AM 26.63 79.934 0.478 8.07 11.31 8.94
6/28/2021 12:00:00 PM 26.96 80.528 0.477 8.09 13.18 9.17
6/28/2021 12:15:00 PM 27.35 81.23 0.477 8.1 12.06 9.39
6/28/2021 12:30:00 PM 27.48 81.464 0.476 8.12 14.01 9.47
6/28/2021 12:45:00 PM 27.82 82.076 0.476 8.14 11.48 9.69
6/28/2021 1:00:00 PM 28.19 82.742 0.476 8.15 12.34 9.83
6/28/2021 1:15:00 PM 28.6 83.48 0.475 8.16 13.69 10.02
6/28/2021 1:30:00 PM 29.02 84.236 0.475 8.18 14.82 10.17
6/28/2021 1:45:00 PM 29.35 84.83 0.475 8.19 12.28 10.23
6/28/2021 2:00:00 PM 29.48 85.064 0.475 8.2 13.63 10.29
6/28/2021 2:15:00 PM 29.79 85.622 0.475 8.21 11.33 10.3
6/28/2021 2:30:00 PM 30.12 86.216 0.475 8.21 11.79 10.38
6/28/2021 2:45:00 PM 30.2 86.36 0.476 8.22 12.3 10.33
6/28/2021 3:00:00 PM 29.81 85.658 0.477 8.22 12.96 9.98
6/28/2021 3:15:00 PM 29.58 85.244 0.477 8.22 13.96 9.79
6/28/2021 3:30:00 PM 29.78 85.604 0.477 8.22 15.98 9.88
6/28/2021 3:45:00 PM 29.93 85.874 0.477 8.21 16.75 10.01
6/28/2021 4:00:00 PM 30.11 86.198 0.477 8.22 16.05 10.04
6/28/2021 4:15:00 PM 30.02 86.036 0.477 8.22 15.66 10.03
6/28/2021 4:30:00 PM 30.08 86.144 0.478 8.21 15.9 9.91
6/28/2021 4:45:00 PM 30.13 86.23399 0.478 8.21 17.39 9.95
6/28/2021 5:00:00 PM 30.16 86.288 0.478 8.22 17.49 10.02
6/28/2021 5:15:00 PM 29.85 85.73 0.479 8.22 14.2 9.72
6/28/2021 5:30:00 PM 29.6 85.28 0.48 8.21 12.31 9.41
6/28/2021 5:45:00 PM 29.57 85.226 0.481 8.2 14.66 9.28
6/28/2021 6:00:00 PM 29.48 85.064 0.481 8.2 11.96 9.24
6/28/2021 6:15:00 PM 29.39 84.902 0.482 8.19 12.82 9.16
6/28/2021 6:30:00 PM 29.14 84.452 0.482 8.19 13.06 8.93
6/28/2021 6:45:00 PM 28.87 83.966 0.483 8.17 11.12 8.66
6/28/2021 7:00:00 PM 28.65 83.57 0.484 8.17 12.78 8.41
6/28/2021 7:15:00 PM 28.36 83.048 0.485 8.15 10.95 8.17
6/28/2021 7:30:00 PM 28.14 82.652 0.486 8.13 10.77 7.91
6/28/2021 7:45:00 PM 27.88 82.184 0.487 8.11 12.52 7.64
6/28/2021 8:00:00 PM 27.71 81.878 0.488 8.11 14.25 7.42
6/28/2021 8:15:00 PM 27.52 81.536 0.489 8.09 11.38 7.15
6/28/2021 8:30:00 PM 27.35 81.23 0.49 8.08 13.16 7.03
6/28/2021 8:45:00 PM 27.22 80.996 0.491 8.06 14.32 6.85
6/28/2021 9:00:00 PM 27.12 80.816 0.491 8.04 12.32 6.69
6/28/2021 9:15:00 PM 27.02 80.636 0.492 8.02 15.13 6.52
6/28/2021 9:30:00 PM 26.93 80.474 0.492 8.01 10.73 6.39
6/28/2021 9:45:00 PM 26.85 80.33 0.493 7.99 12.44 6.31
6/28/2021 10:00:00 PM 26.78 80.204 0.493 7.98 12.28 6.22
6/28/2021 10:15:00 PM 26.72 80.096 0.494 7.96 11.51 6.12
6/28/2021 10:30:00 PM 26.67 80.006 0.494 7.95 20.74 6.04
6/28/2021 10:45:00 PM 26.62 79.916 0.494 7.94 15.36 5.98
6/28/2021 11:00:00 PM 26.56 79.808 0.494 7.93 12.1 5.95
6/28/2021 11:15:00 PM 26.53 79.754 0.495 7.91 14.08 5.91
6/28/2021 11:30:00 PM 26.48 79.664 0.495 7.9 24.43 5.82
6/28/2021 11:45:00 PM 26.44 79.592 0.495 7.9 11.57 5.78
6/29/2021 12:00:00 AM 26.4 79.52 0.495 7.89 10.33 5.79
6/29/2021 12:15:00 AM 26.37 79.466 0.495 7.88 14.25 5.82
6/29/2021 12:30:00 AM 26.34 79.412 0.496 7.88 15.1 5.79
6/29/2021 12:45:00 AM 26.28 79.304 0.496 7.87 18.1 5.78
6/29/2021 1:00:00 AM 26.26 79.268 0.496 7.87 17.74 5.78
6/29/2021 1:15:00 AM 26.22 79.196 0.496 7.87 18.05 5.75
6/29/2021 1:30:00 AM 26.18 79.124 0.496 7.86 11.19 5.75
6/29/2021 1:45:00 AM 26.13 79.034 0.496 7.86 11.38 5.78
6/29/2021 2:00:00 AM 26.1 78.98 0.496 7.85 15.43 5.74
6/29/2021 2:15:00 AM 26.07 78.926 0.496 7.85 15.83 5.73
6/29/2021 2:30:00 AM 26.03 78.854 0.496 7.85 11.76 5.76
6/29/2021 2:45:00 AM 26 78.8 0.496 7.85 12.82 5.78
6/29/2021 3:00:00 AM 25.96 78.728 0.496 7.85 13.73 5.76
6/29/2021 3:15:00 AM 25.94 78.692 0.496 7.85 13.17 5.84
6/29/2021 3:30:00 AM 25.89 78.602 0.496 7.85 28.48 5.83
6/29/2021 3:45:00 AM 25.88 78.584 0.497 7.84 23.09 5.84
6/29/2021 4:00:00 AM 25.85 78.53 0.496 7.85 14.92 5.86
6/29/2021 4:15:00 AM 25.8 78.44 0.496 7.84 16.64 5.86
6/29/2021 4:30:00 AM 25.79 78.422 0.496 7.85 14.69 5.88
6/29/2021 4:45:00 AM 25.76 78.368 0.497 7.85 15.13 5.91
6/29/2021 5:00:00 AM 25.72 78.296 0.496 7.85 15.39 5.87
6/29/2021 5:15:00 AM 25.68 78.224 0.497 7.84 33.84 5.9
6/29/2021 5:30:00 AM 25.64 78.152 0.497 7.84 20.8 5.8
6/29/2021 5:45:00 AM 25.62 78.116 0.497 7.84 362.5 5.93
6/29/2021 6:00:00 AM 25.6 78.08 0.497 7.84 16.95 5.96
6/29/2021 6:15:00 AM 25.58 78.044 0.497 7.84 18.19 5.94
6/29/2021 6:30:00 AM 25.58 78.044 0.497 7.84 17.54 6.02
6/29/2021 6:45:00 AM 25.58 78.044 0.497 7.83 14.92 6.05
6/29/2021 7:00:00 AM 25.59 78.062 0.497 7.84 12.23 6.07
6/29/2021 7:15:00 AM 25.63 78.134 0.496 7.84 17.27 6.14
6/29/2021 7:30:00 AM 25.68 78.224 0.496 7.85 18.39 6.19
6/29/2021 7:45:00 AM 25.75 78.35 0.495 7.85 12.95 6.32
6/29/2021 8:00:00 AM 25.81 78.458 0.495 7.85 12.46 6.42
6/29/2021 8:15:00 AM 25.91 78.638 0.495 7.86 13.21 6.57
6/29/2021 8:30:00 AM 25.97 78.746 0.493 7.87 13.12 6.69
6/29/2021 8:45:00 AM 26.06 78.908 0.494 7.89 16.21 6.83
6/29/2021 9:00:00 AM 26.15 79.07 0.494 7.89 14.69 6.9
6/29/2021 9:15:00 AM 26.22 79.196 0.493 7.9 12.68 6.98
6/29/2021 9:30:00 AM 26.31 79.358 0.493 7.91 17.41 7.12
6/29/2021 9:45:00 AM 26.39 79.502 0.492 7.91 12.93 7.22
6/29/2021 10:00:00 AM 26.48 79.664 0.49 7.93 11.39 7.32
6/29/2021 10:15:00 AM 26.59 79.862 0.491 7.94 12.01 7.49
6/29/2021 10:30:00 AM 26.72 80.096 0.491 7.95 12.47 7.62
6/29/2021 10:45:00 AM 26.87 80.366 0.489 7.97 15.25 7.76
6/29/2021 11:00:00 AM 27.06 80.708 0.489 7.98 12.87 7.96
6/29/2021 11:15:00 AM 27.28 81.104 0.488 8 16.43 8.14
6/29/2021 11:30:00 AM 27.57 81.626 0.489 8.02 12.01 8.38
6/29/2021 11:45:00 AM 27.84 82.112 0.488 8.03 11.87 8.57
6/29/2021 12:00:00 PM 28.15 82.67 0.488 8.05 12.21 8.83
6/29/2021 12:15:00 PM 28.52 83.336 0.487 8.07 13.34 9.09
6/29/2021 12:30:00 PM 28.7 83.66 0.487 8.09 15.32 9.22
6/29/2021 12:45:00 PM 28.95 84.11 0.486 8.1 17.11 9.27
6/29/2021 1:00:00 PM 29.46 85.028 0.486 8.12 14.21 9.62
6/29/2021 1:15:00 PM 29.74 85.532 0.485 8.14 22.8 9.82
6/29/2021 1:30:00 PM 29.87 85.76601 0.485 8.17 17.52 9.84
6/29/2021 1:45:00 PM 29.84 85.712 0.486 8.18 13.32 9.67
6/29/2021 2:00:00 PM 30.08 86.144 0.486 8.19 14.79 9.71
6/29/2021 2:15:00 PM 30.45 86.81001 0.485 8.2 15.16 9.87
6/29/2021 2:30:00 PM 30.67 87.206 0.485 8.2 15.93 9.82
6/29/2021 2:45:00 PM 30.99 87.782 0.485 8.2 14.08 9.94
6/29/2021 3:00:00 PM 31.35 88.43 0.484 8.21 14.09 10.09
6/29/2021 3:15:00 PM 31.28 88.304 0.485 8.22 15.4 9.97
6/29/2021 3:30:00 PM 31.06 87.908 0.486 8.21 14.08 9.71
6/29/2021 3:45:00 PM 31.22 88.196 0.486 8.21 16.45 9.81
6/29/2021 4:00:00 PM 31.09 87.962 0.486 8.21 13.79 9.61
6/29/2021 4:15:00 PM 31.24 88.232 0.487 8.21 14.25 9.74
6/29/2021 4:30:00 PM 31.29 88.32201 0.487 8.2 15.48 9.68
6/29/2021 4:45:00 PM 31.05 87.89 0.487 8.2 16.08 9.54
6/29/2021 5:00:00 PM 30.76 87.368 0.489 8.2 13.87 9.2
6/29/2021 5:15:00 PM 30.61 87.098 0.489 8.19 14.38 9.01
6/29/2021 5:30:00 PM 30.47 86.84599 0.49 8.19 15.42 8.91
6/29/2021 5:45:00 PM 30.54 86.972 0.489 8.18 13.39 8.92
6/29/2021 6:00:00 PM 30.52 86.936 0.49 8.17 13.68 8.85
6/29/2021 6:15:00 PM 30.48 86.864 0.49 8.17 13.97 8.83
6/29/2021 6:30:00 PM 30.32 86.576 0.491 8.17 16.36 8.67
6/29/2021 6:45:00 PM 30.09 86.162 0.492 8.16 19.3 8.4
6/29/2021 7:00:00 PM 29.89 85.802 0.493 8.15 16.77 8.13
6/29/2021 7:15:00 PM 29.67 85.406 0.494 8.13 20.12 7.83
6/29/2021 7:30:00 PM 29.45 85.01 0.495 8.12 27.34 7.62
6/29/2021 7:45:00 PM 29.25 84.65 0.495 8.11 18.8 7.39
6/29/2021 8:00:00 PM 29.04 84.272 0.497 8.09 27.96 7.21
6/29/2021 8:15:00 PM 28.86 83.948 0.489 8.08 15.07 6.93
6/29/2021 8:30:00 PM 28.72 83.696 0.499 8.06 17.09 6.76
6/29/2021 8:45:00 PM 28.54 83.372 0.5 8.03 12.86 6.56
6/29/2021 9:00:00 PM 28.4 83.12 0.5 8.02 6.27 6.38
6/29/2021 9:15:00 PM 28.29 82.922 0.501 8.01 6.79 6.21
6/29/2021 9:30:00 PM 28.17 82.706 0.501 7.99 6.15 6.1
6/29/2021 9:45:00 PM 28.06 82.508 0.502 7.98 5.94 5.98
6/29/2021 10:00:00 PM 27.98 82.364 0.503 7.96 7.18 5.89
6/29/2021 10:15:00 PM 27.9 82.22 0.503 7.95 6.79 5.81
6/29/2021 10:30:00 PM 27.81 82.058 0.503 7.93 5.71 5.71
6/29/2021 10:45:00 PM 27.74 81.932 0.504 7.92 5.86 5.66
6/29/2021 11:00:00 PM 27.65 81.77 0.504 7.91 6.05 5.59
6/29/2021 11:15:00 PM 27.58 81.644 0.504 7.9 7.81 5.56
6/29/2021 11:30:00 PM 27.51 81.518 0.504 7.89 8.51 5.52
6/29/2021 11:45:00 PM 27.43 81.374 0.505 7.88 7.86 5.52
6/30/2021 12:00:00 AM 27.35 81.23 0.505 7.88 9.13 5.5
6/30/2021 12:15:00 AM 27.29 81.122 0.505 7.88 5.38 5.54
6/30/2021 12:30:00 AM 27.22 80.996 0.505 7.87 6.95 5.5
6/30/2021 12:45:00 AM 27.16 80.888 0.505 7.86 7.16 5.52
6/30/2021 1:00:00 AM 27.11 80.798 0.505 7.87 6.06 5.51
6/30/2021 1:15:00 AM 27.05 80.69 0.505 7.86 3.95 5.5
6/30/2021 1:30:00 AM 27.01 80.618 0.506 7.86 7.68 5.57
6/30/2021 1:45:00 AM 26.96 80.528 0.505 7.85 7.12 5.55
6/30/2021 2:00:00 AM 26.91 80.438 0.505 7.86 7.7 5.56
6/30/2021 2:15:00 AM 26.83 80.294 0.506 7.86 8.08 5.56
6/30/2021 2:30:00 AM 26.79 80.222 0.506 7.86 8.07 5.58
6/30/2021 2:45:00 AM 26.74 80.132 0.506 7.85 8.36 5.62
6/30/2021 3:00:00 AM 26.68 80.024 0.506 7.85 8.91 5.6
6/30/2021 3:15:00 AM 26.63 79.934 0.506 7.85 6.66 5.6
6/30/2021 3:30:00 AM 26.59 79.862 0.506 7.85 4.84 5.62
6/30/2021 3:45:00 AM 26.55 79.79 0.506 7.85 7.98 5.65
6/30/2021 4:00:00 AM 26.5 79.7 0.506 7.85 11.49 5.63
6/30/2021 4:15:00 AM 26.46 79.628 0.507 7.85 6.76 5.67
6/30/2021 4:30:00 AM 26.41 79.538 0.507 7.85 9.8 5.63
6/30/2021 4:45:00 AM 26.38 79.484 0.507 7.85 9.95 5.7
6/30/2021 5:00:00 AM 26.34 79.412 0.507 7.86 10.05 5.71
6/30/2021 5:15:00 AM 26.28 79.304 0.506 7.85 14.11 5.66
6/30/2021 5:30:00 AM 26.24 79.232 0.508 7.85 24.79 5.59
6/30/2021 5:45:00 AM 26.19 79.142 0.508 7.85 3954 5.57
6/30/2021 6:00:00 AM 26.21 79.17799 0.508 7.85 14.08 5.64
6/30/2021 6:15:00 AM 26.18 79.124 0.508 7.85 663.1 5.68
6/30/2021 6:30:00 AM 26.16 79.088 0.508 7.85 3.95 5.71
6/30/2021 6:45:00 AM 26.16 79.088 0.508 7.86 4.83 5.84
6/30/2021 7:00:00 AM 26.18 79.124 0.508 7.86 7.28 5.87
6/30/2021 7:15:00 AM 26.21 79.17799 0.507 7.86 6.7 5.93
6/30/2021 7:30:00 AM 26.24 79.232 0.507 7.86 6.41 6
6/30/2021 7:45:00 AM 26.3 79.34 0.507 7.86 7.43 6.07
6/30/2021 8:00:00 AM 26.34 79.412 0.507 7.87 5.82 6.17
6/30/2021 8:15:00 AM 26.42 79.556 0.506 7.87 4.96 6.27
6/30/2021 8:30:00 AM 26.5 79.7 0.506 7.88 5.43 6.42
6/30/2021 8:45:00 AM 26.59 79.862 0.506 7.88 4.13 6.56
6/30/2021 9:00:00 AM 26.66 79.988 0.506 7.9 4.5 6.66
6/30/2021 9:15:00 AM 26.73 80.114 0.505 7.91 3.85 6.75
6/30/2021 9:30:00 AM 26.8 80.24 0.504 7.91 4.1 6.86
6/30/2021 9:45:00 AM 26.87 80.366 0.504 7.92 4.17 6.96
6/30/2021 10:00:00 AM 26.94 80.492 0.503 7.93 4.01 7.03
6/30/2021 10:15:00 AM 27.06 80.708 0.502 7.94 4.65 7.17
6/30/2021 10:30:00 AM 27.17 80.906 0.502 7.96 4.04 7.3
6/30/2021 10:45:00 AM 27.32 81.176 0.501 7.98 3.11 7.46
6/30/2021 11:00:00 AM 27.5 81.5 0.5 7.98 5.47 7.64
6/30/2021 11:15:00 AM 27.71 81.878 0.5 7.99 3.92 7.81
6/30/2021 11:30:00 AM 27.94 82.292 0.499 8.02 3.5 8.04
6/30/2021 11:45:00 AM 28.16 82.688 0.498 8.03 4.17 8.21
6/30/2021 12:00:00 PM 28.38 83.084 0.498 8.05 3.85 8.39
6/30/2021 12:15:00 PM 28.76 83.768 0.497 8.07 3.38 8.7
6/30/2021 12:30:00 PM 29.07 84.326 0.497 8.09 2.37 8.87
6/30/2021 12:45:00 PM 29.56 85.208 0.496 8.1 3.08 9.11
6/30/2021 1:00:00 PM 29.9 85.82 0.495 8.12 4.4 9.28
6/30/2021 1:15:00 PM 30.31 86.558 0.495 8.14 10.36 9.5
6/30/2021 1:30:00 PM 30.65 87.17 0.495 8.15 3.91 9.69
6/30/2021 1:45:00 PM 30.66 87.188 0.495 8.16 3.91 9.57
6/30/2021 2:00:00 PM 30.73 87.314 0.495 8.18 3.92 9.52
6/30/2021 2:15:00 PM 31.1 87.98 0.495 8.17 3.45 9.72
6/30/2021 2:30:00 PM 31.44 88.592 0.494 8.19 4.11 9.72
6/30/2021 2:45:00 PM 31.67 89.006 0.494 8.19 4.29 9.87
6/30/2021 3:00:00 PM 31.92 89.456 0.494 8.19 3.95 9.88
6/30/2021 3:15:00 PM 32.2 89.96001 0.493 8.2 5.49 9.96
6/30/2021 3:30:00 PM 32.3 90.14 0.494 8.2 4.76 9.88
6/30/2021 3:45:00 PM 32.38 90.284 0.495 8.21 5.98 9.77
6/30/2021 4:00:00 PM 32.59 90.662 0.494 8.21 4.21 9.69
6/30/2021 4:15:00 PM 32.71 90.878 0.495 8.21 5.95 9.76
6/30/2021 4:30:00 PM 32.67 90.80599 0.494 8.22 5.26 9.71
6/30/2021 4:45:00 PM 32.68 90.824 0.495 8.21 4.11 9.53
6/30/2021 5:00:00 PM 32.71 90.878 0.496 8.21 4.34 9.5
6/30/2021 5:15:00 PM 32.49 90.482 0.497 8.21 3.94 9.34
6/30/2021 5:30:00 PM 32.11 89.798 0.497 8.21 3.58 9.01
6/30/2021 5:45:00 PM 31.79 89.222 0.498 8.21 4.86 8.77
6/30/2021 6:00:00 PM 31.39 88.502 0.499 8.19 4.91 8.31
6/30/2021 6:15:00 PM 31.03 87.854 0.5 8.18 6.64 8.17
6/30/2021 6:30:00 PM 30.66 87.188 0.501 8.17 6.83 7.86
6/30/2021 6:45:00 PM 30.1 86.18 0.498 8.16 8.1 7.45
6/30/2021 7:00:00 PM 29.57 85.226 0.491 8.15 15.61 7.06
6/30/2021 7:15:00 PM 29.31 84.758 0.495 8.13 6.96 6.82
6/30/2021 7:30:00 PM 29.06 84.308 0.496 8.1 6.64 6.6
6/30/2021 7:45:00 PM 28.84 83.912 0.494 8.09 8.27 6.42
6/30/2021 8:00:00 PM 28.66 83.588 0.494 8.07 5.34 6.22
6/30/2021 8:15:00 PM 28.49 83.282 0.495 8.05 7.35 6.09
6/30/2021 8:30:00 PM 28.33 82.994 0.496 8.03 8.16 5.92
6/30/2021 8:45:00 PM 28.17 82.706 0.496 8.01 9.45 5.81
6/30/2021 9:00:00 PM 28.02 82.436 0.497 7.99 8 5.72
6/30/2021 9:15:00 PM 27.91 82.238 0.498 7.97 8.88 5.63
6/30/2021 9:30:00 PM 27.82 82.076 0.499 7.95 6.77 5.56
6/30/2021 9:45:00 PM 27.74 81.932 0.5 7.94 5.6 5.52
6/30/2021 10:00:00 PM 27.67 81.806 0.502 7.93 10.52 5.5
6/30/2021 10:15:00 PM 27.61 81.698 0.503 7.92 8.35 5.51
6/30/2021 10:30:00 PM 27.57 81.626 0.504 7.92 8.96 5.52
6/30/2021 10:45:00 PM 27.49 81.482 0.505 7.91 7.26 5.45
6/30/2021 11:00:00 PM 27.43 81.374 0.506 7.9 7.69 5.47
6/30/2021 11:15:00 PM 27.36 81.248 0.506 7.9 8.14 5.46
6/30/2021 11:30:00 PM 27.3 81.14 0.507 7.9 7.35 5.46
6/30/2021 11:45:00 PM 27.25 81.05 0.508 7.89 8.39 5.52
7/1/2021 12:00:00 AM 27.19 80.942 0.509 7.89 8.68 5.51
7/1/2021 12:15:00 AM 27.13 80.834 0.509 7.89 6.28 5.44
7/1/2021 12:30:00 AM 27.11 80.798 0.51 7.89 4.23 5.52
7/1/2021 12:45:00 AM 27.07 80.726 0.51 7.88 7.91 5.54
7/1/2021 1:00:00 AM 27.02 80.636 0.511 7.89 6.51 5.53
7/1/2021 1:15:00 AM 27 80.6 0.511 7.89 5.64 5.53
7/1/2021 1:30:00 AM 26.96 80.528 0.511 7.88 9.67 5.53
7/1/2021 1:45:00 AM 26.93 80.474 0.512 7.88 22.28 5.58
7/1/2021 2:00:00 AM 26.89 80.402 0.512 7.89 6.79 5.59
7/1/2021 2:15:00 AM 26.86 80.348 0.512 7.89 8.08 5.6
7/1/2021 2:30:00 AM 26.83 80.294 0.512 7.89 6.16 5.63
7/1/2021 2:45:00 AM 26.79 80.222 0.512 7.89 7.66 5.67
7/1/2021 3:00:00 AM 26.8 80.24 0.513 7.89 7.18 5.7
7/1/2021 3:15:00 AM 26.76 80.168 0.513 7.9 86.94 5.69
7/1/2021 3:30:00 AM 26.72 80.096 0.513 7.9 78.09 5.68
7/1/2021 3:45:00 AM 26.69 80.042 0.513 7.89 8.01 5.61
7/1/2021 4:00:00 AM 26.65 79.97 0.513 7.89 9.34 5.58
7/1/2021 4:15:00 AM 26.65 79.97 0.514 7.89 11.83 5.61
7/1/2021 4:30:00 AM 26.61 79.898 0.514 7.89 13.06 5.6
7/1/2021 4:45:00 AM 26.6 79.88 0.514 7.88 6181 5.58
7/1/2021 5:00:00 AM 26.58 79.844 0.514 7.89 370.8 5.61
7/1/2021 5:15:00 AM 26.54 79.772 0.514 7.89 3389 5.45
7/1/2021 5:30:00 AM 26.5 79.7 0.513 7.88 4120 5.58
7/1/2021 5:45:00 AM 26.45 79.61 0.514 7.88 1567 5.61
7/1/2021 6:00:00 AM 26.45 79.61 0.514 7.88 8.68 5.61
7/1/2021 6:15:00 AM 26.42 79.556 0.514 7.87 11.19 5.6
7/1/2021 6:30:00 AM 26.43 79.574 0.514 7.88 5757 5.59
7/1/2021 6:45:00 AM 26.43 79.574 0.514 7.88 19.89 5.68
7/1/2021 7:00:00 AM 26.45 79.61 0.514 7.88 9.49 5.79
7/1/2021 7:15:00 AM 26.45 79.61 0.514 7.88 7.51 5.71
7/1/2021 7:30:00 AM 26.46 79.628 0.513 7.88 6.2 5.83
7/1/2021 7:45:00 AM 26.46 79.628 0.513 7.89 3327 5.85
7/1/2021 8:00:00 AM 26.46 79.628 0.513 7.89 4.53 5.93
7/1/2021 8:15:00 AM 26.46 79.628 0.513 7.89 1209 5.88
7/1/2021 8:30:00 AM 26.46 79.628 0.512 7.88 253.5 5.98
7/1/2021 8:45:00 AM 26.45 79.61 0.511 7.9 6.38 6.04
7/1/2021 9:00:00 AM 26.47 79.646 0.51 7.9 14.48 6.05
7/1/2021 9:15:00 AM 26.49 79.682 0.51 7.89 5.98 6.12
7/1/2021 9:30:00 AM 26.53 79.754 0.509 7.9 6.07 6.25
7/1/2021 9:45:00 AM 26.63 79.934 0.508 7.91 506.8 6.48
7/1/2021 10:00:00 AM 26.74 80.132 0.507 7.92 3.2 6.78
7/1/2021 10:15:00 AM 26.82 80.276 0.506 7.93 6.03 6.91
7/1/2021 10:30:00 AM 26.87 80.366 0.505 7.95 2126 7.16
7/1/2021 10:45:00 AM 26.97 80.546 0.504 7.97 3.21 7.27
7/1/2021 11:00:00 AM 27.03 80.654 0.503 7.98 4.89 7.42
7/1/2021 11:15:00 AM 27.09 80.762 0.503 8 307.7 7.66
7/1/2021 11:30:00 AM 27.09 80.762 0.503 8.01 4.9 7.7
7/1/2021 11:45:00 AM 27.13 80.834 0.502 8.03 2.87 7.84
7/1/2021 12:00:00 PM 27.09 80.762 0.501 8.03 4.44 7.68
7/1/2021 12:15:00 PM 26.91 80.438 0.492 8.05 17.73 7.42
7/1/2021 12:30:00 PM 26.82 80.276 0.488 8.05 293.1 7.25
7/1/2021 12:45:00 PM 26.79 80.222 0.48 8.06 8.63 7.49
7/1/2021 1:00:00 PM 26.78 80.204 0.469 8.06 718.3 7.51
7/1/2021 1:15:00 PM 26.84 80.312 0.468 8.05 5.5 7.66
7/1/2021 1:30:00 PM 26.92 80.456 0.469 8.06 6.38 7.75
7/1/2021 1:45:00 PM 27.01 80.618 0.471 8.07 14.53 7.81
7/1/2021 2:00:00 PM 27.12 80.816 0.474 8.06 7.52 7.93
7/1/2021 2:15:00 PM 27.23 81.014 0.475 8.07 6.84 8
7/1/2021 2:30:00 PM 27.19 80.942 0.477 8.08 5.68 7.96
7/1/2021 2:45:00 PM 27.16 80.888 0.481 8.07 1200 7.88
7/1/2021 3:00:00 PM 27.21 80.978 0.483 8.07 10.29 7.94
7/1/2021 3:15:00 PM 27.38 81.284 0.486 8.08 6.3 8.15
7/1/2021 3:30:00 PM 27.46 81.42799 0.488 8.09 7.01 8.21
7/1/2021 3:45:00 PM 27.52 81.536 0.49 8.1 2042 8.46
7/1/2021 4:00:00 PM 27.52 81.536 0.492 8.11 5.51 8.43
7/1/2021 4:15:00 PM 27.52 81.536 0.493 8.11 1891 8.36
7/1/2021 4:30:00 PM 27.54 81.57201 0.494 8.12 4.24 8.34
7/1/2021 4:45:00 PM 27.51 81.518 0.495 8.12 4.43 8.24
7/1/2021 5:00:00 PM 27.45 81.41 0.496 8.11 3082 8.06
7/1/2021 5:15:00 PM 27.42 81.356 0.497 8.11 5.38 7.96
7/1/2021 5:30:00 PM 27.4 81.32 0.498 8.11 1503 7.89
7/1/2021 5:45:00 PM 27.35 81.23 0.499 8.1 5.2 7.66
7/1/2021 6:00:00 PM 27.3 81.14 0.5 8.1 7.9 7.61
7/1/2021 6:15:00 PM 27.26 81.068 0.501 8.09 5.5 7.37
7/1/2021 6:30:00 PM 27.2 80.96 0.501 8.08 4835 7.25
7/1/2021 6:45:00 PM 27.14 80.852 0.502 8.07 7.51 7.12
7/1/2021 7:00:00 PM 27.06 80.708 0.503 8.06 18.99 6.91
7/1/2021 7:15:00 PM 26.98 80.564 0.504 8.04 5.02 6.88
7/1/2021 7:30:00 PM 26.91 80.438 0.505 8.02 924.1 6.68
7/1/2021 7:45:00 PM 26.84 80.312 0.505 8.01 3.81 6.58
7/1/2021 8:00:00 PM 26.76 80.168 0.506 8.01 6.28 6.49
7/1/2021 8:15:00 PM 26.7 80.06 0.506 7.99 1958 6.4
7/1/2021 8:30:00 PM 26.63 79.934 0.507 7.98 3.98 6.28
7/1/2021 8:45:00 PM 26.55 79.79 0.508 7.96 6.06 6.15
7/1/2021 9:00:00 PM 26.48 79.664 0.508 7.94 12.06 6.09
7/1/2021 9:15:00 PM 26.42 79.556 0.509 7.94 4.74 6.05
7/1/2021 9:30:00 PM 26.35 79.43 0.51 7.93 5.24 6.02
7/1/2021 9:45:00 PM 26.28 79.304 0.51 7.91 6.7 5.94
7/1/2021 10:00:00 PM 26.22 79.196 0.51 7.91 4.79 5.9
7/1/2021 10:15:00 PM 26.16 79.088 0.511 7.9 3.62 5.88
7/1/2021 10:30:00 PM 26.11 78.998 0.511 7.89 6.52 5.85
7/1/2021 10:45:00 PM 26.04 78.872 0.512 7.89 5.38 5.86
7/1/2021 11:00:00 PM 25.99 78.782 0.512 7.88 9.12 5.81
7/1/2021 11:15:00 PM 25.93 78.674 0.512 7.87 6.67 5.86
7/1/2021 11:30:00 PM 25.9 78.62 0.513 7.87 5.86 5.88
7/1/2021 11:45:00 PM 25.85 78.53 0.513 7.87 5.54 5.87
7/2/2021 12:00:00 AM 25.79 78.422 0.513 7.87 4.08 5.88
7/2/2021 12:15:00 AM 25.75 78.35 0.513 7.86 5.73 5.9
7/2/2021 12:30:00 AM 25.71 78.278 0.514 7.86 5.65 5.91
7/2/2021 12:45:00 AM 25.68 78.224 0.514 7.86 4.47 5.97
7/2/2021 1:00:00 AM 25.64 78.152 0.502 7.86 4.97 6
7/2/2021 1:15:00 AM 25.59 78.062 0.515 7.86 6.32 5.98
7/2/2021 1:30:00 AM 25.55 77.99 0.515 7.85 5.81 6.03
7/2/2021 1:45:00 AM 25.51 77.918 0.515 7.85 5.57 6.01
7/2/2021 2:00:00 AM 25.47 77.846 0.515 7.85 8.27 6.03
7/2/2021 2:15:00 AM 25.43 77.774 0.515 7.85 5.78 6.05
7/2/2021 2:30:00 AM 25.39 77.702 0.515 7.85 4.46 6.07
7/2/2021 2:45:00 AM 25.34 77.612 0.515 7.85 7.33 6.1
7/2/2021 3:00:00 AM 25.29 77.522 0.515 7.85 5.14 6.08
7/2/2021 3:15:00 AM 25.25 77.45 0.515 7.85 5.55 6.08
7/2/2021 3:30:00 AM 25.19 77.342 0.514 7.84 9.98 6.14
7/2/2021 3:45:00 AM 25.15 77.27 0.514 7.85 7.95 6.13
7/2/2021 4:00:00 AM 25.1 77.18 0.514 7.85 168.7 6.14
7/2/2021 4:15:00 AM 25.05 77.09 0.514 7.84 8.09 6.15
7/2/2021 4:30:00 AM 25 77 0.514 7.85 7.1 6.18
7/2/2021 4:45:00 AM 24.95 76.91 0.513 7.84 5.23 6.18
7/2/2021 5:00:00 AM 24.9 76.82 0.513 7.85 5.92 6.21
7/2/2021 5:15:00 AM 24.87 76.766 0.513 7.85 5.2 6.2
7/2/2021 5:30:00 AM 24.82 76.676 0.513 7.85 5.91 6.24
7/2/2021 5:45:00 AM 24.77 76.586 0.513 7.85 6.76 6.25
7/2/2021 6:00:00 AM 24.73 76.514 0.513 7.85 5.53 6.27
7/2/2021 6:15:00 AM 24.69 76.442 0.512 7.85 5.29 6.29
7/2/2021 6:30:00 AM 24.66 76.388 0.512 7.85 5.12 6.34
7/2/2021 6:45:00 AM 24.62 76.316 0.512 7.85 6.97 6.35
7/2/2021 7:00:00 AM 24.6 76.28 0.512 7.85 5.11 6.41
7/2/2021 7:15:00 AM 24.57 76.226 0.512 7.86 9.88 6.48
7/2/2021 7:30:00 AM 24.55 76.19 0.511 7.86 4.85 6.53
7/2/2021 7:45:00 AM 24.54 76.172 0.511 7.87 3.79 6.62
7/2/2021 8:00:00 AM 24.54 76.172 0.511 7.88 5.76 6.72
7/2/2021 8:15:00 AM 24.55 76.19 0.511 7.89 4.44 6.84
7/2/2021 8:30:00 AM 24.55 76.19 0.51 7.89 5.25 6.93
7/2/2021 8:45:00 AM 24.56 76.208 0.51 7.9 3.89 7.05
7/2/2021 9:00:00 AM 24.57 76.226 0.51 7.91 4.82 7.2
7/2/2021 9:15:00 AM 24.57 76.226 0.509 7.92 4 7.32
7/2/2021 9:30:00 AM 24.62 76.316 0.509 7.94 5.56 7.47
7/2/2021 9:45:00 AM 24.66 76.388 0.508 7.94 14.15 7.56
7/2/2021 10:00:00 AM 24.67 76.406 0.508 7.96 3.68 7.72
7/2/2021 10:15:00 AM 24.66 76.388 0.508 7.96 3.94 7.8
7/2/2021 10:30:00 AM 24.68 76.424 0.507 7.97 4.23 7.86
7/2/2021 10:45:00 AM 24.69 76.442 0.507 7.98 4.48 7.95
7/2/2021 11:00:00 AM 24.72 76.496 0.506 8 5.69 8.05
7/2/2021 11:15:00 AM 24.75 76.55 0.506 8 4.04 8.15
7/2/2021 11:30:00 AM 24.83 76.694 0.506 8 4.93 8.22
7/2/2021 11:45:00 AM 24.81 76.658 0.505 8.01 4.7 8.24
7/2/2021 12:00:00 PM 24.78 76.604 0.505 8.02 4.4 8.22
7/2/2021 12:15:00 PM 24.82 76.676 0.505 8.02 5.2 8.31
7/2/2021 12:30:00 PM 24.82 76.676 0.505 8.02 9.44 8.32
7/2/2021 12:45:00 PM 24.98 76.964 0.505 8.03 8.87 8.37
7/2/2021 1:00:00 PM 25.08 77.144 0.505 8.03 4.56 8.44
7/2/2021 1:15:00 PM 24.98 76.964 0.505 8.03 4.51 8.37
7/2/2021 1:30:00 PM 25.04 77.07201 0.505 8.03 4.02 8.35
7/2/2021 1:45:00 PM 25.17 77.306 0.506 8.03 4.83 8.42
7/2/2021 2:00:00 PM 25.1 77.18 0.506 8.03 5.01 8.4
7/2/2021 2:15:00 PM 25.26 77.468 0.506 8.03 4.75 8.47
7/2/2021 2:30:00 PM 25.1 77.18 0.506 8.03 4.69 8.42
7/2/2021 2:45:00 PM 25.28 77.504 0.506 8.03 4.24 8.47
7/2/2021 3:00:00 PM 25.41 77.738 0.507 8.03 4.84 8.53
7/2/2021 3:15:00 PM 25.5 77.9 0.506 8.03 4.74 8.55
7/2/2021 3:30:00 PM 25.33 77.594 0.506 8.04 4.35 8.49
7/2/2021 3:45:00 PM 25.33 77.594 0.506 8.03 4.62 8.48
7/2/2021 4:00:00 PM 25.46 77.828 0.506 8.03 3.75 8.5
7/2/2021 4:15:00 PM 25.54 77.972 0.506 8.03 11.03 8.55
7/2/2021 4:30:00 PM 25.64 78.152 0.505 8.04 6.32 8.57
7/2/2021 4:45:00 PM 25.73 78.314 0.505 8.04 5.51 8.58
7/2/2021 5:00:00 PM 25.78 78.404 0.505 8.04 4.6 8.6
7/2/2021 5:15:00 PM 25.66 78.188 0.505 8.04 4.12 8.62
7/2/2021 5:30:00 PM 25.56 78.008 0.505 8.05 4.35 8.53
7/2/2021 5:45:00 PM 25.4 77.72 0.504 8.05 5.61 8.48
7/2/2021 6:00:00 PM 25.38 77.684 0.504 8.05 5.87 8.48
7/2/2021 6:15:00 PM 25.27 77.486 0.504 8.05 5.71 8.41
7/2/2021 6:30:00 PM 25.08 77.144 0.503 8.06 4.09 8.32
7/2/2021 6:45:00 PM 24.9 76.82 0.503 8.06 4.84 8.2
7/2/2021 7:00:00 PM 24.69 76.442 0.503 8.06 4.31 8.06
7/2/2021 7:15:00 PM 24.48 76.064 0.502 8.05 5.06 7.9
7/2/2021 7:30:00 PM 24.33 75.794 0.502 8.05 5 7.71
7/2/2021 7:45:00 PM 24.18 75.524 0.501 8.04 5.98 7.67
7/2/2021 8:00:00 PM 24.05 75.29 0.5 8.03 4.24 7.56
7/2/2021 8:15:00 PM 23.93 75.074 0.5 8.03 5.88 7.49
7/2/2021 8:30:00 PM 23.85 74.93 0.499 8.02 5.13 7.4
7/2/2021 8:45:00 PM 23.78 74.804 0.498 8.02 4.48 7.34
7/2/2021 9:00:00 PM 23.72 74.696 0.498 8.02 5.41 7.27
7/2/2021 9:15:00 PM 23.67 74.606 0.497 8.01 5.4 7.23
7/2/2021 9:30:00 PM 23.64 74.552 0.496 8.01 5.53 7.2
7/2/2021 9:45:00 PM 23.6 74.48 0.496 8.01 5.98 7.17
7/2/2021 10:00:00 PM 23.58 74.444 0.495 8.01 6.55 7.15
7/2/2021 10:15:00 PM 23.56 74.408 0.495 8 6.11 7.13
7/2/2021 10:30:00 PM 23.54 74.372 0.494 8.01 4.96 7.12
7/2/2021 10:45:00 PM 23.52 74.336 0.494 8.01 5.88 7.12
7/2/2021 11:00:00 PM 23.51 74.318 0.493 8.01 9.34 7.14
7/2/2021 11:15:00 PM 23.49 74.282 0.493 8.01 5.52 7.18
7/2/2021 11:30:00 PM 23.46 74.228 0.492 8.02 6.47 7.18
7/2/2021 11:45:00 PM 23.45 74.21 0.492 8.02 11.52 7.18
7/3/2021 12:00:00 AM 23.44 74.192 0.492 8.03 7.24 7.22
7/3/2021 12:15:00 AM 23.41 74.138 0.492 8.03 6.88 7.21
7/3/2021 12:30:00 AM 23.39 74.102 0.491 8.04 6.37 7.24
7/3/2021 12:45:00 AM 23.37 74.066 0.491 8.04 15.08 7.24
7/3/2021 1:00:00 AM 23.35 74.03 0.491 8.05 6.65 7.25
7/3/2021 1:15:00 AM 23.32 73.976 0.491 8.05 6.78 7.24
7/3/2021 1:30:00 AM 23.3 73.94 0.491 8.05 4.64 7.23
7/3/2021 1:45:00 AM 23.28 73.904 0.491 8.05 5.91 7.25
7/3/2021 2:00:00 AM 23.28 73.904 0.491 8.06 5.13 7.27
7/3/2021 2:15:00 AM 23.27 73.886 0.491 8.06 4.92 7.28
7/3/2021 2:30:00 AM 23.24 73.832 0.491 8.06 6.45 7.26
7/3/2021 2:45:00 AM 23.25 73.85 0.492 8.06 7.92 7.28
7/3/2021 3:00:00 AM 23.21 73.778 0.491 8.06 7.61 7.26
7/3/2021 3:15:00 AM 23.21 73.778 0.492 8.07 7.27 7.3
7/3/2021 3:30:00 AM 23.18 73.724 0.492 8.07 5.72 7.29
7/3/2021 3:45:00 AM 23.15 73.67 0.492 8.07 3.95 7.29
7/3/2021 4:00:00 AM 23.13 73.634 0.492 8.07 4.7 7.29
7/3/2021 4:15:00 AM 23.12 73.616 0.492 8.06 5.21 7.29
7/3/2021 4:30:00 AM 23.11 73.598 0.492 8.07 7.07 7.28
7/3/2021 4:45:00 AM 23.07 73.526 0.492 8.07 6.09 7.28
7/3/2021 5:00:00 AM 23.06 73.508 0.492 8.07 6.04 7.28
7/3/2021 5:15:00 AM 23.02 73.436 0.492 8.07 7.46 7.29
7/3/2021 5:30:00 AM 22.98 73.364 0.492 8.07 19.61 7.22
7/3/2021 5:45:00 AM 22.94 73.292 0.492 8.07 12.66 7.17
7/3/2021 6:00:00 AM 22.9 73.22 0.492 8.07 13.86 7.23
7/3/2021 6:15:00 AM 22.88 73.184 0.492 8.07 5325 7.07
7/3/2021 6:30:00 AM 22.84 73.112 0.492 8.07 6.67 7.15
7/3/2021 6:45:00 AM 22.8 73.04 0.492 8.07 5.23 7.24
7/3/2021 7:00:00 AM 22.76 72.968 0.491 8.07 9.64 7.25
7/3/2021 7:15:00 AM 22.75 72.95 0.491 8.07 2559 7.34
7/3/2021 7:30:00 AM 22.72 72.896 0.491 8.07 4.64 7.33
7/3/2021 7:45:00 AM 22.71 72.878 0.491 8.07 195.1 7.38
7/3/2021 8:00:00 AM 22.73 72.914 0.491 8.07 4.55 7.48
7/3/2021 8:15:00 AM 22.73 72.914 0.491 8.07 6.12 7.58
7/3/2021 8:30:00 AM 22.68 72.824 0.491 8.08 1730 7.64
7/3/2021 8:45:00 AM 22.68 72.824 0.49 8.08 6.63 7.68
7/3/2021 9:00:00 AM 22.7 72.86 0.49 8.08 6.24 7.83
7/3/2021 9:15:00 AM 22.73 72.914 0.489 8.09 4.4 7.9
7/3/2021 9:30:00 AM 22.73 72.914 0.489 8.1 8.12 8.07
7/3/2021 9:45:00 AM 22.73 72.914 0.489 8.11 5.3 8.14
7/3/2021 10:00:00 AM 22.76 72.968 0.488 8.11 3.99 8.25
7/3/2021 10:15:00 AM 22.82 73.076 0.487 8.12 4.67 8.39
7/3/2021 10:30:00 AM 22.89 73.202 0.486 8.13 3.21 8.56
7/3/2021 10:45:00 AM 22.89 73.202 0.486 8.13 3.62 8.64
7/3/2021 11:00:00 AM 22.95 73.31 0.485 8.13 4.56 8.72
7/3/2021 11:15:00 AM 22.94 73.292 0.484 8.14 3.85 8.67
7/3/2021 11:30:00 AM 23.07 73.526 0.483 8.14 3.7 8.87
7/3/2021 11:45:00 AM 23.15 73.67 0.483 8.15 3.97 9.01
7/3/2021 12:00:00 PM 23.2 73.76 0.482 8.16 4.03 9.06
7/3/2021 12:15:00 PM 23.22 73.796 0.481 8.16 4.57 9.15
7/3/2021 12:30:00 PM 23.24 73.832 0.481 8.16 4.79 9.21
7/3/2021 12:45:00 PM 23.13 73.634 0.48 8.17 4.84 9.12
7/3/2021 1:00:00 PM 23.09 73.562 0.479 8.17 3.55 9.04
7/3/2021 1:15:00 PM 23.29 73.922 0.478 8.17 4.05 9.19
7/3/2021 1:30:00 PM 23.62 74.516 0.478 8.16 3.2 9.32
7/3/2021 1:45:00 PM 23.72 74.696 0.477 8.16 4.11 9.41
7/3/2021 2:00:00 PM 23.82 74.876 0.477 8.17 3.54 9.44
7/3/2021 2:15:00 PM 23.76 74.768 0.477 8.17 3.5 9.39
7/3/2021 2:30:00 PM 23.96 75.128 0.476 8.17 3.68 9.45
7/3/2021 2:45:00 PM 24.29 75.722 0.476 8.17 4 9.58
7/3/2021 3:00:00 PM 24.39 75.902 0.475 8.17 3.67 9.63
7/3/2021 3:15:00 PM 24.44 75.992 0.475 8.18 3.99 9.56
7/3/2021 3:30:00 PM 24.27 75.686 0.475 8.18 4.18 9.54
7/3/2021 3:45:00 PM 24.15 75.47 0.475 8.19 3.15 9.47
7/3/2021 4:00:00 PM 24.04 75.272 0.474 8.19 5.01 9.41
7/3/2021 4:15:00 PM 24.29 75.722 0.474 8.18 3.58 9.55
7/3/2021 4:30:00 PM 24.18 75.524 0.474 8.19 3.02 9.51
7/3/2021 4:45:00 PM 23.95 75.11 0.473 8.19 4.66 9.36
7/3/2021 5:00:00 PM 23.81 74.858 0.473 8.18 4.19 9.31
7/3/2021 5:15:00 PM 23.76 74.768 0.473 8.18 4.7 9.28
7/3/2021 5:30:00 PM 23.71 74.67799 0.473 8.18 3.46 9.25
7/3/2021 5:45:00 PM 23.59 74.462 0.473 8.18 4.05 9.12
7/3/2021 6:00:00 PM 23.61 74.498 0.473 8.18 4.36 9.12
7/3/2021 6:15:00 PM 23.61 74.498 0.472 8.17 3.42 9.11
7/3/2021 6:30:00 PM 23.55 74.39 0.472 8.17 3.4 9.11
7/3/2021 6:45:00 PM 23.42 74.156 0.473 8.16 4.01 8.93
7/3/2021 7:00:00 PM 23.31 73.958 0.473 8.16 4.69 8.8
7/3/2021 7:15:00 PM 23.18 73.724 0.473 8.15 5.03 8.63
7/3/2021 7:30:00 PM 23.06 73.508 0.473 8.14 2.83 8.42
7/3/2021 7:45:00 PM 22.93 73.274 0.474 8.13 4.27 8.27
7/3/2021 8:00:00 PM 22.8 73.04 0.474 8.12 5.47 8.08
7/3/2021 8:15:00 PM 22.69 72.842 0.474 8.1 3.91 7.91
7/3/2021 8:30:00 PM 22.59 72.662 0.474 8.09 3.95 7.77
7/3/2021 8:45:00 PM 22.49 72.482 0.474 8.08 3.31 7.61
7/3/2021 9:00:00 PM 22.39 72.302 0.475 8.06 4.51 7.5
7/3/2021 9:15:00 PM 22.31 72.158 0.474 8.05 5.66 7.38
7/3/2021 9:30:00 PM 22.25 72.05 0.474 8.04 3.91 7.28
7/3/2021 9:45:00 PM 22.2 71.96 0.474 8.03 4.16 7.21
7/3/2021 10:00:00 PM 22.15 71.87 0.473 8.02 3.9 7.16
7/3/2021 10:15:00 PM 22.11 71.798 0.473 8.01 4.34 7.13
7/3/2021 10:30:00 PM 22.06 71.708 0.472 8 3.67 7.11
7/3/2021 10:45:00 PM 22.03 71.654 0.472 8 4.67 7.06
7/3/2021 11:00:00 PM 21.99 71.582 0.471 7.99 5.02 7.05
7/3/2021 11:15:00 PM 21.97 71.546 0.471 7.99 4.95 7.09
7/3/2021 11:30:00 PM 21.93 71.474 0.471 7.98 6.93 7.08
7/3/2021 11:45:00 PM 21.91 71.438 0.471 7.98 5.49 7.09
7/4/2021 12:00:00 AM 21.9 71.42 0.471 7.98 7.68 7.09
7/4/2021 12:15:00 AM 21.88 71.384 0.471 7.97 5.88 7.08
7/4/2021 12:30:00 AM 21.87 71.366 0.47 7.97 4.21 7.1
7/4/2021 12:45:00 AM 21.85 71.33 0.469 7.97 4.74 7.14
7/4/2021 1:00:00 AM 21.84 71.312 0.469 7.97 6.37 7.16
7/4/2021 1:15:00 AM 21.82 71.276 0.468 7.97 4.23 7.15
7/4/2021 1:30:00 AM 21.8 71.24 0.468 7.97 6.02 7.15
7/4/2021 1:45:00 AM 21.79 71.222 0.467 7.97 3.93 7.16
7/4/2021 2:00:00 AM 21.78 71.204 0.467 7.98 5.6 7.17
7/4/2021 2:15:00 AM 21.77 71.186 0.466 7.98 4.49 7.21
7/4/2021 2:30:00 AM 21.75 71.15 0.466 7.98 4.95 7.19
7/4/2021 2:45:00 AM 21.71 71.078 0.465 7.98 5.13 7.2
7/4/2021 3:00:00 AM 21.68 71.024 0.464 7.98 4.69 7.21
7/4/2021 3:15:00 AM 21.67 71.006 0.463 7.98 6.24 7.23
7/4/2021 3:30:00 AM 21.64 70.952 0.463 7.98 7.53 7.2
7/4/2021 3:45:00 AM 21.62 70.916 0.462 7.99 5.78 7.26
7/4/2021 4:00:00 AM 21.59 70.862 0.461 7.99 4.72 7.22
7/4/2021 4:15:00 AM 21.56 70.808 0.46 7.99 5.29 7.24
7/4/2021 4:30:00 AM 21.53 70.754 0.459 7.99 4.79 7.27
7/4/2021 4:45:00 AM 21.51 70.718 0.458 8 4.38 7.29
7/4/2021 5:00:00 AM 21.49 70.682 0.457 8 5.42 7.31
7/4/2021 5:15:00 AM 21.46 70.628 0.456 7.99 5.53 7.3
7/4/2021 5:30:00 AM 21.44 70.592 0.456 8 6.52 7.31
7/4/2021 5:45:00 AM 21.43 70.574 0.455 8 8.27 7.31
7/4/2021 6:00:00 AM 21.43 70.574 0.454 8.01 6.13 7.32
7/4/2021 6:15:00 AM 21.42 70.556 0.453 8 6.02 7.35
7/4/2021 6:30:00 AM 21.42 70.556 0.453 8.01 4.91 7.38
7/4/2021 6:45:00 AM 21.44 70.592 0.452 8.01 4.54 7.4
7/4/2021 7:00:00 AM 21.48 70.664 0.451 8.01 4.78 7.44
7/4/2021 7:15:00 AM 21.53 70.754 0.451 8.01 5.89 7.5
7/4/2021 7:30:00 AM 21.57 70.826 0.45 8.02 5.15 7.59
7/4/2021 7:45:00 AM 21.62 70.916 0.45 8.03 5.77 7.67
7/4/2021 8:00:00 AM 21.67 71.006 0.449 8.03 4.78 7.76
7/4/2021 8:15:00 AM 21.76 71.168 0.449 8.04 4.84 7.88
7/4/2021 8:30:00 AM 21.81 71.258 0.448 8.05 4.62 7.98
7/4/2021 8:45:00 AM 21.9 71.42 0.448 8.06 3.96 8.09
7/4/2021 9:00:00 AM 21.97 71.546 0.447 8.07 4.58 8.2
7/4/2021 9:15:00 AM 22.02 71.636 0.447 8.07 4.2 8.26
7/4/2021 9:30:00 AM 22.06 71.708 0.447 8.08 4.53 8.32
7/4/2021 9:45:00 AM 22.09 71.762 0.447 8.1 2.65 8.36
7/4/2021 10:00:00 AM 22.16 71.888 0.446 8.11 3.93 8.45
7/4/2021 10:15:00 AM 22.22 71.996 0.446 8.12 3.23 8.51
7/4/2021 10:30:00 AM 22.29 72.122 0.445 8.12 3.14 8.6
7/4/2021 10:45:00 AM 22.37 72.266 0.445 8.14 3.23 8.71
7/4/2021 11:00:00 AM 22.49 72.482 0.444 8.15 2.91 8.82
7/4/2021 11:15:00 AM 22.63 72.734 0.444 8.16 4.46 8.93
7/4/2021 11:30:00 AM 22.82 73.076 0.444 8.17 3.63 9.06
7/4/2021 11:45:00 AM 23.02 73.436 0.443 8.18 3.67 9.2
7/4/2021 12:00:00 PM 23.2 73.76 0.443 8.19 5.97 9.34
7/4/2021 12:15:00 PM 23.44 74.192 0.443 8.21 3.55 9.46
7/4/2021 12:30:00 PM 23.69 74.642 0.442 8.2 4.06 9.63
7/4/2021 12:45:00 PM 23.97 75.146 0.442 8.22 3.38 9.79
7/4/2021 1:00:00 PM 24.27 75.686 0.441 8.23 2.94 9.91
7/4/2021 1:15:00 PM 24.51 76.118 0.441 8.24 3.13 10.07
7/4/2021 1:30:00 PM 24.8 76.64 0.44 8.26 4.6 10.18
7/4/2021 1:45:00 PM 25.08 77.144 0.44 8.27 6.24 10.31
7/4/2021 2:00:00 PM 25.18 77.324 0.439 8.27 3.7 10.28
7/4/2021 2:15:00 PM 25.4 77.72 0.439 8.27 3.61 10.37
7/4/2021 2:30:00 PM 25.45 77.81 0.439 8.27 3.4 10.35
7/4/2021 2:45:00 PM 25.32 77.576 0.438 8.28 3.28 10.28
7/4/2021 3:00:00 PM 25.13 77.234 0.438 8.29 3.31 10.06
7/4/2021 3:15:00 PM 25.19 77.342 0.437 8.28 3.31 9.98
7/4/2021 3:30:00 PM 25.26 77.468 0.437 8.28 6.74 10.01
7/4/2021 3:45:00 PM 25.43 77.774 0.436 8.27 3.1 10.07
7/4/2021 4:00:00 PM 25.54 77.972 0.435 8.26 3.65 9.99
7/4/2021 4:15:00 PM 25.69 78.242 0.435 8.26 3.93 10.07
7/4/2021 4:30:00 PM 25.7 78.26 0.435 8.25 4.32 9.97
7/4/2021 4:45:00 PM 25.83 78.494 0.434 8.26 4.04 10
7/4/2021 5:00:00 PM 25.95 78.71 0.433 8.25 3.13 9.99
7/4/2021 5:15:00 PM 25.97 78.746 0.433 8.26 3.75 10.02
7/4/2021 5:30:00 PM 25.91 78.638 0.432 8.25 4.18 9.89
7/4/2021 5:45:00 PM 25.86 78.548 0.432 8.26 3.98 9.8
7/4/2021 6:00:00 PM 25.8 78.44 0.431 8.25 4.04 9.68
7/4/2021 6:15:00 PM 25.69 78.242 0.431 8.25 4.14 9.52
7/4/2021 6:30:00 PM 25.5 77.9 0.431 8.24 8.37 9.51
7/4/2021 6:45:00 PM 25.23 77.414 0.432 8.24 6.11 9.19
7/4/2021 7:00:00 PM 24.99 76.982 0.432 8.23 3.44 9.01
7/4/2021 7:15:00 PM 24.73 76.514 0.432 8.21 4.05 8.77
7/4/2021 7:30:00 PM 24.48 76.064 0.432 8.2 5.05 8.6
7/4/2021 7:45:00 PM 24.26 75.668 0.432 8.18 4.88 8.35
7/4/2021 8:00:00 PM 24.04 75.272 0.432 8.17 3.42 8.12
7/4/2021 8:15:00 PM 23.84 74.912 0.432 8.15 4.36 7.92
7/4/2021 8:30:00 PM 23.67 74.606 0.432 8.13 4.68 7.68
7/4/2021 8:45:00 PM 23.52 74.336 0.431 8.11 4.72 7.62
7/4/2021 9:00:00 PM 23.39 74.102 0.431 8.08 5.29 7.44
7/4/2021 9:15:00 PM 23.27 73.886 0.43 8.07 7.1 7.36
7/4/2021 9:30:00 PM 23.16 73.688 0.431 8.06 4.5 7.24
7/4/2021 9:45:00 PM 23.07 73.526 0.408 8.05 3.72 7.15
7/4/2021 10:00:00 PM 22.98 73.364 0.431 8.04 6.7 7.07
7/4/2021 10:15:00 PM 22.9 73.22 0.43 8.02 5.27 7.03
7/4/2021 10:30:00 PM 22.83 73.094 0.43 8.01 6.9 6.99
7/4/2021 10:45:00 PM 22.76 72.968 0.43 8 6.74 6.93
7/4/2021 11:00:00 PM 22.68 72.824 0.43 7.99 5.66 6.88
7/4/2021 11:15:00 PM 22.62 72.716 0.43 7.99 4.15 6.92
7/4/2021 11:30:00 PM 22.55 72.59 0.429 7.98 6.66 6.9
7/4/2021 11:45:00 PM 22.49 72.482 0.429 7.97 5.44 6.93
7/5/2021 12:00:00 AM 22.44 72.392 0.429 7.97 4.53 6.94
7/5/2021 12:15:00 AM 22.37 72.266 0.429 7.97 4.73 6.94
7/5/2021 12:30:00 AM 22.34 72.212 0.428 7.97 4.58 6.96
7/5/2021 12:45:00 AM 22.28 72.104 0.428 7.96 4.76 6.97
7/5/2021 1:00:00 AM 22.25 72.05 0.428 7.96 7.61 6.97
7/5/2021 1:15:00 AM 22.2 71.96 0.428 7.95 5.87 6.97
7/5/2021 1:30:00 AM 22.18 71.924 0.428 7.96 5.33 6.99
7/5/2021 1:45:00 AM 22.15 71.87 0.429 7.95 4.48 7.01
7/5/2021 2:00:00 AM 22.11 71.798 0.429 7.95 8.08 6.99
7/5/2021 2:15:00 AM 22.07 71.726 0.429 7.95 4.92 6.99
7/5/2021 2:30:00 AM 22.07 71.726 0.43 7.94 5.85 7.02
7/5/2021 2:45:00 AM 22.04 71.672 0.43 7.94 7.33 6.99
7/5/2021 3:00:00 AM 22.02 71.636 0.43 7.94 4.94 6.96
7/5/2021 3:15:00 AM 22.01 71.618 0.43 7.94 6.77 7.04
7/5/2021 3:30:00 AM 21.99 71.582 0.43 7.94 5.09 7
7/5/2021 3:45:00 AM 21.98 71.564 0.429 7.94 3.53 7.06
7/5/2021 4:00:00 AM 21.96 71.528 0.429 7.94 5.21 7.06
7/5/2021 4:15:00 AM 21.96 71.528 0.428 7.93 6.71 7.05
7/5/2021 4:30:00 AM 21.94 71.492 0.427 7.94 5.34 7.08
7/5/2021 4:45:00 AM 21.91 71.438 0.426 7.94 5.8 7.07
7/5/2021 5:00:00 AM 21.91 71.438 0.425 7.94 6.41 7.04
7/5/2021 5:15:00 AM 21.92 71.456 0.424 7.94 5.96 7.09
7/5/2021 5:30:00 AM 21.91 71.438 0.424 7.94 7.03 7.07
7/5/2021 5:45:00 AM 21.9 71.42 0.423 7.94 6.1 7.09
7/5/2021 6:00:00 AM 21.91 71.438 0.422 7.94 6.46 7.11
7/5/2021 6:15:00 AM 21.92 71.456 0.421 7.95 5.01 7.12
7/5/2021 6:30:00 AM 21.91 71.438 0.421 7.95 5.2 7.14
7/5/2021 6:45:00 AM 21.97 71.546 0.42 7.95 5.13 7.2
7/5/2021 7:00:00 AM 21.99 71.582 0.419 7.95 4.77 7.22
7/5/2021 7:15:00 AM 22.07 71.726 0.419 7.96 4.52 7.29
7/5/2021 7:30:00 AM 22.13 71.834 0.419 7.96 4.42 7.35
7/5/2021 7:45:00 AM 22.26 72.068 0.418 7.98 5.01 7.47
7/5/2021 8:00:00 AM 22.31 72.158 0.418 7.98 3.71 7.58
7/5/2021 8:15:00 AM 22.4 72.32 0.417 7.99 3.44 7.7
7/5/2021 8:30:00 AM 22.51 72.518 0.417 8.01 3.29 7.84
7/5/2021 8:45:00 AM 22.59 72.662 0.417 8.02 3.76 7.94
7/5/2021 9:00:00 AM 22.69 72.842 0.416 8.03 3.3 8.07
7/5/2021 9:15:00 AM 22.81 73.058 0.416 8.04 4.42 8.22
7/5/2021 9:30:00 AM 22.94 73.292 0.416 8.06 2.9 8.35
7/5/2021 9:45:00 AM 23.07 73.526 0.416 8.07 2.68 8.45
7/5/2021 10:00:00 AM 23.18 73.724 0.416 8.09 3.39 8.6
7/5/2021 10:15:00 AM 23.32 73.976 0.416 8.11 2.96 8.76
7/5/2021 10:30:00 AM 23.45 74.21 0.416 8.12 2.98 8.87
7/5/2021 10:45:00 AM 23.58 74.444 0.416 8.12 3 9
7/5/2021 11:00:00 AM 23.76 74.768 0.416 8.14 3.05 9.19
7/5/2021 11:15:00 AM 23.96 75.128 0.417 8.17 2.66 9.36
7/5/2021 11:30:00 AM 24.2 75.56 0.417 8.19 3.39 9.54
7/5/2021 11:45:00 AM 24.45 76.01 0.417 8.2 3.38 9.75
7/5/2021 12:00:00 PM 24.72 76.496 0.417 8.22 2.71 9.89
7/5/2021 12:15:00 PM 25.02 77.036 0.417 8.24 3.3 10.13
7/5/2021 12:30:00 PM 25.32 77.576 0.417 8.26 2.37 10.31
7/5/2021 12:45:00 PM 25.57 78.026 0.416 8.27 2.73 10.41
7/5/2021 1:00:00 PM 25.92 78.656 0.416 8.28 3.2 10.62
7/5/2021 1:15:00 PM 26.35 79.43 0.416 8.3 2.39 10.85
7/5/2021 1:30:00 PM 26.66 79.988 0.416 8.32 2.25 10.93
7/5/2021 1:45:00 PM 26.71 80.078 0.416 8.33 3.07 10.94
7/5/2021 2:00:00 PM 26.93 80.474 0.416 8.34 3.13 11.02
7/5/2021 2:15:00 PM 27.24 81.032 0.416 8.34 3.16 11.02
7/5/2021 2:30:00 PM 27.57 81.626 0.416 8.35 5.97 11.08
7/5/2021 2:45:00 PM 27.78 82.004 0.416 8.36 3.01 11.04
7/5/2021 3:00:00 PM 27.8 82.04 0.417 8.36 3.14 10.94
7/5/2021 3:15:00 PM 27.94 82.292 0.417 8.36 4.56 10.94
7/5/2021 3:30:00 PM 27.95 82.31 0.417 8.36 4.23 10.82
7/5/2021 3:45:00 PM 28.09 82.562 0.418 8.36 4.16 10.99
7/5/2021 4:00:00 PM 28.21 82.778 0.418 8.36 3.29 11.02
7/5/2021 4:15:00 PM 28.32 82.976 0.418 8.36 2.74 11.03
7/5/2021 4:30:00 PM 28.42 83.156 0.418 8.36 3.08 11.04
7/5/2021 4:45:00 PM 28.45 83.21001 0.419 8.36 3.04 10.96
7/5/2021 5:00:00 PM 28.5 83.3 0.419 8.35 3.93 10.92
7/5/2021 5:15:00 PM 28.42 83.156 0.419 8.36 4.62 10.77
7/5/2021 5:30:00 PM 28.16 82.688 0.42 8.35 4.44 10.46
7/5/2021 5:45:00 PM 28.02 82.436 0.421 8.34 2.85 10.32
7/5/2021 6:00:00 PM 27.9 82.22 0.422 8.33 4.25 10.23
7/5/2021 6:15:00 PM 27.71 81.878 0.423 8.31 7.06 9.95
7/5/2021 6:30:00 PM 27.5 81.5 0.424 8.3 3.39 9.7
7/5/2021 6:45:00 PM 27.26 81.068 0.425 8.29 3.01 9.41
7/5/2021 7:00:00 PM 27.02 80.636 0.426 8.27 2.89 9.12
7/5/2021 7:15:00 PM 26.75 80.15 0.427 8.25 3.46 8.83
7/5/2021 7:30:00 PM 26.52 79.736 0.428 8.24 4.13 8.49
7/5/2021 7:45:00 PM 26.29 79.32201 0.429 8.21 4.23 8.25
7/5/2021 8:00:00 PM 26.09 78.962 0.43 8.19 3.44 7.96
7/5/2021 8:15:00 PM 25.9 78.62 0.431 8.17 4.66 7.66
7/5/2021 8:30:00 PM 25.73 78.314 0.432 8.14 3.54 7.44
7/5/2021 8:45:00 PM 25.55 77.99 0.433 8.12 4.47 7.25
7/5/2021 9:00:00 PM 25.38 77.684 0.433 8.1 3.82 7.09
7/5/2021 9:15:00 PM 25.24 77.432 0.434 8.08 3.6 6.94
7/5/2021 9:30:00 PM 25.1 77.18 0.434 8.06 5.24 6.8
7/5/2021 9:45:00 PM 24.95 76.91 0.435 8.05 4.85 6.72
7/5/2021 10:00:00 PM 24.83 76.694 0.436 8.03 5 6.61
7/5/2021 10:15:00 PM 24.72 76.496 0.436 8.01 6.4 6.55
7/5/2021 10:30:00 PM 24.61 76.298 0.437 8 6.21 6.47
7/5/2021 10:45:00 PM 24.51 76.118 0.438 7.99 4.78 6.39
7/5/2021 11:00:00 PM 24.42 75.956 0.439 7.98 6.57 6.38
7/5/2021 11:15:00 PM 24.33 75.794 0.439 7.97 6.19 6.35
7/5/2021 11:30:00 PM 24.24 75.632 0.44 7.96 5.65 6.35
7/5/2021 11:45:00 PM 24.17 75.506 0.44 7.95 6.62 6.35
7/6/2021 12:00:00 AM 24.09 75.362 0.441 7.95 5.19 6.36
7/6/2021 12:15:00 AM 24.03 75.254 0.441 7.94 8.17 6.33
7/6/2021 12:30:00 AM 23.97 75.146 0.441 7.94 5.65 6.35
7/6/2021 12:45:00 AM 23.9 75.02 0.441 7.94 4.81 6.42
7/6/2021 1:00:00 AM 23.85 74.93 0.442 7.93 4.82 6.41
7/6/2021 1:15:00 AM 23.8 74.84 0.442 7.94 5.4 6.44
7/6/2021 1:30:00 AM 23.75 74.75 0.442 7.94 6.59 6.44
7/6/2021 1:45:00 AM 23.72 74.696 0.442 7.94 5.96 6.48
7/6/2021 2:00:00 AM 23.67 74.606 0.442 7.93 5.58 6.46
7/6/2021 2:15:00 AM 23.64 74.552 0.442 7.94 7.48 6.52
7/6/2021 2:30:00 AM 23.62 74.516 0.442 7.93 6.32 6.53
7/6/2021 2:45:00 AM 23.59 74.462 0.442 7.94 4.5 6.52
7/6/2021 3:00:00 AM 23.57 74.426 0.443 7.93 7.18 6.5
7/6/2021 3:15:00 AM 23.55 74.39 0.443 7.94 8.94 6.58
7/6/2021 3:30:00 AM 23.52 74.336 0.443 7.93 16.22 6.51
7/6/2021 3:45:00 AM 23.5 74.3 0.443 7.93 5.97 6.54
7/6/2021 4:00:00 AM 23.5 74.3 0.444 7.93 6.99 6.57
7/6/2021 4:15:00 AM 23.47 74.246 0.444 7.93 8.64 6.57
7/6/2021 4:30:00 AM 23.45 74.21 0.444 7.93 7.2 6.59
7/6/2021 4:45:00 AM 23.45 74.21 0.444 7.93 7.11 6.62
7/6/2021 5:00:00 AM 23.42 74.156 0.444 7.94 6.98 6.59
7/6/2021 5:15:00 AM 23.41 74.138 0.444 7.94 7.11 6.6
7/6/2021 5:30:00 AM 23.41 74.138 0.444 7.94 7.13 6.65
7/6/2021 5:45:00 AM 23.39 74.102 0.444 7.94 6.58 6.61
7/6/2021 6:00:00 AM 23.39 74.102 0.443 7.94 5.56 6.65
7/6/2021 6:15:00 AM 23.4 74.12 0.444 7.94 3.63 6.69
7/6/2021 6:30:00 AM 23.42 74.156 0.443 7.94 4.1 6.69
7/6/2021 6:45:00 AM 23.42 74.156 0.443 7.95 5.36 6.72
7/6/2021 7:00:00 AM 23.45 74.21 0.443 7.94 4.23 6.78
7/6/2021 7:15:00 AM 23.51 74.318 0.443 7.95 4.19 6.87
7/6/2021 7:30:00 AM 23.58 74.444 0.442 7.96 3.62 6.96
7/6/2021 7:45:00 AM 23.64 74.552 0.442 7.96 3.67 7.06
7/6/2021 8:00:00 AM 23.72 74.696 0.442 7.97 5.26 7.19
7/6/2021 8:15:00 AM 23.81 74.858 0.442 7.98 3.56 7.34
7/6/2021 8:30:00 AM 23.93 75.074 0.441 8 4.13 7.54
7/6/2021 8:45:00 AM 24.02 75.236 0.441 8.01 3.94 7.64
7/6/2021 9:00:00 AM 24.14 75.452 0.44 8.03 3.48 7.87
7/6/2021 9:15:00 AM 24.24 75.632 0.44 8.05 3.74 8.03
7/6/2021 9:30:00 AM 24.35 75.83 0.44 8.07 3.86 8.19
7/6/2021 9:45:00 AM 24.48 76.064 0.439 8.09 2.93 8.37
7/6/2021 10:00:00 AM 24.6 76.28 0.439 8.11 3.2 8.51
7/6/2021 10:15:00 AM 24.73 76.514 0.438 8.12 2.85 8.71
7/6/2021 10:30:00 AM 24.87 76.766 0.438 8.15 2.93 8.87
7/6/2021 10:45:00 AM 25.04 77.07201 0.438 8.16 2.69 9.05
7/6/2021 11:00:00 AM 25.24 77.432 0.437 8.19 3.03 9.29
7/6/2021 11:15:00 AM 25.44 77.792 0.437 8.21 2.79 9.46
7/6/2021 11:30:00 AM 25.71 78.278 0.437 8.23 2.98 9.61
7/6/2021 11:45:00 AM 25.96 78.728 0.437 8.25 3.12 9.85
7/6/2021 12:00:00 PM 26.23 79.214 0.436 8.27 3.78 10.03
7/6/2021 12:15:00 PM 26.58 79.844 0.436 8.28 4.13 10.17
7/6/2021 12:30:00 PM 26.9 80.42 0.436 8.3 5.08 10.44
7/6/2021 12:45:00 PM 27.18 80.924 0.436 8.32 2.55 10.61
7/6/2021 1:00:00 PM 27.47 81.446 0.436 8.33 2.64 10.68
7/6/2021 1:15:00 PM 27.81 82.058 0.436 8.34 2.76 10.83
7/6/2021 1:30:00 PM 28.01 82.418 0.436 8.35 2.78 10.9
7/6/2021 1:45:00 PM 28.03 82.454 0.436 8.36 3.07 10.79
7/6/2021 2:00:00 PM 28.18 82.724 0.436 8.36 2.88 10.82
7/6/2021 2:15:00 PM 28.29 82.922 0.436 8.36 3.09 10.85
7/6/2021 2:30:00 PM 28.38 83.084 0.436 8.36 7.24 10.79
7/6/2021 2:45:00 PM 28.51 83.318 0.436 8.37 3.3 10.73
7/6/2021 3:00:00 PM 28.85 83.93 0.436 8.37 2.49 10.63
7/6/2021 3:15:00 PM 28.97 84.146 0.437 8.37 3.09 10.65
7/6/2021 3:30:00 PM 29.12 84.416 0.437 8.37 3.03 10.58
7/6/2021 3:45:00 PM 29.39 84.902 0.437 8.36 3.34 10.85
7/6/2021 4:00:00 PM 29.31 84.758 0.437 8.36 3.13 10.65
7/6/2021 4:15:00 PM 29.2 84.56001 0.438 8.36 7.47 10.42
7/6/2021 4:30:00 PM 29.31 84.758 0.438 8.35 2.56 10.44
7/6/2021 4:45:00 PM 29.22 84.59599 0.439 8.35 3.22 10.36
7/6/2021 5:00:00 PM 29.22 84.59599 0.44 8.35 3.67 10.24
7/6/2021 5:15:00 PM 29.24 84.632 0.44 8.34 2.92 10.24
7/6/2021 5:30:00 PM 29.16 84.488 0.441 8.34 2.91 10.14
7/6/2021 5:45:00 PM 29.13 84.434 0.441 8.33 3.76 9.97
7/6/2021 6:00:00 PM 29 84.2 0.442 8.32 3.33 9.88
7/6/2021 6:15:00 PM 28.76 83.768 0.443 8.31 2.76 9.55
7/6/2021 6:30:00 PM 28.6 83.48 0.444 8.29 2.94 9.33
7/6/2021 6:45:00 PM 28.46 83.228 0.445 8.28 3.16 9.15
7/6/2021 7:00:00 PM 28.29 82.922 0.446 8.27 3.73 8.93
7/6/2021 7:15:00 PM 28.08 82.544 0.448 8.25 3.46 8.65
7/6/2021 7:30:00 PM 27.88 82.184 0.449 8.23 3.88 8.33
7/6/2021 7:45:00 PM 27.69 81.842 0.45 8.21 2.88 8.06
7/6/2021 8:00:00 PM 27.49 81.482 0.452 8.19 5.01 7.74
7/6/2021 8:15:00 PM 27.32 81.176 0.452 8.17 3.31 7.54
7/6/2021 8:30:00 PM 27.15 80.87 0.454 8.15 3.68 7.29
7/6/2021 8:45:00 PM 26.99 80.582 0.455 8.12 6.48 7.07
7/6/2021 9:00:00 PM 26.86 80.348 0.456 8.1 3.55 6.81
7/6/2021 9:15:00 PM 26.71 80.078 0.456 8.08 5.17 6.66
7/6/2021 9:30:00 PM 26.58 79.844 0.457 8.06 6.94 6.49
7/6/2021 9:45:00 PM 26.47 79.646 0.458 8.04 6.56 6.35
7/6/2021 10:00:00 PM 26.36 79.448 0.458 8.02 14.81 6.24
7/6/2021 10:15:00 PM 26.25 79.25 0.459 8.01 5.12 6.15
7/6/2021 10:30:00 PM 26.15 79.07 0.459 7.99 5.37 6.09
7/6/2021 10:45:00 PM 26.05 78.89 0.46 7.97 6.23 5.99
7/6/2021 11:00:00 PM 25.96 78.728 0.46 7.96 4.59 5.95
7/6/2021 11:15:00 PM 25.9 78.62 0.46 7.95 3.9 5.92
7/6/2021 11:30:00 PM 25.82 78.476 0.461 7.94 5.65 5.96
7/6/2021 11:45:00 PM 25.75 78.35 0.461 7.93 4.41 5.88
7/7/2021 12:00:00 AM 25.68 78.224 0.453 7.93 5.28 5.9
7/7/2021 12:15:00 AM 25.62 78.116 0.462 7.91 5.18 5.89
7/7/2021 12:30:00 AM 25.56 78.008 0.462 7.92 5.48 5.88
7/7/2021 12:45:00 AM 25.5 77.9 0.462 7.91 7.69 5.89
7/7/2021 1:00:00 AM 25.46 77.828 0.462 7.91 6.19 5.93
7/7/2021 1:15:00 AM 25.41 77.738 0.463 7.91 6.34 5.95
7/7/2021 1:30:00 AM 25.35 77.63 0.463 7.91 4.46 5.97
7/7/2021 1:45:00 AM 25.31 77.558 0.463 7.91 6.15 5.98
7/7/2021 2:00:00 AM 25.27 77.486 0.464 7.91 7.79 5.99
7/7/2021 2:15:00 AM 25.23 77.414 0.464 7.91 6.69 6.03
7/7/2021 2:30:00 AM 25.19 77.342 0.465 7.91 5.67 6.06
7/7/2021 2:45:00 AM 25.14 77.252 0.465 7.91 6.18 6.03
7/7/2021 3:00:00 AM 25.1 77.18 0.465 7.91 5.04 6.08
7/7/2021 3:15:00 AM 25.07 77.126 0.466 7.91 6.3 6.08
7/7/2021 3:30:00 AM 25.03 77.054 0.466 7.91 5.82 6.11
7/7/2021 3:45:00 AM 24.99 76.982 0.466 7.91 6.52 6.06
7/7/2021 4:00:00 AM 24.95 76.91 0.467 7.91 7.58 6.12
7/7/2021 4:15:00 AM 24.93 76.874 0.467 7.91 5.5 6.09
7/7/2021 4:30:00 AM 24.89 76.802 0.467 7.91 7.35 6.13
7/7/2021 4:45:00 AM 24.86 76.748 0.468 7.91 5.74 6.12
7/7/2021 5:00:00 AM 24.83 76.694 0.468 7.91 5.77 6.13
7/7/2021 5:15:00 AM 24.8 76.64 0.468 7.91 5.9 6.17
7/7/2021 5:30:00 AM 24.77 76.586 0.468 7.91 5.21 6.17
7/7/2021 5:45:00 AM 24.73 76.514 0.468 7.91 7.15 6.18
7/7/2021 6:00:00 AM 24.72 76.496 0.468 7.91 4.58 6.18
7/7/2021 6:15:00 AM 24.71 76.478 0.469 7.91 4.08 6.19
7/7/2021 6:30:00 AM 24.72 76.496 0.469 7.91 4.38 6.2
7/7/2021 6:45:00 AM 24.75 76.55 0.468 7.91 6.74 6.25
7/7/2021 7:00:00 AM 24.75 76.55 0.469 7.92 4.58 6.34
7/7/2021 7:15:00 AM 24.81 76.658 0.468 7.93 5.49 6.42
7/7/2021 7:30:00 AM 24.87 76.766 0.468 7.93 3.98 6.5
7/7/2021 7:45:00 AM 24.94 76.892 0.468 7.94 3.88 6.61
7/7/2021 8:00:00 AM 25.01 77.018 0.468 7.95 3.56 6.76
7/7/2021 8:15:00 AM 25.12 77.216 0.467 7.96 4.16 6.94
7/7/2021 8:30:00 AM 25.22 77.396 0.467 7.97 3.99 7.13
7/7/2021 8:45:00 AM 25.32 77.576 0.467 7.99 4.06 7.31
7/7/2021 9:00:00 AM 25.42 77.756 0.466 7.99 3.5 7.48
7/7/2021 9:15:00 AM 25.51 77.918 0.466 8.02 3.85 7.66
7/7/2021 9:30:00 AM 25.61 78.098 0.465 8.03 3.09 7.83
7/7/2021 9:45:00 AM 25.72 78.296 0.465 8.05 2.76 8.01
7/7/2021 10:00:00 AM 25.82 78.476 0.464 8.07 2.58 8.2
7/7/2021 10:15:00 AM 25.94 78.692 0.464 8.09 2.81 8.37
7/7/2021 10:30:00 AM 26.09 78.962 0.463 8.11 2.66 8.6
7/7/2021 10:45:00 AM 26.25 79.25 0.463 8.13 3.16 8.81
7/7/2021 11:00:00 AM 26.43 79.574 0.462 8.15 3.14 9.02
7/7/2021 11:15:00 AM 26.62 79.916 0.461 8.17 2.57 9.23
7/7/2021 11:30:00 AM 26.85 80.33 0.461 8.19 2.51 9.44
7/7/2021 11:45:00 AM 27.14 80.852 0.46 8.21 2.83 9.73
7/7/2021 12:00:00 PM 27.36 81.248 0.459 8.23 3.07 9.99
7/7/2021 12:15:00 PM 27.7 81.86 0.459 8.25 2.9 10.18
7/7/2021 12:30:00 PM 27.99 82.382 0.459 8.27 3.56 10.46
7/7/2021 12:45:00 PM 28.07 82.526 0.459 8.29 5.55 10.4
7/7/2021 1:00:00 PM 28.2 82.76 0.459 8.3 2.54 10.54
7/7/2021 1:15:00 PM 28.51 83.318 0.459 8.31 4.47 10.65
7/7/2021 1:30:00 PM 28.95 84.11 0.458 8.32 4.01 10.93
7/7/2021 1:45:00 PM 29.2 84.56001 0.458 8.33 3.4 11.05
7/7/2021 2:00:00 PM 29.32 84.776 0.458 8.34 2.89 10.99
7/7/2021 2:15:00 PM 29.43 84.974 0.457 8.34 5.43 10.89
7/7/2021 2:30:00 PM 29.71 85.478 0.457 8.35 3.56 11
7/7/2021 2:45:00 PM 30.06 86.108 0.457 8.34 3.09 11.04
7/7/2021 3:00:00 PM 30.18 86.324 0.457 8.35 2.68 11.05
7/7/2021 3:15:00 PM 30.44 86.792 0.457 8.35 2.6 11.04
7/7/2021 3:30:00 PM 30.74 87.332 0.457 8.35 3.03 11.14
7/7/2021 3:45:00 PM 30.93 87.674 0.457 8.36 3.47 11.18
7/7/2021 4:00:00 PM 31.03 87.854 0.457 8.36 2.64 11.08
7/7/2021 4:15:00 PM 31.29 88.32201 0.457 8.35 4.8 11.17
7/7/2021 4:30:00 PM 31.39 88.502 0.458 8.36 3.86 11.12
7/7/2021 4:45:00 PM 31.47 88.646 0.458 8.35 4.24 11
7/7/2021 5:00:00 PM 31.5 88.7 0.458 8.35 13.73 10.97
7/7/2021 5:15:00 PM 31.4 88.52 0.459 8.35 3.85 10.77
7/7/2021 5:30:00 PM 31.04 87.872 0.461 8.34 4.6 10.38
7/7/2021 5:45:00 PM 30.7 87.26 0.462 8.33 3.17 9.83
7/7/2021 6:00:00 PM 30.44 86.792 0.463 8.31 3.87 9.51
7/7/2021 6:15:00 PM 30.2 86.36 0.464 8.29 4.3 9.2
7/7/2021 6:30:00 PM 30.02 86.036 0.465 8.27 4.54 8.94
7/7/2021 6:45:00 PM 29.77 85.586 0.467 8.25 4.73 8.65
7/7/2021 7:00:00 PM 29.49 85.082 0.468 8.24 5 8.19
7/7/2021 7:15:00 PM 29.2 84.56001 0.47 8.21 3.83 7.73
7/7/2021 7:30:00 PM 28.92 84.056 0.472 8.19 5.14 7.37
7/7/2021 7:45:00 PM 28.68 83.624 0.473 8.16 4.42 7.04
7/7/2021 8:00:00 PM 28.42 83.156 0.474 8.13 4.57 6.81
7/7/2021 8:15:00 PM 28.17 82.706 0.475 8.11 5.82 6.56
7/7/2021 8:30:00 PM 27.99 82.382 0.476 8.09 5.25 6.4
7/7/2021 8:45:00 PM 27.78 82.004 0.477 8.06 4.24 6.22
7/7/2021 9:00:00 PM 27.6 81.68 0.478 8.04 4.02 6.06
7/7/2021 9:15:00 PM 27.44 81.392 0.479 8.03 5.78 5.95
7/7/2021 9:30:00 PM 27.31 81.158 0.479 8.01 4.93 5.8
7/7/2021 9:45:00 PM 27.18 80.924 0.479 7.99 4.28 5.74
7/7/2021 10:00:00 PM 27.06 80.708 0.48 7.98 8.43 5.72
7/7/2021 10:15:00 PM 26.97 80.546 0.48 7.97 6.56 5.68
7/7/2021 10:30:00 PM 26.88 80.384 0.48 7.96 5.35 5.63
7/7/2021 10:45:00 PM 26.8 80.24 0.48 7.95 4.1 5.61
7/7/2021 11:00:00 PM 26.71 80.078 0.481 7.94 5.57 5.61
7/7/2021 11:15:00 PM 26.66 79.988 0.481 7.93 6.04 5.61
7/7/2021 11:30:00 PM 26.6 79.88 0.481 7.93 6.7 5.61
7/7/2021 11:45:00 PM 26.54 79.772 0.482 7.92 4.16 5.56
7/8/2021 12:00:00 AM 26.49 79.682 0.482 7.92 5.28 5.62
7/8/2021 12:15:00 AM 26.44 79.592 0.482 7.92 6.5 5.62
7/8/2021 12:30:00 AM 26.37 79.466 0.482 7.92 4.02 5.66
7/8/2021 12:45:00 AM 26.31 79.358 0.482 7.91 11.6 5.63
7/8/2021 1:00:00 AM 26.25 79.25 0.483 7.91 5.35 5.71
7/8/2021 1:15:00 AM 26.23 79.214 0.483 7.91 4.47 5.73
7/8/2021 1:30:00 AM 26.2 79.16 0.483 7.92 5.42 5.71
7/8/2021 1:45:00 AM 26.18 79.124 0.484 7.91 7.09 5.7
7/8/2021 2:00:00 AM 26.14 79.052 0.484 7.91 3.82 5.66
7/8/2021 2:15:00 AM 26.12 79.016 0.484 7.91 6.87 5.75
7/8/2021 2:30:00 AM 26.09 78.962 0.485 7.91 8.26 5.74
7/8/2021 2:45:00 AM 26.05 78.89 0.485 7.91 13.25 5.74
7/8/2021 3:00:00 AM 26 78.8 0.485 7.91 6.07 5.69
7/8/2021 3:15:00 AM 25.98 78.764 0.486 7.91 5.82 5.77
7/8/2021 3:30:00 AM 25.95 78.71 0.486 7.91 4.34 5.77
7/8/2021 3:45:00 AM 25.9 78.62 0.487 7.91 5.86 5.75
7/8/2021 4:00:00 AM 25.89 78.602 0.487 7.91 4.93 5.8
7/8/2021 4:15:00 AM 25.84 78.512 0.487 7.91 6.65 5.79
7/8/2021 4:30:00 AM 25.83 78.494 0.487 7.92 5.53 5.85
7/8/2021 4:45:00 AM 25.8 78.44 0.488 7.91 8.15 5.84
7/8/2021 5:00:00 AM 25.79 78.422 0.488 7.91 7.15 5.85
7/8/2021 5:15:00 AM 25.77 78.386 0.489 7.91 4.94 5.86
7/8/2021 5:30:00 AM 25.76 78.368 0.489 7.91 5.82 5.89
7/8/2021 5:45:00 AM 25.72 78.296 0.489 7.91 4.41 5.9
7/8/2021 6:00:00 AM 25.7 78.26 0.489 7.91 6.34 5.86
7/8/2021 6:15:00 AM 25.71 78.278 0.489 7.91 16.59 5.91
7/8/2021 6:30:00 AM 25.69 78.242 0.49 7.91 4.44 5.95
7/8/2021 6:45:00 AM 25.7 78.26 0.49 7.91 8.49 5.94
7/8/2021 7:00:00 AM 25.72 78.296 0.49 7.91 5.12 5.98
7/8/2021 7:15:00 AM 25.73 78.314 0.49 7.92 5.47 6.05
7/8/2021 7:30:00 AM 25.74 78.332 0.49 7.92 5.55 6.09
7/8/2021 7:45:00 AM 25.79 78.422 0.489 7.93 6.67 6.24
7/8/2021 8:00:00 AM 25.83 78.494 0.489 7.94 328.2 6.37
7/8/2021 8:15:00 AM 25.87 78.566 0.489 7.94 503.1 6.51
7/8/2021 8:30:00 AM 25.93 78.674 0.488 7.95 561.5 6.71
7/8/2021 8:45:00 AM 26 78.8 0.487 7.96 542.2 6.95
7/8/2021 9:00:00 AM 26.04 78.872 0.487 7.98 406.5 7.13
7/8/2021 9:15:00 AM 26.08 78.944 0.486 7.98 296.6 7.25
7/8/2021 9:30:00 AM 26.1 78.98 0.486 8.01 1639 7.2
7/8/2021 9:45:00 AM 26.14 79.052 0.485 8.01 4191 7.28
7/8/2021 10:00:00 AM 26.21 79.17799 0.485 8.04 6182 7.62
7/8/2021 10:15:00 AM 26.26 79.268 0.484 8.05 6180 7.82
7/8/2021 10:30:00 AM 26.37 79.466 0.483 8.08 5982 8.2
7/8/2021 10:45:00 AM 26.5 79.7 0.482 8.09 5655 8.5
7/8/2021 11:00:00 AM 26.64 79.952 0.481 8.12 5175 8.84
7/8/2021 11:15:00 AM 26.76 80.168 0.48 8.14 4821 9.12
7/8/2021 11:30:00 AM 26.87 80.366 0.479 8.15 4260 9.35
7/8/2021 11:45:00 AM 26.96 80.528 0.478 8.18 3989 9.52
7/8/2021 12:00:00 PM 27.07 80.726 0.477 8.19 3629 9.72
7/8/2021 12:15:00 PM 27.16 80.888 0.477 8.21 2938 9.9
7/8/2021 12:30:00 PM 27.22 80.996 0.476 8.23 690.8 9.96
7/8/2021 12:45:00 PM 27.29 81.122 0.476 8.25 623.5 10.04
7/8/2021 1:00:00 PM 27.32 81.176 0.476 8.25 595.7 10.05
7/8/2021 1:15:00 PM 27.37 81.266 0.475 8.26 560.3 10.09
7/8/2021 1:30:00 PM 27.51 81.518 0.474 8.28 504.1 10.24
7/8/2021 1:45:00 PM 27.7 81.86 0.474 8.29 479.9 10.46
7/8/2021 2:00:00 PM 27.87 82.166 0.473 8.3 456.6 10.7
7/8/2021 2:15:00 PM 27.96 82.328 0.473 8.31 488.7 10.64
7/8/2021 2:30:00 PM 28.07 82.526 0.473 8.31 516.6 10.81
7/8/2021 2:45:00 PM 28.18 82.724 0.473 8.32 476.9 10.88
7/8/2021 3:00:00 PM 28.28 82.904 0.473 8.32 479.9 10.87
7/8/2021 3:15:00 PM 28.29 82.922 0.473 8.33 432.9 10.81
7/8/2021 3:30:00 PM 28.22 82.796 0.474 8.32 391.1 10.46
7/8/2021 3:45:00 PM 28.32 82.976 0.472 8.31 449.6 10.32
7/8/2021 4:00:00 PM 28.48 83.264 0.472 8.31 370.9 10.52
7/8/2021 4:15:00 PM 27.53 81.554 0.437 8.33 597.2 9.02
7/8/2021 4:30:00 PM 27.36 81.248 0.439 8.29 532.4 8.36
7/8/2021 4:45:00 PM 26.95 80.51 0.399 8.27 521.7 7.86
7/8/2021 5:00:00 PM 26.99 80.582 0.409 8.22 510.7 7.63
7/8/2021 5:15:00 PM 26.91 80.438 0.412 8.19 511.7 7.41
7/8/2021 5:30:00 PM 26.77 80.186 0.414 8.16 519.6 7.12
7/8/2021 5:45:00 PM 26.6 79.88 0.413 8.12 506.3 6.89
7/8/2021 6:00:00 PM 26.46 79.628 0.412 8.1 529.1 6.65
7/8/2021 6:15:00 PM 26.34 79.412 0.416 8.06 487.9 6.52
7/8/2021 6:30:00 PM 26.27 79.286 0.422 8.03 499.7 6.42
7/8/2021 6:45:00 PM 26.23 79.214 0.427 8.01 590.2 6.3
7/8/2021 7:00:00 PM 26.21 79.17799 0.431 7.98 583.6 6.36
7/8/2021 7:15:00 PM 26.17 79.106 0.436 7.96 637.8 6.27
7/8/2021 7:30:00 PM 26.15 79.07 0.439 7.95 636.9 6.3
7/8/2021 7:45:00 PM 26.12 79.016 0.442 7.94 664.5 6.26
7/8/2021 8:00:00 PM 26.1 78.98 0.445 7.93 632.1 6.27
7/8/2021 8:15:00 PM 26.07 78.926 0.448 7.92 661.8 6.27
7/8/2021 8:30:00 PM 26.05 78.89 0.452 7.91 650.9 6.22
7/8/2021 8:45:00 PM 26.01 78.818 0.455 7.91 635.9 6.27
7/8/2021 9:00:00 PM 25.97 78.746 0.458 7.91 666.5 6.25
7/8/2021 9:15:00 PM 25.93 78.674 0.461 7.9 670.1 6.2
7/8/2021 9:30:00 PM 25.89 78.602 0.464 7.9 697.4 6.18
7/8/2021 9:45:00 PM 25.86 78.548 0.467 7.89 646.7 6.13
7/8/2021 10:00:00 PM 25.83 78.494 0.469 7.89 670.4 6.17
7/8/2021 10:15:00 PM 25.79 78.422 0.472 7.89 670.1 6.14
7/8/2021 10:30:00 PM 25.76 78.368 0.474 7.88 657.9 6.14
7/8/2021 10:45:00 PM 25.72 78.296 0.476 7.88 431.3 6.07
7/8/2021 11:00:00 PM 25.71 78.278 0.478 7.88 431.7 6.1
7/8/2021 11:15:00 PM 25.68 78.224 0.48 7.87 458.2 6.12
7/8/2021 11:30:00 PM 25.65 78.17 0.482 7.87 434.7 6.14
7/8/2021 11:45:00 PM 25.62 78.116 0.483 7.87 457.4 6.12
7/9/2021 12:00:00 AM 25.58 78.044 0.484 7.87 465.9 6.14
7/9/2021 12:15:00 AM 25.55 77.99 0.486 7.87 476.2 6.18
7/9/2021 12:30:00 AM 25.52 77.936 0.487 7.87 499.2 6.21
7/9/2021 12:45:00 AM 25.49 77.882 0.487 7.87 490.3 6.16
7/9/2021 1:00:00 AM 25.46 77.828 0.488 7.87 510.6 6.24
7/9/2021 1:15:00 AM 25.44 77.792 0.472 7.87 476.3 6.26
7/9/2021 1:30:00 AM 25.39 77.702 0.49 7.87 490.6 6.3
7/9/2021 1:45:00 AM 25.36 77.648 0.49 7.87 484.2 6.26
7/9/2021 2:00:00 AM 25.33 77.594 0.49 7.87 475.6 6.29
7/9/2021 2:15:00 AM 25.3 77.54 0.49 7.88 292.1 6.33
7/9/2021 2:30:00 AM 25.25 77.45 0.491 7.88 305.2 6.32
7/9/2021 2:45:00 AM 25.21 77.378 0.491 7.88 219.9 6.37
7/9/2021 3:00:00 AM 25.17 77.306 0.491 7.88 287.4 6.34
7/9/2021 3:15:00 AM 25.12 77.216 0.491 7.88 263.4 6.34
7/9/2021 3:30:00 AM 25.08 77.144 0.491 7.88 338.4 6.37
7/9/2021 3:45:00 AM 25.03 77.054 0.491 7.88 254 6.39
7/9/2021 4:00:00 AM 24.99 76.982 0.492 7.89 275.3 6.41
7/9/2021 4:15:00 AM 24.95 76.91 0.492 7.89 196.3 6.44
7/9/2021 4:30:00 AM 24.9 76.82 0.492 7.89 187.2 6.43
7/9/2021 4:45:00 AM 24.85 76.73 0.492 7.89 191.1 6.43
7/9/2021 5:00:00 AM 24.82 76.676 0.492 7.89 188.9 6.47
7/9/2021 5:15:00 AM 24.78 76.604 0.492 7.89 203.4 6.48
7/9/2021 5:30:00 AM 24.74 76.532 0.492 7.89 4169 6.43
7/9/2021 5:45:00 AM 24.72 76.496 0.492 7.9 183.6 6.49
7/9/2021 6:00:00 AM 24.68 76.424 0.492 7.9 4435 6.46
7/9/2021 6:15:00 AM 24.66 76.388 0.491 7.9 176 6.49
7/9/2021 6:30:00 AM 24.66 76.388 0.492 7.9 48.99 6.49
7/9/2021 6:45:00 AM 24.66 76.388 0.492 7.9 26.96 6.46
7/9/2021 7:00:00 AM 24.65 76.37 0.492 7.9 32.32 6.5
7/9/2021 7:15:00 AM 24.65 76.37 0.491 7.91 4357 6.56
7/9/2021 7:30:00 AM 24.67 76.406 0.491 7.91 40.15 6.59
7/9/2021 7:45:00 AM 24.71 76.478 0.491 7.91 26.51 6.72
7/9/2021 8:00:00 AM 24.76 76.568 0.491 7.93 4176 6.85
7/9/2021 8:15:00 AM 24.79 76.622 0.49 7.93 11.8 6.9
7/9/2021 8:30:00 AM 24.83 76.694 0.489 7.94 13.1 7.01
7/9/2021 8:45:00 AM 24.9 76.82 0.489 7.95 13.19 7.21
7/9/2021 9:00:00 AM 24.95 76.91 0.489 7.96 17.36 7.4
7/9/2021 9:15:00 AM 25.01 77.018 0.488 7.98 4994 7.59
7/9/2021 9:30:00 AM 25.04 77.07201 0.487 7.99 18.41 7.68
7/9/2021 9:45:00 AM 25.08 77.144 0.487 8.01 11.82 7.75
7/9/2021 10:00:00 AM 25.11 77.198 0.486 8.02 10.09 7.84
7/9/2021 10:15:00 AM 25.14 77.252 0.486 8.04 9.9 8.07
7/9/2021 10:30:00 AM 25.18 77.324 0.485 8.05 11 8.17
7/9/2021 10:45:00 AM 25.28 77.504 0.484 8.06 10.01 8.36
7/9/2021 11:00:00 AM 25.37 77.666 0.483 8.08 824 8.59
7/9/2021 11:15:00 AM 25.4 77.72 0.483 8.09 9.26 8.52
7/9/2021 11:30:00 AM 25.45 77.81 0.482 8.1 9.31 8.7
7/9/2021 11:45:00 AM 25.52 77.936 0.481 8.11 8.34 8.7
7/9/2021 12:00:00 PM 25.67 78.206 0.48 8.12 10.38 8.99
7/9/2021 12:15:00 PM 25.85 78.53 0.479 8.12 28.78 9.19
7/9/2021 12:30:00 PM 26.02 78.836 0.479 8.14 6.13 9.36
7/9/2021 12:45:00 PM 26.17 79.106 0.478 8.15 2768 9.39
7/9/2021 1:00:00 PM 26.46 79.628 0.477 8.16 636.9 9.44
7/9/2021 1:15:00 PM 26.75 80.15 0.477 8.15 11.4 9.3
7/9/2021 1:30:00 PM 26.85 80.33 0.477 8.16 2.85 9.73
7/9/2021 1:45:00 PM 26.7 80.06 0.477 8.17 2.78 9.52
7/9/2021 2:00:00 PM 26.85 80.33 0.477 8.17 2.9 9.51
7/9/2021 2:15:00 PM 26.97 80.546 0.476 8.17 3.38 9.55
7/9/2021 2:30:00 PM 26.98 80.564 0.476 8.17 2.66 9.55
7/9/2021 2:45:00 PM 26.88 80.384 0.476 8.17 3.16 9.43
7/9/2021 3:00:00 PM 26.78 80.204 0.476 8.16 3.01 9.19
7/9/2021 3:15:00 PM 26.83 80.294 0.477 8.15 2.99 9.25
7/9/2021 3:30:00 PM 26.88 80.384 0.477 8.15 2.69 9.18
7/9/2021 3:45:00 PM 26.8 80.24 0.476 8.15 3.42 9.15
7/9/2021 4:00:00 PM 26.77 80.186 0.476 8.15 3.82 9.07
7/9/2021 4:15:00 PM 26.69 80.042 0.476 8.14 2.98 8.91
7/9/2021 4:30:00 PM 26.57 79.826 0.476 8.13 3.35 8.6
7/9/2021 4:45:00 PM 26.51 79.718 0.476 8.12 3.13 8.44
7/9/2021 5:00:00 PM 26.39 79.502 0.475 8.11 3.84 8.37
7/9/2021 5:15:00 PM 26.27 79.286 0.475 8.1 3.38 8.23
7/9/2021 5:30:00 PM 26.21 79.17799 0.475 8.1 3.7 8.17
7/9/2021 5:45:00 PM 26.14 79.052 0.475 8.09 3.24 8.11
7/9/2021 6:00:00 PM 26 78.8 0.475 8.08 3.21 7.97
7/9/2021 6:15:00 PM 25.95 78.71 0.475 8.07 3.27 7.97
7/9/2021 6:30:00 PM 25.96 78.728 0.475 8.07 3.36 7.98
7/9/2021 6:45:00 PM 25.89 78.602 0.475 8.06 3.57 7.94
7/9/2021 7:00:00 PM 25.81 78.458 0.476 8.06 4.39 7.85
7/9/2021 7:15:00 PM 25.69 78.242 0.476 8.05 4 7.78
7/9/2021 7:30:00 PM 25.57 78.026 0.477 8.05 5.27 7.68
7/9/2021 7:45:00 PM 25.49 77.882 0.477 8.04 2.84 7.55
7/9/2021 8:00:00 PM 25.4 77.72 0.478 8.03 4.82 7.46
7/9/2021 8:15:00 PM 25.31 77.558 0.478 8.03 3.98 7.35
7/9/2021 8:30:00 PM 25.23 77.414 0.478 8.02 9.43 7.23
7/9/2021 8:45:00 PM 25.16 77.288 0.479 8.01 5.87 7.17
7/9/2021 9:00:00 PM 25.1 77.18 0.48 8 4.43 7.07
7/9/2021 9:15:00 PM 25.05 77.09 0.48 8 3.8 7.04
7/9/2021 9:30:00 PM 25 77 0.481 7.99 4.38 6.98
7/9/2021 9:45:00 PM 24.94 76.892 0.481 7.98 18.77 6.91
7/9/2021 10:00:00 PM 24.89 76.802 0.481 7.97 4.85 6.85
7/9/2021 10:15:00 PM 24.85 76.73 0.482 7.97 6.44 6.84
7/9/2021 10:30:00 PM 24.8 76.64 0.482 7.97 8.77 6.84
7/9/2021 10:45:00 PM 24.76 76.568 0.482 7.97 3.21 6.84
7/9/2021 11:00:00 PM 24.72 76.496 0.482 7.96 41.71 6.85
7/9/2021 11:15:00 PM 24.67 76.406 0.481 7.96 11.87 6.83
7/9/2021 11:30:00 PM 24.63 76.334 0.481 7.97 103.1 6.87
7/9/2021 11:45:00 PM 24.59 76.262 0.481 7.98 104.1 6.91
7/10/2021 12:00:00 AM 24.58 76.244 0.481 7.98 133.4 6.94
7/10/2021 12:15:00 AM 24.55 76.19 0.481 7.98 142.6 6.95
7/10/2021 12:30:00 AM 24.51 76.118 0.482 7.99 134.2 6.99
7/10/2021 12:45:00 AM 24.49 76.082 0.482 8 129.3 7.01
7/10/2021 1:00:00 AM 24.47 76.046 0.482 8 68.74 7
7/10/2021 1:15:00 AM 24.46 76.028 0.482 8.01 72.61 7.05
7/10/2021 1:30:00 AM 24.44 75.992 0.482 8.02 79.28 7.06
7/10/2021 1:45:00 AM 24.42 75.956 0.482 8.01 73.73 7.05
7/10/2021 2:00:00 AM 24.4 75.92 0.483 8.03 72.94 7.07
7/10/2021 2:15:00 AM 24.4 75.92 0.483 8.04 74.81 7.09
7/10/2021 2:30:00 AM 24.38 75.884 0.483 8.04 78.61 7.07
7/10/2021 2:45:00 AM 24.37 75.866 0.484 8.04 82.48 7.12
7/10/2021 3:00:00 AM 24.35 75.83 0.484 8.05 86.81 7.1
7/10/2021 3:15:00 AM 24.32 75.776 0.484 8.05 85.07 7.14
7/10/2021 3:30:00 AM 24.33 75.794 0.485 8.05 81.71 7.14
7/10/2021 3:45:00 AM 24.3 75.74 0.485 8.06 87.92 7.14
7/10/2021 4:00:00 AM 24.27 75.686 0.486 8.06 88.05 7.13
7/10/2021 4:15:00 AM 24.27 75.686 0.486 8.06 93.59 7.12
7/10/2021 4:30:00 AM 24.26 75.668 0.486 8.07 82.13 7.06
7/10/2021 4:45:00 AM 24.24 75.632 0.487 8.07 77.11 7.07
7/10/2021 5:00:00 AM 24.23 75.614 0.487 8.07 133.3 7.05
7/10/2021 5:15:00 AM 24.23 75.614 0.487 8.07 28.77 7.15
7/10/2021 5:30:00 AM 24.21 75.578 0.488 8.07 6.28 7.16
7/10/2021 5:45:00 AM 24.17 75.506 0.488 8.07 16.01 7.09
7/10/2021 6:00:00 AM 24.16 75.488 0.488 8.07 55.77 7.08
7/10/2021 6:15:00 AM 24.13 75.434 0.488 8.07 4.06 7.02
7/10/2021 6:30:00 AM 24.12 75.416 0.488 8.08 4.64 7.12
7/10/2021 6:45:00 AM 24.1 75.38 0.488 8.07 6.56 7.07
7/10/2021 7:00:00 AM 24.08 75.344 0.488 8.07 9.5 7.12
7/10/2021 7:15:00 AM 24.04 75.272 0.488 8.07 14.59 7.12
7/10/2021 7:30:00 AM 24.02 75.236 0.488 8.07 12.28 7.11
7/10/2021 7:45:00 AM 24.01 75.218 0.488 8.07 13.93 7.22
7/10/2021 8:00:00 AM 24.01 75.218 0.488 8.07 6.21 7.29
7/10/2021 8:15:00 AM 24.03 75.254 0.488 8.08 57.1 7.36
7/10/2021 8:30:00 AM 24.03 75.254 0.488 8.07 4.56 7.44
7/10/2021 8:45:00 AM 24.05 75.29 0.488 8.08 4.26 7.56
7/10/2021 9:00:00 AM 24.08 75.344 0.488 8.08 5.76 7.6
7/10/2021 9:15:00 AM 24.08 75.344 0.488 8.09 3.81 7.61
7/10/2021 9:30:00 AM 24.05 75.29 0.488 8.09 4.19 7.6
7/10/2021 9:45:00 AM 24.1 75.38 0.488 8.1 4.36 7.77
7/10/2021 10:00:00 AM 24.16 75.488 0.488 8.11 4.33 7.96
7/10/2021 10:15:00 AM 24.24 75.632 0.488 8.11 5.84 8.07
7/10/2021 10:30:00 AM 24.24 75.632 0.488 8.12 7.55 8.16
7/10/2021 10:45:00 AM 24.32 75.776 0.488 8.12 3.31 8.34
7/10/2021 11:00:00 AM 24.43 75.974 0.488 8.13 5.27 8.54
7/10/2021 11:15:00 AM 24.48 76.064 0.488 8.14 3.98 8.7
7/10/2021 11:30:00 AM 24.63 76.334 0.487 8.15 6.07 8.81
7/10/2021 11:45:00 AM 24.73 76.514 0.487 8.15 3.45 8.92
7/10/2021 12:00:00 PM 24.79 76.622 0.487 8.17 3.29 9.1
7/10/2021 12:15:00 PM 24.87 76.766 0.487 8.17 4.79 9.15
7/10/2021 12:30:00 PM 24.9 76.82 0.487 8.18 3.19 9.17
7/10/2021 12:45:00 PM 25.02 77.036 0.487 8.19 919.8 9.34
7/10/2021 1:00:00 PM 25.23 77.414 0.487 8.19 3.14 9.49
7/10/2021 1:15:00 PM 25.2 77.36 0.487 8.19 3.05 9.45
7/10/2021 1:30:00 PM 25.52 77.936 0.487 8.2 3.1 9.46
7/10/2021 1:45:00 PM 25.84 78.512 0.487 8.19 3.15 9.59
7/10/2021 2:00:00 PM 25.8 78.44 0.488 8.2 4222 9.64
7/10/2021 2:15:00 PM 25.89 78.602 0.487 8.2 810.1 9.46
7/10/2021 2:30:00 PM 26 78.8 0.488 8.2 495.5 9.73
7/10/2021 2:45:00 PM 26.05 78.89 0.488 8.2 509.3 9.68
7/10/2021 3:00:00 PM 26.05 78.89 0.489 8.19 3.42 9.54
7/10/2021 3:15:00 PM 26.03 78.854 0.488 8.2 442 9.47
7/10/2021 3:30:00 PM 26.42 79.556 0.488 8.19 3.63 9.63
7/10/2021 3:45:00 PM 26.59 79.862 0.488 8.19 3.86 9.81
7/10/2021 4:00:00 PM 26.71 80.078 0.488 8.19 3.5 9.74
7/10/2021 4:15:00 PM 26.87 80.366 0.488 8.2 7.42 9.82
7/10/2021 4:30:00 PM 26.95 80.51 0.488 8.19 3.52 9.86
7/10/2021 4:45:00 PM 27 80.6 0.488 8.2 36.01 9.9
7/10/2021 5:00:00 PM 27.04 80.672 0.487 8.2 4868 9.86
7/10/2021 5:15:00 PM 26.93 80.474 0.488 8.2 4.86 9.59
7/10/2021 5:30:00 PM 26.79 80.222 0.488 8.2 4.82 9.54
7/10/2021 5:45:00 PM 26.63 79.934 0.488 8.2 4.58 9.34
7/10/2021 6:00:00 PM 26.43 79.574 0.488 8.2 4.45 9.21
7/10/2021 6:15:00 PM 26.23 79.214 0.488 8.2 447.2 9.03
7/10/2021 6:30:00 PM 26.03 78.854 0.488 8.19 431.4 8.83
7/10/2021 6:45:00 PM 25.82 78.476 0.488 8.18 3.46 8.52
7/10/2021 7:00:00 PM 25.64 78.152 0.489 8.17 4.07 8.36
7/10/2021 7:15:00 PM 25.48 77.864 0.489 8.16 3.83 8.18
7/10/2021 7:30:00 PM 25.31 77.558 0.489 8.15 5.03 7.91
7/10/2021 7:45:00 PM 25.17 77.306 0.489 8.14 4.96 7.78
7/10/2021 8:00:00 PM 25.04 77.07201 0.489 8.13 5.12 7.63
7/10/2021 8:15:00 PM 24.93 76.874 0.489 8.12 2673 7.5
7/10/2021 8:30:00 PM 24.82 76.676 0.489 8.11 4.19 7.33
7/10/2021 8:45:00 PM 24.71 76.478 0.489 8.09 6.21 7.25
7/10/2021 9:00:00 PM 24.62 76.316 0.489 8.08 4.13 7.11
7/10/2021 9:15:00 PM 24.53 76.154 0.489 8.07 4.21 7.02
7/10/2021 9:30:00 PM 24.43 75.974 0.478 8.05 4.5 6.92
7/10/2021 9:45:00 PM 24.35 75.83 0.489 8.05 9.68 6.86
7/10/2021 10:00:00 PM 24.26 75.668 0.489 8.03 5.71 6.79
7/10/2021 10:15:00 PM 24.18 75.524 0.489 8.02 4.54 6.72
7/10/2021 10:30:00 PM 24.11 75.398 0.489 8.01 5.8 6.66
7/10/2021 10:45:00 PM 24.05 75.29 0.488 8.01 6.26 6.64
7/10/2021 11:00:00 PM 23.98 75.164 0.488 8 4.63 6.6
7/10/2021 11:15:00 PM 23.93 75.074 0.488 8 4.34 6.59
7/10/2021 11:30:00 PM 23.87 74.966 0.487 7.99 5.48 6.63
7/10/2021 11:45:00 PM 23.82 74.876 0.483 7.99 5.39 6.59
7/11/2021 12:00:00 AM 23.78 74.804 0.486 7.99 6.51 6.69
7/11/2021 12:15:00 AM 23.73 74.714 0.485 7.99 4.61 6.69
7/11/2021 12:30:00 AM 23.7 74.66 0.485 7.99 4.42 6.72
7/11/2021 12:45:00 AM 23.66 74.588 0.484 7.99 4.56 6.72
7/11/2021 1:00:00 AM 23.62 74.516 0.484 7.99 4.38 6.7
7/11/2021 1:15:00 AM 23.59 74.462 0.483 7.99 4.03 6.75
7/11/2021 1:30:00 AM 23.56 74.408 0.482 7.99 5.59 6.73
7/11/2021 1:45:00 AM 23.56 74.408 0.481 7.99 5.88 6.75
7/11/2021 2:00:00 AM 23.53 74.354 0.48 8 7.1 6.73
7/11/2021 2:15:00 AM 23.54 74.372 0.479 8 5.52 6.8
7/11/2021 2:30:00 AM 23.53 74.354 0.478 8 5.89 6.8
7/11/2021 2:45:00 AM 23.55 74.39 0.476 8 5.93 6.82
7/11/2021 3:00:00 AM 23.55 74.39 0.475 8 4.98 6.85
7/11/2021 3:15:00 AM 23.55 74.39 0.474 8.01 4.65 6.83
7/11/2021 3:30:00 AM 23.56 74.408 0.472 8.01 5.45 6.88
7/11/2021 3:45:00 AM 23.55 74.39 0.471 8.02 5.46 6.89
7/11/2021 4:00:00 AM 23.58 74.444 0.469 8.02 5.17 6.88
7/11/2021 4:15:00 AM 23.59 74.462 0.468 8.02 5.95 6.92
7/11/2021 4:30:00 AM 23.61 74.498 0.466 8.03 6.23 6.93
7/11/2021 4:45:00 AM 23.62 74.516 0.464 8.02 5.75 6.87
7/11/2021 5:00:00 AM 23.62 74.516 0.463 8.03 5.86 6.94
7/11/2021 5:15:00 AM 23.62 74.516 0.462 8.03 3.96 6.95
7/11/2021 5:30:00 AM 23.63 74.534 0.461 8.03 5.57 6.97
7/11/2021 5:45:00 AM 23.64 74.552 0.46 8.03 980.1 6.93
7/11/2021 6:00:00 AM 23.66 74.588 0.458 8.04 3.85 6.95
7/11/2021 6:15:00 AM 23.67 74.606 0.457 8.04 3655 6.93
7/11/2021 6:30:00 AM 23.67 74.606 0.456 8.04 418.2 6.95
7/11/2021 6:45:00 AM 23.68 74.624 0.455 8.03 7.1 6.98
7/11/2021 7:00:00 AM 23.7 74.66 0.455 8.04 9.57 6.98
7/11/2021 7:15:00 AM 23.72 74.696 0.454 8.04 4.57 6.97
7/11/2021 7:30:00 AM 23.72 74.696 0.453 8.04 5.45 6.99
7/11/2021 7:45:00 AM 23.74 74.732 0.452 8.04 4.42 7.04
7/11/2021 8:00:00 AM 23.76 74.768 0.452 8.05 4.71 7.09
7/11/2021 8:15:00 AM 23.8 74.84 0.451 8.04 6.28 7.14
7/11/2021 8:30:00 AM 23.83 74.894 0.45 8.05 4.42 7.29
7/11/2021 8:45:00 AM 23.88 74.984 0.449 8.06 5.99 7.4
7/11/2021 9:00:00 AM 23.9 75.02 0.448 8.07 7.66 7.57
7/11/2021 9:15:00 AM 23.95 75.11 0.447 8.08 4.66 7.66
7/11/2021 9:30:00 AM 23.99 75.182 0.446 8.09 3.5 7.8
7/11/2021 9:45:00 AM 24.03 75.254 0.445 8.11 3.53 8.08
7/11/2021 10:00:00 AM 24.05 75.29 0.444 8.13 1260 8.07
7/11/2021 10:15:00 AM 24.08 75.344 0.443 8.13 4.51 8.08
7/11/2021 10:30:00 AM 24.1 75.38 0.442 8.13 4.58 8.19
7/11/2021 10:45:00 AM 24.1 75.38 0.442 8.15 366.7 8.25
7/11/2021 11:00:00 AM 24.14 75.452 0.441 8.16 3.92 8.36
7/11/2021 11:15:00 AM 24.15 75.47 0.44 8.16 3.84 8.36
7/11/2021 11:30:00 AM 24.2 75.56 0.44 8.17 4.05 8.41
7/11/2021 11:45:00 AM 24.24 75.632 0.439 8.18 6.42 8.6
7/11/2021 12:00:00 PM 24.23 75.614 0.439 8.18 6.66 8.53
7/11/2021 12:15:00 PM 24.23 75.614 0.439 8.18 4.9 8.56
7/11/2021 12:30:00 PM 24.24 75.632 0.438 8.18 4.06 8.64
7/11/2021 12:45:00 PM 24.24 75.632 0.438 8.19 3.67 8.62
7/11/2021 1:00:00 PM 24.24 75.632 0.438 8.18 3.59 8.48
7/11/2021 1:15:00 PM 24.28 75.704 0.438 8.18 4.22 8.61
7/11/2021 1:30:00 PM 24.37 75.866 0.437 8.19 3.92 8.87
7/11/2021 1:45:00 PM 24.49 76.082 0.436 8.19 4.7 9.03
7/11/2021 2:00:00 PM 24.76 76.568 0.435 8.21 3.26 9.41
7/11/2021 2:15:00 PM 25.12 77.216 0.435 8.23 3.9 9.67
7/11/2021 2:30:00 PM 25.43 77.774 0.434 8.23 4.2 9.82
7/11/2021 2:45:00 PM 25.57 78.026 0.434 8.24 6.44 10.07
7/11/2021 3:00:00 PM 25.85 78.53 0.433 8.26 3.83 10.41
7/11/2021 3:15:00 PM 25.99 78.782 0.433 8.27 5.11 10.4
7/11/2021 3:30:00 PM 26 78.8 0.433 8.28 3.47 10.48
7/11/2021 3:45:00 PM 25.94 78.692 0.433 8.3 3.89 10.29
7/11/2021 4:00:00 PM 25.91 78.638 0.433 8.3 5.32 10.2
7/11/2021 4:15:00 PM 25.9 78.62 0.434 8.3 3.59 10.22
7/11/2021 4:30:00 PM 25.86 78.548 0.434 8.3 3.55 10.08
7/11/2021 4:45:00 PM 25.9 78.62 0.434 8.29 4.9 10.01
7/11/2021 5:00:00 PM 25.96 78.728 0.434 8.28 1769 9.95
7/11/2021 5:15:00 PM 26.04 78.872 0.434 8.28 1758 10.11
7/11/2021 5:30:00 PM 26.06 78.908 0.434 8.28 4.03 9.94
7/11/2021 5:45:00 PM 26.1 78.98 0.435 8.26 3.9 9.96
7/11/2021 6:00:00 PM 26.07 78.926 0.435 8.26 3.91 9.98
7/11/2021 6:15:00 PM 26.08 78.944 0.436 8.25 4.44 9.71
7/11/2021 6:30:00 PM 26 78.8 0.437 8.25 4.9 9.55
7/11/2021 6:45:00 PM 25.87 78.566 0.438 8.23 4.82 8.91
7/11/2021 7:00:00 PM 25.76 78.368 0.439 8.21 4.66 9.11
7/11/2021 7:15:00 PM 25.58 78.044 0.44 8.2 4.93 8.8
7/11/2021 7:30:00 PM 25.38 77.684 0.441 8.18 6.28 8.36
7/11/2021 7:45:00 PM 25.26 77.468 0.442 8.15 4.52 7.89
7/11/2021 8:00:00 PM 25.12 77.216 0.443 8.13 3.88 7.68
7/11/2021 8:15:00 PM 25 77 0.444 8.09 4.35 7.42
7/11/2021 8:30:00 PM 24.89 76.802 0.445 8.07 4.71 7.27
7/11/2021 8:45:00 PM 24.78 76.604 0.445 8.05 5.98 7
7/11/2021 9:00:00 PM 24.63 76.334 0.446 8.01 4.91 6.93
7/11/2021 9:15:00 PM 24.36 75.848 0.432 8 11.29 6.93
7/11/2021 9:30:00 PM 24.15 75.47 0.425 7.99 13.39 6.74
7/11/2021 9:45:00 PM 24.12 75.416 0.416 7.95 7.49 6.64
7/11/2021 10:00:00 PM 24.07 75.326 0.416 7.94 7.89 6.67
7/11/2021 10:15:00 PM 24.01 75.218 0.425 7.92 8.62 6.59
7/11/2021 10:30:00 PM 23.95 75.11 0.426 7.9 7.99 6.53
7/11/2021 10:45:00 PM 23.88 74.984 0.428 7.89 9.59 6.48
7/11/2021 11:00:00 PM 23.81 74.858 0.429 7.88 8.73 6.51
7/11/2021 11:15:00 PM 23.76 74.768 0.433 7.87 7.38 6.48
7/11/2021 11:30:00 PM 23.72 74.696 0.436 7.86 6.95 6.44
7/11/2021 11:45:00 PM 23.69 74.642 0.438 7.86 7 6.46
7/12/2021 12:00:00 AM 23.67 74.606 0.44 7.85 7.27 6.44
7/12/2021 12:15:00 AM 23.65 74.57 0.443 7.84 6.18 6.45
7/12/2021 12:30:00 AM 23.63 74.534 0.445 7.85 6.09 6.47
7/12/2021 12:45:00 AM 23.6 74.48 0.446 7.84 5.78 6.45
7/12/2021 1:00:00 AM 23.57 74.426 0.448 7.83 5.38 6.47
7/12/2021 1:15:00 AM 23.54 74.372 0.45 7.84 5.64 6.49
7/12/2021 1:30:00 AM 23.51 74.318 0.451 7.84 5.71 6.49
7/12/2021 1:45:00 AM 23.49 74.282 0.453 7.84 6.74 6.53
7/12/2021 2:00:00 AM 23.47 74.246 0.454 7.84 5.36 6.54
7/12/2021 2:15:00 AM 23.44 74.192 0.455 7.85 6.68 6.53
7/12/2021 2:30:00 AM 23.43 74.174 0.456 7.84 5.45 6.55
7/12/2021 2:45:00 AM 23.41 74.138 0.457 7.85 7.54 6.62
7/12/2021 3:00:00 AM 23.41 74.138 0.458 7.85 5.54 6.64
7/12/2021 3:15:00 AM 23.4 74.12 0.458 7.86 5.25 6.62
7/12/2021 3:30:00 AM 23.4 74.12 0.459 7.85 6.42 6.67
7/12/2021 3:45:00 AM 23.4 74.12 0.459 7.86 4.96 6.71
7/12/2021 4:00:00 AM 23.39 74.102 0.46 7.87 6 6.7
7/12/2021 4:15:00 AM 23.38 74.084 0.46 7.86 6.95 6.65
7/12/2021 4:30:00 AM 23.38 74.084 0.46 7.87 7.45 6.73
7/12/2021 4:45:00 AM 23.37 74.066 0.46 7.87 116.4 6.67
7/12/2021 5:00:00 AM 23.36 74.048 0.46 7.87 14.31 6.65
7/12/2021 5:15:00 AM 23.37 74.066 0.46 7.87 17.2 6.6
7/12/2021 5:30:00 AM 23.38 74.084 0.461 7.88 13.99 6.74
7/12/2021 5:45:00 AM 23.38 74.084 0.461 7.88 196.5 6.7
7/12/2021 6:00:00 AM 23.39 74.102 0.461 7.88 500.8 6.75
7/12/2021 6:15:00 AM 23.4 74.12 0.46 7.89 398.7 6.72
7/12/2021 6:30:00 AM 23.41 74.138 0.46 7.89 247.5 6.77
7/12/2021 6:45:00 AM 23.41 74.138 0.46 7.89 52.59 6.76
7/12/2021 7:00:00 AM 23.43 74.174 0.46 7.89 56.79 6.8
7/12/2021 7:15:00 AM 23.44 74.192 0.461 7.89 7.23 6.8
7/12/2021 7:30:00 AM 23.46 74.228 0.459 7.9 289.1 6.88
7/12/2021 7:45:00 AM 23.49 74.282 0.459 7.9 365.9 6.94
7/12/2021 8:00:00 AM 23.53 74.354 0.459 7.91 424.1 7.04
7/12/2021 8:15:00 AM 23.58 74.444 0.458 7.92 331.5 7.13
7/12/2021 8:30:00 AM 23.63 74.534 0.458 7.94 200.2 7.32
7/12/2021 8:45:00 AM 23.7 74.66 0.457 7.95 210 7.5
7/12/2021 9:00:00 AM 23.77 74.786 0.456 7.97 214.1 7.67
7/12/2021 9:15:00 AM 23.84 74.912 0.456 7.99 215.1 7.87
7/12/2021 9:30:00 AM 23.92 75.056 0.455 8.01 225.1 8.06
7/12/2021 9:45:00 AM 24.01 75.218 0.454 8.03 233.8 8.31
7/12/2021 10:00:00 AM 24.11 75.398 0.453 8.05 245.9 8.55
7/12/2021 10:15:00 AM 24.25 75.65 0.452 8.07 270.3 8.8
7/12/2021 10:30:00 AM 24.36 75.848 0.452 8.1 283.3 9
7/12/2021 10:45:00 AM 24.45 76.01 0.451 8.12 19.74 9.14
7/12/2021 11:00:00 AM 24.58 76.244 0.45 8.13 12.33 9.22
7/12/2021 11:15:00 AM 24.69 76.442 0.45 8.15 11.85 9.28
7/12/2021 11:30:00 AM 24.87 76.766 0.449 8.17 11.93 9.39
7/12/2021 11:45:00 AM 25.05 77.09 0.449 8.19 10.9 9.52
7/12/2021 12:00:00 PM 25.27 77.486 0.448 8.2 11.29 9.64
7/12/2021 12:15:00 PM 25.51 77.918 0.447 8.22 11.24 9.77
7/12/2021 12:30:00 PM 25.79 78.422 0.447 8.22 18.86 9.89
7/12/2021 12:45:00 PM 26.07 78.926 0.446 8.24 36.6 9.99
7/12/2021 1:00:00 PM 26.42 79.556 0.445 8.24 29.95 10.05
7/12/2021 1:15:00 PM 26.72 80.096 0.444 8.25 30.22 10.29
7/12/2021 1:30:00 PM 27.04 80.672 0.443 8.26 34.03 10.38
7/12/2021 1:45:00 PM 27.36 81.248 0.443 8.27 20.97 10.51
7/12/2021 2:00:00 PM 27.62 81.716 0.442 8.28 20.94 10.6
7/12/2021 2:15:00 PM 27.83 82.094 0.442 8.28 20.92 10.7
7/12/2021 2:30:00 PM 28.11 82.598 0.441 8.29 25.05 10.62
7/12/2021 2:45:00 PM 28.41 83.138 0.44 8.29 16.42 10.72
7/12/2021 3:00:00 PM 28.67 83.606 0.44 8.29 32.24 10.78
7/12/2021 3:15:00 PM 28.95 84.11 0.439 8.3 33.51 10.83
7/12/2021 3:30:00 PM 28.71 83.67799 0.439 8.3 35.13 10.63
7/12/2021 3:45:00 PM 28.4 83.12 0.439 8.31 77.28 10.2
7/12/2021 4:00:00 PM 27.99 82.382 0.436 8.3 73.07 9.6
7/12/2021 4:15:00 PM 27.72 81.896 0.437 8.28 68.14 9.13
7/12/2021 4:30:00 PM 27.45 81.41 0.437 8.25 65.87 8.72
7/12/2021 4:45:00 PM 27.17 80.906 0.437 8.22 67.48 8.22
7/12/2021 5:00:00 PM 26.94 80.492 0.437 8.19 23.81 7.88
7/12/2021 5:15:00 PM 26.71 80.078 0.438 8.16 24.1 7.67
7/12/2021 5:30:00 PM 26.5 79.7 0.437 8.13 21.82 7.53
7/12/2021 5:45:00 PM 26.34 79.412 0.437 8.11 21.42 7.32
7/12/2021 6:00:00 PM 26.15 79.07 0.437 8.07 22.49 7.23
7/12/2021 6:15:00 PM 26.05 78.89 0.437 8.04 587.4 7.13
7/12/2021 6:30:00 PM 25.96 78.728 0.437 8.05 909.9 7.21
7/12/2021 6:45:00 PM 25.86 78.548 0.437 8.04 600.9 7.21
7/12/2021 7:00:00 PM 25.79 78.422 0.438 8.02 978.3 7.21
7/12/2021 7:15:00 PM 25.69 78.242 0.438 8 1236 7.18
7/12/2021 7:30:00 PM 25.6 78.08 0.439 8.01 1696 7.11
7/12/2021 7:45:00 PM 25.52 77.936 0.439 8 1945 7.1
7/12/2021 8:00:00 PM 25.44 77.792 0.44 8 2036 7.09
7/12/2021 8:15:00 PM 25.35 77.63 0.44 8 2749 7.04
7/12/2021 8:30:00 PM 25.26 77.468 0.44 7.99 5.92 7.01
7/12/2021 8:45:00 PM 25.18 77.324 0.441 7.98 5.3 6.94
7/12/2021 9:00:00 PM 25.11 77.198 0.441 7.97 5.42 6.87
7/12/2021 9:15:00 PM 25.06 77.108 0.441 7.96 5.33 6.82
7/12/2021 9:30:00 PM 25 77 0.441 7.95 5.43 6.75
7/12/2021 9:45:00 PM 24.96 76.92799 0.442 7.94 6.78 6.68
7/12/2021 10:00:00 PM 24.92 76.856 0.442 7.93 6.44 6.66
7/12/2021 10:15:00 PM 24.89 76.802 0.442 7.92 6.2 6.64
7/12/2021 10:30:00 PM 24.86 76.748 0.442 7.92 6.87 6.62
7/12/2021 10:45:00 PM 24.83 76.694 0.443 7.92 6.16 6.65
7/12/2021 11:00:00 PM 24.81 76.658 0.443 7.91 6.35 6.59
7/12/2021 11:15:00 PM 24.8 76.64 0.444 7.9 6.73 6.66
7/12/2021 11:30:00 PM 24.79 76.622 0.444 7.9 6.31 6.69
7/12/2021 11:45:00 PM 24.79 76.622 0.445 7.9 7.4 6.69
7/13/2021 12:00:00 AM 24.79 76.622 0.446 7.9 6.5 6.71
7/13/2021 12:15:00 AM 24.78 76.604 0.446 7.9 6.32 6.71
7/13/2021 12:30:00 AM 24.79 76.622 0.447 7.9 6.44 6.77
7/13/2021 12:45:00 AM 24.8 76.64 0.447 7.9 6.22 6.77
7/13/2021 1:00:00 AM 24.8 76.64 0.447 7.91 7.87 6.79
7/13/2021 1:15:00 AM 24.81 76.658 0.448 7.9 7.78 6.82
7/13/2021 1:30:00 AM 24.82 76.676 0.448 7.9 6.97 6.81
7/13/2021 1:45:00 AM 24.84 76.712 0.448 7.91 12.34 6.85
7/13/2021 2:00:00 AM 24.85 76.73 0.447 7.91 7.77 6.91
7/13/2021 2:15:00 AM 24.87 76.766 0.448 7.92 10.58 6.94
7/13/2021 2:30:00 AM 24.88 76.784 0.448 7.92 7.08 6.95
7/13/2021 2:45:00 AM 24.89 76.802 0.448 7.93 7.39 6.94
7/13/2021 3:00:00 AM 24.93 76.874 0.449 7.93 7.63 7.01
7/13/2021 3:15:00 AM 24.96 76.92799 0.449 7.93 91.11 7.02
7/13/2021 3:30:00 AM 25 77 0.449 7.94 11.28 7.01
7/13/2021 3:45:00 AM 25.03 77.054 0.449 7.95 9.08 7.07
7/13/2021 4:00:00 AM 25.08 77.144 0.449 7.95 7.43 7.05
7/13/2021 4:15:00 AM 25.12 77.216 0.449 7.96 11.67 7.07
7/13/2021 4:30:00 AM 25.17 77.306 0.449 7.96 11.73 7.07
7/13/2021 4:45:00 AM 25.22 77.396 0.449 7.97 9.1 7.09
7/13/2021 5:00:00 AM 25.27 77.486 0.449 7.98 8.8 7.09
7/13/2021 5:15:00 AM 25.31 77.558 0.45 7.98 12.79 7.04
7/13/2021 5:30:00 AM 25.35 77.63 0.45 7.98 44.18 7.02
7/13/2021 5:45:00 AM 25.37 77.666 0.451 7.98 682.3 6.97
7/13/2021 6:00:00 AM 25.38 77.684 0.451 7.98 18.16 7
7/13/2021 6:15:00 AM 25.4 77.72 0.452 7.98 343.1 6.99
7/13/2021 6:30:00 AM 25.43 77.774 0.452 7.98 445.8 7.04
7/13/2021 6:45:00 AM 25.45 77.81 0.453 7.97 384 7.02
7/13/2021 7:00:00 AM 25.48 77.864 0.453 7.97 272.7 7.09
7/13/2021 7:15:00 AM 25.48 77.864 0.453 7.98 1541 7.04
7/13/2021 7:30:00 AM 25.5 77.9 0.454 7.97 367.1 7
7/13/2021 7:45:00 AM 25.51 77.918 0.454 7.97 357.5 7.08
7/13/2021 8:00:00 AM 25.54 77.972 0.454 7.97 901.1 7.11
7/13/2021 8:15:00 AM 25.56 78.008 0.455 7.97 362.6 7.15
7/13/2021 8:30:00 AM 25.57 78.026 0.455 7.98 454 7.11
7/13/2021 8:45:00 AM 25.57 78.026 0.455 7.98 10.79 7.34
7/13/2021 9:00:00 AM 25.59 78.062 0.456 7.97 6182 7.45
7/13/2021 9:15:00 AM 25.59 78.062 0.456 7.99 529.7 7.54
7/13/2021 9:30:00 AM 25.58 78.044 0.456 7.99 1073 7.49
7/13/2021 9:45:00 AM 25.58 78.044 0.457 7.98 784.4 7.6
7/13/2021 10:00:00 AM 25.58 78.044 0.457 7.99 327.5 7.7
7/13/2021 10:15:00 AM 25.6 78.08 0.457 8 4229 7.78
7/13/2021 10:30:00 AM 25.62 78.116 0.457 8 1512 7.87
7/13/2021 10:45:00 AM 25.62 78.116 0.457 8 816.5 7.91
7/13/2021 11:00:00 AM 25.61 78.098 0.457 8.01 1605 7.88
7/13/2021 11:15:00 AM 25.61 78.098 0.457 8.01 345.8 7.83
7/13/2021 11:30:00 AM 25.64 78.152 0.457 8.01 665.8 8.12
7/13/2021 11:45:00 AM 25.69 78.242 0.457 8.02 5349 8.31
7/13/2021 12:00:00 PM 25.77 78.386 0.456 8.02 1699 8.41
7/13/2021 12:15:00 PM 25.75 78.35 0.457 8.04 973.5 8.39
7/13/2021 12:30:00 PM 25.75 78.35 0.457 8.03 1045 8.39
7/13/2021 12:45:00 PM 25.77 78.386 0.457 8.04 4443 8.39
7/13/2021 1:00:00 PM 26 78.8 0.456 8.03 2101 8.69
7/13/2021 1:15:00 PM 26.01 78.818 0.456 8.04 298.5 8.6
7/13/2021 1:30:00 PM 26.23 79.214 0.456 8.05 311.7 8.79
7/13/2021 1:45:00 PM 26.4 79.52 0.456 8.06 240.9 8.96
7/13/2021 2:00:00 PM 26.58 79.844 0.456 8.06 173.5 9.02
7/13/2021 2:15:00 PM 26.59 79.862 0.456 8.06 172.9 9.06
7/13/2021 2:30:00 PM 26.72 80.096 0.456 8.07 166.6 9.12
7/13/2021 2:45:00 PM 26.76 80.168 0.456 8.07 174.9 9.13
7/13/2021 3:00:00 PM 26.82 80.276 0.456 8.08 152.8 9.15
7/13/2021 3:15:00 PM 27 80.6 0.456 8.08 150.1 9.2
7/13/2021 3:30:00 PM 26.95 80.51 0.457 8.08 165.5 9.08
7/13/2021 3:45:00 PM 26.99 80.582 0.457 8.08 212.2 9.02
7/13/2021 4:00:00 PM 27.18 80.924 0.457 8.07 199 9.09
7/13/2021 4:15:00 PM 27.24 81.032 0.457 8.08 179.5 9.07
7/13/2021 4:30:00 PM 27.29 81.122 0.457 8.09 185.4 9.05
7/13/2021 4:45:00 PM 27.34 81.212 0.457 8.07 195.3 8.94
7/13/2021 5:00:00 PM 27.46 81.42799 0.458 8.07 193.6 8.99
7/13/2021 5:15:00 PM 27.51 81.518 0.458 8.08 256.5 8.99
7/13/2021 5:30:00 PM 27.51 81.518 0.457 8.08 263.5 9
7/13/2021 5:45:00 PM 27.46 81.42799 0.458 8.08 262.8 8.82
7/13/2021 6:00:00 PM 27.46 81.42799 0.458 8.08 247.4 8.78
7/13/2021 6:15:00 PM 27.37 81.266 0.458 8.08 237.3 8.65
7/13/2021 6:30:00 PM 27.31 81.158 0.458 8.08 235.6 8.52
7/13/2021 6:45:00 PM 27.11 80.798 0.458 8.07 234 8.26
7/13/2021 7:00:00 PM 26.92 80.456 0.459 8.06 263.4 7.97
7/13/2021 7:15:00 PM 26.78 80.204 0.458 8.05 251.5 7.72
7/13/2021 7:30:00 PM 26.63 79.934 0.458 8.03 285 7.52
7/13/2021 7:45:00 PM 26.47 79.646 0.458 8.02 300.1 7.35
7/13/2021 8:00:00 PM 26.31 79.358 0.458 8.01 267.2 7.16
7/13/2021 8:15:00 PM 26.22 79.196 0.458 7.99 203.9 7.04
7/13/2021 8:30:00 PM 26.09 78.962 0.458 7.98 224.5 6.91
7/13/2021 8:45:00 PM 26 78.8 0.458 7.97 237.6 6.8
7/13/2021 9:00:00 PM 25.93 78.674 0.458 7.95 348.4 6.71
7/13/2021 9:15:00 PM 25.86 78.548 0.457 7.94 323 6.65
7/13/2021 9:30:00 PM 25.82 78.476 0.457 7.93 328.3 6.62
7/13/2021 9:45:00 PM 25.76 78.368 0.457 7.93 224 6.58
7/13/2021 10:00:00 PM 25.71 78.278 0.457 7.91 239.3 6.51
7/13/2021 10:15:00 PM 25.68 78.224 0.457 7.92 410.2 6.52
7/13/2021 10:30:00 PM 25.63 78.134 0.457 7.91 450.4 6.52
7/13/2021 10:45:00 PM 25.6 78.08 0.456 7.91 147.6 6.54
7/13/2021 11:00:00 PM 25.56 78.008 0.457 7.91 162.5 6.48
7/13/2021 11:15:00 PM 25.53 77.954 0.456 7.9 161.6 6.51
7/13/2021 11:30:00 PM 25.51 77.918 0.456 7.91 157.6 6.53
7/13/2021 11:45:00 PM 25.49 77.882 0.456 7.91 178.1 6.48
7/14/2021 12:00:00 AM 25.47 77.846 0.456 7.9 214.4 6.5
7/14/2021 12:15:00 AM 25.45 77.81 0.455 7.92 209.3 6.55
7/14/2021 12:30:00 AM 25.43 77.774 0.455 7.92 212.3 6.52
7/14/2021 12:45:00 AM 25.43 77.774 0.455 7.92 234 6.58
7/14/2021 1:00:00 AM 25.43 77.774 0.455 7.92 241.5 6.58
7/14/2021 1:15:00 AM 25.43 77.774 0.455 7.93 200.6 6.61
7/14/2021 1:30:00 AM 25.42 77.756 0.455 7.93 231 6.62
7/14/2021 1:45:00 AM 25.43 77.774 0.455 7.93 207.2 6.63
7/14/2021 2:00:00 AM 25.42 77.756 0.455 7.94 225.7 6.65
7/14/2021 2:15:00 AM 25.43 77.774 0.454 7.94 189.5 6.69
7/14/2021 2:30:00 AM 25.44 77.792 0.454 7.94 199.8 6.69
7/14/2021 2:45:00 AM 25.46 77.828 0.454 7.95 169.6 6.72
7/14/2021 3:00:00 AM 25.46 77.828 0.454 7.96 203.2 6.7
7/14/2021 3:15:00 AM 25.46 77.828 0.454 7.96 190.6 6.71
7/14/2021 3:30:00 AM 25.46 77.828 0.454 7.96 347.7 6.71
7/14/2021 3:45:00 AM 25.46 77.828 0.454 7.97 150.7 6.75
7/14/2021 4:00:00 AM 25.45 77.81 0.454 7.97 147.1 6.73
7/14/2021 4:15:00 AM 25.45 77.81 0.454 7.98 155.9 6.74
7/14/2021 4:30:00 AM 25.43 77.774 0.453 7.97 157.9 6.74
7/14/2021 4:45:00 AM 25.42 77.756 0.453 7.98 147.7 6.74
7/14/2021 5:00:00 AM 25.42 77.756 0.453 7.98 153.7 6.74
7/14/2021 5:15:00 AM 25.4 77.72 0.453 7.98 169.2 6.75
7/14/2021 5:30:00 AM 25.37 77.666 0.453 7.98 160.4 6.71
7/14/2021 5:45:00 AM 25.38 77.684 0.437 7.98 180 6.72
7/14/2021 6:00:00 AM 25.37 77.666 0.453 7.98 284 6.76
7/14/2021 6:15:00 AM 25.36 77.648 0.453 7.98 324.4 6.72
7/14/2021 6:30:00 AM 25.36 77.648 0.452 7.98 330.4 6.77
7/14/2021 6:45:00 AM 25.36 77.648 0.452 7.99 327.9 6.79
7/14/2021 7:00:00 AM 25.37 77.666 0.452 7.99 307.8 6.77
7/14/2021 7:15:00 AM 25.39 77.702 0.452 7.99 275.9 6.8
7/14/2021 7:30:00 AM 25.42 77.756 0.452 7.98 276.2 6.82
7/14/2021 7:45:00 AM 25.45 77.81 0.452 7.98 313.5 6.87
7/14/2021 8:00:00 AM 25.49 77.882 0.451 7.99 283.2 6.86
7/14/2021 8:15:00 AM 25.52 77.936 0.451 7.99 328.8 6.94
7/14/2021 8:30:00 AM 25.56 78.008 0.451 7.99 312.5 7.06
7/14/2021 8:45:00 AM 25.61 78.098 0.45 7.99 358.9 7.15
7/14/2021 9:00:00 AM 25.67 78.206 0.45 8 416.9 7.17
7/14/2021 9:15:00 AM 25.7 78.26 0.45 8.01 472.2 7.3
7/14/2021 9:30:00 AM 25.75 78.35 0.449 8.01 331.1 7.41
7/14/2021 9:45:00 AM 25.81 78.458 0.449 8.01 237.3 7.55
7/14/2021 10:00:00 AM 25.82 78.476 0.449 8.03 11.35 7.67
7/14/2021 10:15:00 AM 25.9 78.62 0.449 8.03 1227 7.82
7/14/2021 10:30:00 AM 25.99 78.782 0.448 8.05 188.2 7.98
7/14/2021 10:45:00 AM 26.11 78.998 0.447 8.05 4425 8.19
7/14/2021 11:00:00 AM 26.21 79.17799 0.447 8.08 559.4 8.33
7/14/2021 11:15:00 AM 26.37 79.466 0.446 8.09 578.5 8.61
7/14/2021 11:30:00 AM 26.52 79.736 0.445 8.11 582.3 8.78
7/14/2021 11:45:00 AM 26.6 79.88 0.445 8.12 642 8.89
7/14/2021 12:00:00 PM 26.8 80.24 0.445 8.14 707.8 9.03
7/14/2021 12:15:00 PM 26.99 80.582 0.444 8.16 803 9.23
7/14/2021 12:30:00 PM 27.1 80.78 0.444 8.17 828.2 9.3
7/14/2021 12:45:00 PM 27.29 81.122 0.443 8.17 784.8 9.42
7/14/2021 1:00:00 PM 27.51 81.518 0.443 8.19 1122 9.5
7/14/2021 1:15:00 PM 27.81 82.058 0.443 8.19 1510 9.71
7/14/2021 1:30:00 PM 27.94 82.292 0.442 8.2 1300 9.79
7/14/2021 1:45:00 PM 28.24 82.832 0.442 8.21 1291 9.69
7/14/2021 2:00:00 PM 28.43 83.174 0.441 8.21 1235 9.97
7/14/2021 2:15:00 PM 28.1 82.58 0.442 8.23 1289 9.71
7/14/2021 2:30:00 PM 27.87 82.166 0.443 8.22 1350 9.34
7/14/2021 2:45:00 PM 27.61 81.698 0.438 8.2 734.3 8.81
7/14/2021 3:00:00 PM 27.48 81.464 0.435 8.17 1209 8.5
7/14/2021 3:15:00 PM 27.15 80.87 0.423 8.15 282.4 8.19
7/14/2021 3:30:00 PM 27.58 81.644 0.418 8.13 1335 8.32
7/14/2021 3:45:00 PM 27.78 82.004 0.417 8.11 59.49 8.44
7/14/2021 4:00:00 PM 27.91 82.238 0.421 8.11 7.61 8.54
7/14/2021 4:15:00 PM 28.04 82.472 0.424 8.11 18.49 8.63
7/14/2021 4:30:00 PM 28.05 82.49 0.422 8.1 372.6 8.73
7/14/2021 4:45:00 PM 27.7 81.86 0.421 8.09 999.6 8.34
7/14/2021 5:00:00 PM 27.58 81.644 0.42 8.08 480.6 8.26
7/14/2021 5:15:00 PM 27.8 82.04 0.422 8.06 602.6 8.53
7/14/2021 5:30:00 PM 27.83 82.094 0.424 8.07 864.3 8.59
7/14/2021 5:45:00 PM 27.84 82.112 0.425 8.07 1084 8.59
7/14/2021 6:00:00 PM 27.85 82.13 0.426 8.07 4.79 8.55
7/14/2021 6:15:00 PM 27.79 82.022 0.428 8.07 5.35 8.56
7/14/2021 6:30:00 PM 27.63 81.734 0.429 8.07 5.45 8.38
7/14/2021 6:45:00 PM 27.41 81.338 0.431 8.06 5.28 8.13
7/14/2021 7:00:00 PM 27.26 81.068 0.432 8.05 4.66 7.95
7/14/2021 7:15:00 PM 27.06 80.708 0.433 8.03 4.53 7.74
7/14/2021 7:30:00 PM 26.94 80.492 0.434 8.02 5.48 7.53
7/14/2021 7:45:00 PM 26.83 80.294 0.435 8.01 3.93 7.35
7/14/2021 8:00:00 PM 26.72 80.096 0.436 7.99 4.5 7.17
7/14/2021 8:15:00 PM 26.6 79.88 0.437 7.98 4.01 7.03
7/14/2021 8:30:00 PM 26.5 79.7 0.438 7.96 4.59 6.84
7/14/2021 8:45:00 PM 26.39 79.502 0.438 7.94 5.28 6.7
7/14/2021 9:00:00 PM 26.31 79.358 0.439 7.93 8.23 6.61
7/14/2021 9:15:00 PM 26.22 79.196 0.44 7.92 6.53 6.51
7/14/2021 9:30:00 PM 26.16 79.088 0.44 7.91 5.65 6.38
7/14/2021 9:45:00 PM 26.1 78.98 0.441 7.89 4.67 6.35
7/14/2021 10:00:00 PM 26.04 78.872 0.441 7.88 5.6 6.31
7/14/2021 10:15:00 PM 25.99 78.782 0.441 7.88 5.2 6.26
7/14/2021 10:30:00 PM 25.94 78.692 0.442 7.86 5.26 6.22
7/14/2021 10:45:00 PM 25.89 78.602 0.442 7.86 5.13 6.18
7/14/2021 11:00:00 PM 25.84 78.512 0.443 7.85 6.4 6.22
7/14/2021 11:15:00 PM 25.81 78.458 0.443 7.85 6.07 6.19
7/14/2021 11:30:00 PM 25.76 78.368 0.444 7.85 5.83 6.22
7/14/2021 11:45:00 PM 25.72 78.296 0.444 7.84 5.61 6.22
7/15/2021 12:00:00 AM 25.68 78.224 0.444 7.84 6.38 6.18
7/15/2021 12:15:00 AM 25.65 78.17 0.444 7.84 5.39 6.2
7/15/2021 12:30:00 AM 25.61 78.098 0.445 7.84 5.67 6.21
7/15/2021 12:45:00 AM 25.59 78.062 0.445 7.84 4.6 6.27
7/15/2021 1:00:00 AM 25.56 78.008 0.445 7.84 4.56 6.26
7/15/2021 1:15:00 AM 25.53 77.954 0.445 7.83 8.23 6.27
7/15/2021 1:30:00 AM 25.51 77.918 0.445 7.84 4.94 6.27
7/15/2021 1:45:00 AM 25.49 77.882 0.445 7.84 5.07 6.3
7/15/2021 2:00:00 AM 25.46 77.828 0.445 7.85 78.12 6.29
7/15/2021 2:15:00 AM 25.44 77.792 0.445 7.84 5.48 6.32
7/15/2021 2:30:00 AM 25.42 77.756 0.445 7.85 4.58 6.34
7/15/2021 2:45:00 AM 25.4 77.72 0.445 7.85 9.47 6.26
7/15/2021 3:00:00 AM 25.4 77.72 0.445 7.85 5 6.34
7/15/2021 3:15:00 AM 25.38 77.684 0.444 7.84 5.02 6.36
7/15/2021 3:30:00 AM 25.37 77.666 0.444 7.85 5.54 6.39
7/15/2021 3:45:00 AM 25.36 77.648 0.444 7.85 5.32 6.41
7/15/2021 4:00:00 AM 25.33 77.594 0.444 7.86 5.43 6.34
7/15/2021 4:15:00 AM 25.33 77.594 0.444 7.87 7.25 6.4
7/15/2021 4:30:00 AM 25.3 77.54 0.444 7.87 6.59 6.39
7/15/2021 4:45:00 AM 25.31 77.558 0.443 7.86 4.7 6.36
7/15/2021 5:00:00 AM 25.29 77.522 0.443 7.86 8.61 6.36
7/15/2021 5:15:00 AM 25.3 77.54 0.442 7.88 8.15 6.45
7/15/2021 5:30:00 AM 25.28 77.504 0.442 7.88 8.52 6.45
7/15/2021 5:45:00 AM 25.25 77.45 0.442 7.88 6.15 6.45
7/15/2021 6:00:00 AM 25.26 77.468 0.442 7.89 5.84 6.49
7/15/2021 6:15:00 AM 25.25 77.45 0.441 7.89 5.4 6.51
7/15/2021 6:30:00 AM 25.25 77.45 0.441 7.88 5.39 6.49
7/15/2021 6:45:00 AM 25.23 77.414 0.441 7.89 4.81 6.52
7/15/2021 7:00:00 AM 25.25 77.45 0.441 7.89 5.84 6.52
7/15/2021 7:15:00 AM 25.26 77.468 0.441 7.89 5.12 6.56
7/15/2021 7:30:00 AM 25.3 77.54 0.441 7.9 5.21 6.61
7/15/2021 7:45:00 AM 25.31 77.558 0.44 7.91 5.22 6.67
7/15/2021 8:00:00 AM 25.37 77.666 0.44 7.9 4.39 6.7
7/15/2021 8:15:00 AM 25.43 77.774 0.44 7.92 4.16 6.88
7/15/2021 8:30:00 AM 25.49 77.882 0.439 7.92 4.87 7
7/15/2021 8:45:00 AM 25.57 78.026 0.438 7.93 4.18 7.15
7/15/2021 9:00:00 AM 25.63 78.134 0.438 7.94 4.6 7.31
7/15/2021 9:15:00 AM 25.69 78.242 0.437 7.96 5.02 7.45
7/15/2021 9:30:00 AM 25.77 78.386 0.436 7.97 3.68 7.58
7/15/2021 9:45:00 AM 25.84 78.512 0.436 8 3.91 7.83
7/15/2021 10:00:00 AM 25.92 78.656 0.435 8.01 4.12 7.99
7/15/2021 10:15:00 AM 26.05 78.89 0.434 8.03 4.05 8.21
7/15/2021 10:30:00 AM 26.16 79.088 0.433 8.04 7.06 8.42
7/15/2021 10:45:00 AM 26.24 79.232 0.433 8.07 3.8 8.59
7/15/2021 11:00:00 AM 26.37 79.466 0.432 8.09 4.16 8.79
7/15/2021 11:15:00 AM 26.48 79.664 0.431 8.11 3.38 8.96
7/15/2021 11:30:00 AM 26.64 79.952 0.43 8.13 3.31 9.18
7/15/2021 11:45:00 AM 26.8 80.24 0.429 8.15 3.95 9.29
7/15/2021 12:00:00 PM 26.85 80.33 0.429 8.17 3.95 9.4
7/15/2021 12:15:00 PM 27.07 80.726 0.428 8.19 3.72 9.52
7/15/2021 12:30:00 PM 27.28 81.104 0.427 8.2 3.76 9.67
7/15/2021 12:45:00 PM 27.51 81.518 0.427 8.21 5.37 9.84
7/15/2021 1:00:00 PM 27.78 82.004 0.426 8.23 3.58 10.06
7/15/2021 1:15:00 PM 28.1 82.58 0.426 8.24 3.39 10.21
7/15/2021 1:30:00 PM 28.32 82.976 0.425 8.25 3.4 10.35
7/15/2021 1:45:00 PM 28.52 83.336 0.424 8.26 6.59 10.33
7/15/2021 2:00:00 PM 28.77 83.786 0.424 8.27 3.35 10.41
7/15/2021 2:15:00 PM 29.01 84.218 0.423 8.28 5.31 10.61
7/15/2021 2:30:00 PM 29.02 84.236 0.423 8.28 3.79 10.61
7/15/2021 2:45:00 PM 28.73 83.714 0.424 8.29 3.74 10.2
7/15/2021 3:00:00 PM 28.58 83.444 0.424 8.28 3.65 9.86
7/15/2021 3:15:00 PM 28.5 83.3 0.424 8.27 3.27 9.79
7/15/2021 3:30:00 PM 28.43 83.174 0.423 8.27 4.49 9.77
7/15/2021 3:45:00 PM 28.66 83.588 0.423 8.26 4.58 9.76
7/15/2021 4:00:00 PM 28.87 83.966 0.423 8.25 3.62 9.94
7/15/2021 4:15:00 PM 28.98 84.164 0.422 8.25 4.41 9.96
7/15/2021 4:30:00 PM 29.08 84.344 0.422 8.25 4.07 10.03
7/15/2021 4:45:00 PM 29.18 84.524 0.422 8.24 5.1 10.03
7/15/2021 5:00:00 PM 29.19 84.542 0.422 8.24 4.99 9.99
7/15/2021 5:15:00 PM 29.22 84.59599 0.421 8.24 4.79 9.92
7/15/2021 5:30:00 PM 29.19 84.542 0.421 8.24 4.53 9.88
7/15/2021 5:45:00 PM 29.15 84.47 0.422 8.23 4.95 9.77
7/15/2021 6:00:00 PM 29.08 84.344 0.422 8.23 4.15 9.61
7/15/2021 6:15:00 PM 28.96 84.128 0.422 8.23 6.75 9.39
7/15/2021 6:30:00 PM 28.81 83.858 0.422 8.21 3.88 9.29
7/15/2021 6:45:00 PM 28.66 83.588 0.423 8.21 4.21 8.99
7/15/2021 7:00:00 PM 28.43 83.174 0.424 8.2 5.34 8.72
7/15/2021 7:15:00 PM 28.24 82.832 0.425 8.17 40.76 8.37
7/15/2021 7:30:00 PM 28.01 82.418 0.426 8.16 3.01 8.15
7/15/2021 7:45:00 PM 27.85 82.13 0.426 8.14 6.62 7.89
7/15/2021 8:00:00 PM 27.63 81.734 0.427 8.11 3.61 7.58
7/15/2021 8:15:00 PM 27.46 81.42799 0.428 8.09 3.9 7.33
7/15/2021 8:30:00 PM 27.28 81.104 0.429 8.07 4.1 7.05
7/15/2021 8:45:00 PM 27.12 80.816 0.429 8.04 4.25 6.86
7/15/2021 9:00:00 PM 27.01 80.618 0.43 8.01 7.35 6.67
7/15/2021 9:15:00 PM 26.9 80.42 0.431 7.99 5.3 6.49
7/15/2021 9:30:00 PM 26.8 80.24 0.431 7.97 4.79 6.37
7/15/2021 9:45:00 PM 26.7 80.06 0.432 7.93 5.74 6.25
7/15/2021 10:00:00 PM 26.6 79.88 0.432 7.93 3.87 6.16
7/15/2021 10:15:00 PM 26.51 79.718 0.433 7.92 6.14 6.04
7/15/2021 10:30:00 PM 26.43 79.574 0.433 7.9 4.22 5.97
7/15/2021 10:45:00 PM 26.34 79.412 0.434 7.89 6.03 6
7/15/2021 11:00:00 PM 26.27 79.286 0.434 7.88 5.17 5.93
7/15/2021 11:15:00 PM 26.19 79.142 0.435 7.87 4.62 5.9
7/15/2021 11:30:00 PM 26.12 79.016 0.435 7.86 7.64 5.93
7/15/2021 11:45:00 PM 26.05 78.89 0.436 7.87 3.68 5.91
7/16/2021 12:00:00 AM 25.98 78.764 0.436 7.86 5.88 5.91
7/16/2021 12:15:00 AM 25.93 78.674 0.437 7.86 5.07 5.94
7/16/2021 12:30:00 AM 25.86 78.548 0.438 7.85 5.52 5.97
7/16/2021 12:45:00 AM 25.81 78.458 0.438 7.85 4.77 5.98
7/16/2021 1:00:00 AM 25.75 78.35 0.439 7.86 5.83 6.01
7/16/2021 1:15:00 AM 25.7 78.26 0.439 7.85 4.89 6.04
7/16/2021 1:30:00 AM 25.67 78.206 0.44 7.86 4.48 6.05
7/16/2021 1:45:00 AM 25.63 78.134 0.44 7.86 4.81 6.08
7/16/2021 2:00:00 AM 25.59 78.062 0.441 7.86 4.02 6.07
7/16/2021 2:15:00 AM 25.55 77.99 0.441 7.86 4.64 6.1
7/16/2021 2:30:00 AM 25.54 77.972 0.442 7.86 5.84 6.13
7/16/2021 2:45:00 AM 25.5 77.9 0.442 7.86 4.53 6.08
7/16/2021 3:00:00 AM 25.48 77.864 0.442 7.86 5.03 6.1
7/16/2021 3:15:00 AM 25.46 77.828 0.442 7.87 5.17 6.17
7/16/2021 3:30:00 AM 25.44 77.792 0.442 7.87 5.33 6.16
7/16/2021 3:45:00 AM 25.43 77.774 0.442 7.88 4.35 6.17
7/16/2021 4:00:00 AM 25.41 77.738 0.443 7.87 5.89 6.22
7/16/2021 4:15:00 AM 25.39 77.702 0.442 7.88 5.07 6.22
7/16/2021 4:30:00 AM 25.39 77.702 0.443 7.87 5.01 6.25
7/16/2021 4:45:00 AM 25.38 77.684 0.443 7.88 7.98 6.25
7/16/2021 5:00:00 AM 25.36 77.648 0.443 7.88 7.69 6.26
7/16/2021 5:15:00 AM 25.35 77.63 0.443 7.88 8.01 6.2
7/16/2021 5:30:00 AM 25.35 77.63 0.443 7.9 18.45 6.25
7/16/2021 5:45:00 AM 25.36 77.648 0.443 7.9 5.01 6.37
7/16/2021 6:00:00 AM 25.35 77.63 0.443 7.9 10.11 6.33
7/16/2021 6:15:00 AM 25.36 77.648 0.443 7.9 6.64 6.35
7/16/2021 6:30:00 AM 25.35 77.63 0.443 7.9 5.75 6.34
7/16/2021 6:45:00 AM 25.37 77.666 0.443 7.91 6.75 6.36
7/16/2021 7:00:00 AM 25.4 77.72 0.443 7.91 1635 6.45
7/16/2021 7:15:00 AM 25.44 77.792 0.443 7.92 4.48 6.45
7/16/2021 7:30:00 AM 25.49 77.882 0.443 7.92 777.3 6.5
7/16/2021 7:45:00 AM 25.56 78.008 0.443 7.92 783.4 6.65
7/16/2021 8:00:00 AM 25.61 78.098 0.443 7.94 761.5 6.72
7/16/2021 8:15:00 AM 25.69 78.242 0.443 7.95 735.3 6.77
7/16/2021 8:30:00 AM 25.77 78.386 0.443 7.97 744.4 6.94
7/16/2021 8:45:00 AM 25.85 78.53 0.443 7.98 723.2 6.99
7/16/2021 9:00:00 AM 25.91 78.638 0.443 7.99 702 7.17
7/16/2021 9:15:00 AM 26 78.8 0.443 8 705.8 7.39
7/16/2021 9:30:00 AM 26.08 78.944 0.443 8.01 654 7.3
7/16/2021 9:45:00 AM 26.15 79.07 0.443 8.03 605.3 7.63
7/16/2021 10:00:00 AM 26.24 79.232 0.443 8.05 531.8 7.75
7/16/2021 10:15:00 AM 26.32 79.376 0.442 8.07 388 7.86
7/16/2021 10:30:00 AM 26.4